<?xml version="1.0" encoding="UTF-8" standalone="no" ?>
<gpx xmlns="http://www.topografix.com/GPX/1/1" xmlns:xsi="http://www.w3.org/2001/XMLSchema-instance" xsi:schemaLocation="http://www.topografix.com/GPX/1/1 http://www.topografix.com/GPX/1/1/gpx.xsd" version="1.1" creator="VisuGPX - https://www.visugpx.com">
  <metadata>
    <name>Duranus/Col St Michel</name>
    <desc><![CDATA[Départ 8h duranus pour une boucle sympa]]></desc>
  </metadata>
  <trk>
    <name><![CDATA[(null)]]></name>
    <desc><![CDATA[(null)]]></desc>
    <trkseg>
      <trkpt lat="43.89419" lon="7.25844">
        <ele>406.437183</ele>
        <time>2011-12-04T07:29:10Z</time>
      </trkpt>
      <trkpt lat="43.89419" lon="7.25844">
        <ele>406.437183</ele>
        <time>2011-12-04T07:29:11Z</time>
      </trkpt>
      <trkpt lat="43.8941" lon="7.25975">
        <ele>449.437439</ele>
        <time>2011-12-04T07:30:14Z</time>
      </trkpt>
      <trkpt lat="43.8941" lon="7.25975">
        <ele>449.437439</ele>
        <time>2011-12-04T07:30:18Z</time>
      </trkpt>
      <trkpt lat="43.89395" lon="7.26038">
        <ele>440.437546</ele>
        <time>2011-12-04T07:30:35Z</time>
      </trkpt>
      <trkpt lat="43.89395" lon="7.26038">
        <ele>440.437546</ele>
        <time>2011-12-04T07:30:37Z</time>
      </trkpt>
      <trkpt lat="43.894" lon="7.26078">
        <ele>442.437637</ele>
        <time>2011-12-04T07:30:49Z</time>
      </trkpt>
      <trkpt lat="43.89397" lon="7.26118">
        <ele>448.437717</ele>
        <time>2011-12-04T07:31:07Z</time>
      </trkpt>
      <trkpt lat="43.89376" lon="7.26093">
        <ele>450.437637</ele>
        <time>2011-12-04T07:31:46Z</time>
      </trkpt>
      <trkpt lat="43.89387" lon="7.26056">
        <ele>452.437572</ele>
        <time>2011-12-04T07:31:58Z</time>
      </trkpt>
      <trkpt lat="43.89395" lon="7.26042">
        <ele>454.437557</ele>
        <time>2011-12-04T07:32:07Z</time>
      </trkpt>
      <trkpt lat="43.89417" lon="7.26011">
        <ele>456.437523</ele>
        <time>2011-12-04T07:32:23Z</time>
      </trkpt>
      <trkpt lat="43.89436" lon="7.25981">
        <ele>458.437485</ele>
        <time>2011-12-04T07:32:40Z</time>
      </trkpt>
      <trkpt lat="43.89453" lon="7.25952">
        <ele>458.43745</ele>
        <time>2011-12-04T07:32:53Z</time>
      </trkpt>
      <trkpt lat="43.89476" lon="7.25928">
        <ele>458.437431</ele>
        <time>2011-12-04T07:33:06Z</time>
      </trkpt>
      <trkpt lat="43.89492" lon="7.25894">
        <ele>458.437389</ele>
        <time>2011-12-04T07:33:24Z</time>
      </trkpt>
      <trkpt lat="43.89499" lon="7.25856">
        <ele>458.437317</ele>
        <time>2011-12-04T07:33:33Z</time>
      </trkpt>
      <trkpt lat="43.89515" lon="7.25824">
        <ele>462.437279</ele>
        <time>2011-12-04T07:33:44Z</time>
      </trkpt>
      <trkpt lat="43.89537" lon="7.25799">
        <ele>466.437256</ele>
        <time>2011-12-04T07:34:00Z</time>
      </trkpt>
      <trkpt lat="43.89549" lon="7.25763">
        <ele>466.437195</ele>
        <time>2011-12-04T07:34:20Z</time>
      </trkpt>
      <trkpt lat="43.89558" lon="7.25726">
        <ele>471.437134</ele>
        <time>2011-12-04T07:34:33Z</time>
      </trkpt>
      <trkpt lat="43.89573" lon="7.25693">
        <ele>471.437084</ele>
        <time>2011-12-04T07:34:46Z</time>
      </trkpt>
      <trkpt lat="43.89581" lon="7.25683">
        <ele>471.437077</ele>
        <time>2011-12-04T07:34:51Z</time>
      </trkpt>
      <trkpt lat="43.89589" lon="7.25674">
        <ele>471.437065</ele>
        <time>2011-12-04T07:34:55Z</time>
      </trkpt>
      <trkpt lat="43.89602" lon="7.25643">
        <ele>471.437023</ele>
        <time>2011-12-04T07:35:07Z</time>
      </trkpt>
      <trkpt lat="43.89605" lon="7.2563">
        <ele>472.437</ele>
        <time>2011-12-04T07:35:11Z</time>
      </trkpt>
      <trkpt lat="43.89609" lon="7.25617">
        <ele>473.436981</ele>
        <time>2011-12-04T07:35:15Z</time>
      </trkpt>
      <trkpt lat="43.89617" lon="7.25601">
        <ele>474.436958</ele>
        <time>2011-12-04T07:35:21Z</time>
      </trkpt>
      <trkpt lat="43.89623" lon="7.2559">
        <ele>476.436943</ele>
        <time>2011-12-04T07:35:26Z</time>
      </trkpt>
      <trkpt lat="43.89625" lon="7.25585">
        <ele>477.436935</ele>
        <time>2011-12-04T07:35:29Z</time>
      </trkpt>
      <trkpt lat="43.89636" lon="7.25565">
        <ele>480.436909</ele>
        <time>2011-12-04T07:35:40Z</time>
      </trkpt>
      <trkpt lat="43.89643" lon="7.25555">
        <ele>480.436897</ele>
        <time>2011-12-04T07:35:47Z</time>
      </trkpt>
      <trkpt lat="43.89663" lon="7.25526">
        <ele>485.436867</ele>
        <time>2011-12-04T07:36:05Z</time>
      </trkpt>
      <trkpt lat="43.8969" lon="7.2552">
        <ele>486.43689</ele>
        <time>2011-12-04T07:36:27Z</time>
      </trkpt>
      <trkpt lat="43.89756" lon="7.2551">
        <ele>485.436958</ele>
        <time>2011-12-04T07:36:54Z</time>
      </trkpt>
      <trkpt lat="43.89794" lon="7.25494">
        <ele>482.436981</ele>
        <time>2011-12-04T07:37:01Z</time>
      </trkpt>
      <trkpt lat="43.89813" lon="7.25489">
        <ele>480.436996</ele>
        <time>2011-12-04T07:37:10Z</time>
      </trkpt>
      <trkpt lat="43.89823" lon="7.2549">
        <ele>480.437012</ele>
        <time>2011-12-04T07:37:12Z</time>
      </trkpt>
      <trkpt lat="43.89837" lon="7.25494">
        <ele>480.437038</ele>
        <time>2011-12-04T07:37:15Z</time>
      </trkpt>
      <trkpt lat="43.89846" lon="7.25498">
        <ele>480.437061</ele>
        <time>2011-12-04T07:37:17Z</time>
      </trkpt>
      <trkpt lat="43.89858" lon="7.25499">
        <ele>480.437077</ele>
        <time>2011-12-04T07:37:19Z</time>
      </trkpt>
      <trkpt lat="43.8987" lon="7.25498">
        <ele>480.437096</ele>
        <time>2011-12-04T07:37:21Z</time>
      </trkpt>
      <trkpt lat="43.8988" lon="7.25491">
        <ele>481.437092</ele>
        <time>2011-12-04T07:37:23Z</time>
      </trkpt>
      <trkpt lat="43.8989" lon="7.25486">
        <ele>481.437096</ele>
        <time>2011-12-04T07:37:25Z</time>
      </trkpt>
      <trkpt lat="43.89899" lon="7.25485">
        <ele>481.437103</ele>
        <time>2011-12-04T07:37:27Z</time>
      </trkpt>
      <trkpt lat="43.89913" lon="7.2549">
        <ele>482.437134</ele>
        <time>2011-12-04T07:37:29Z</time>
      </trkpt>
      <trkpt lat="43.89928" lon="7.25497">
        <ele>483.437172</ele>
        <time>2011-12-04T07:37:31Z</time>
      </trkpt>
      <trkpt lat="43.89939" lon="7.25504">
        <ele>484.437199</ele>
        <time>2011-12-04T07:37:33Z</time>
      </trkpt>
      <trkpt lat="43.89951" lon="7.25514">
        <ele>484.437237</ele>
        <time>2011-12-04T07:37:35Z</time>
      </trkpt>
      <trkpt lat="43.8996" lon="7.25521">
        <ele>485.437263</ele>
        <time>2011-12-04T07:37:37Z</time>
      </trkpt>
      <trkpt lat="43.8999" lon="7.2553">
        <ele>489.437317</ele>
        <time>2011-12-04T07:38:09Z</time>
      </trkpt>
      <trkpt lat="43.8999" lon="7.2553">
        <ele>489.437317</ele>
        <time>2011-12-04T07:38:17Z</time>
      </trkpt>
      <trkpt lat="43.90001" lon="7.2553">
        <ele>488.43734</ele>
        <time>2011-12-04T07:38:20Z</time>
      </trkpt>
      <trkpt lat="43.90009" lon="7.25535">
        <ele>490.437359</ele>
        <time>2011-12-04T07:38:28Z</time>
      </trkpt>
      <trkpt lat="43.90018" lon="7.25542">
        <ele>492.437386</ele>
        <time>2011-12-04T07:38:37Z</time>
      </trkpt>
      <trkpt lat="43.90035" lon="7.25554">
        <ele>494.437431</ele>
        <time>2011-12-04T07:38:48Z</time>
      </trkpt>
      <trkpt lat="43.90043" lon="7.25561">
        <ele>495.437462</ele>
        <time>2011-12-04T07:38:51Z</time>
      </trkpt>
      <trkpt lat="43.90052" lon="7.25568">
        <ele>494.437485</ele>
        <time>2011-12-04T07:38:56Z</time>
      </trkpt>
      <trkpt lat="43.9006" lon="7.25575">
        <ele>494.437511</ele>
        <time>2011-12-04T07:39:03Z</time>
      </trkpt>
      <trkpt lat="43.90064" lon="7.25596">
        <ele>497.437561</ele>
        <time>2011-12-04T07:39:19Z</time>
      </trkpt>
      <trkpt lat="43.90062" lon="7.25609">
        <ele>498.437584</ele>
        <time>2011-12-04T07:39:26Z</time>
      </trkpt>
      <trkpt lat="43.9006" lon="7.25621">
        <ele>499.437607</ele>
        <time>2011-12-04T07:39:33Z</time>
      </trkpt>
      <trkpt lat="43.90063" lon="7.25643">
        <ele>503.437656</ele>
        <time>2011-12-04T07:39:44Z</time>
      </trkpt>
      <trkpt lat="43.90066" lon="7.25656">
        <ele>506.437683</ele>
        <time>2011-12-04T07:39:51Z</time>
      </trkpt>
      <trkpt lat="43.90062" lon="7.25669">
        <ele>509.437702</ele>
        <time>2011-12-04T07:40:06Z</time>
      </trkpt>
      <trkpt lat="43.90045" lon="7.25676">
        <ele>517.437698</ele>
        <time>2011-12-04T07:40:25Z</time>
      </trkpt>
      <trkpt lat="43.90032" lon="7.25684">
        <ele>524.437698</ele>
        <time>2011-12-04T07:40:38Z</time>
      </trkpt>
      <trkpt lat="43.90028" lon="7.25697">
        <ele>526.437721</ele>
        <time>2011-12-04T07:40:46Z</time>
      </trkpt>
      <trkpt lat="43.90025" lon="7.25715">
        <ele>527.437752</ele>
        <time>2011-12-04T07:40:52Z</time>
      </trkpt>
      <trkpt lat="43.90025" lon="7.25728">
        <ele>528.437775</ele>
        <time>2011-12-04T07:40:57Z</time>
      </trkpt>
      <trkpt lat="43.90026" lon="7.25744">
        <ele>529.437813</ele>
        <time>2011-12-04T07:41:03Z</time>
      </trkpt>
      <trkpt lat="43.90025" lon="7.2576">
        <ele>528.43784</ele>
        <time>2011-12-04T07:41:08Z</time>
      </trkpt>
      <trkpt lat="43.90014" lon="7.2578">
        <ele>531.43787</ele>
        <time>2011-12-04T07:41:21Z</time>
      </trkpt>
      <trkpt lat="43.9" lon="7.25797">
        <ele>535.437885</ele>
        <time>2011-12-04T07:41:35Z</time>
      </trkpt>
      <trkpt lat="43.89992" lon="7.25803">
        <ele>536.437881</ele>
        <time>2011-12-04T07:41:45Z</time>
      </trkpt>
      <trkpt lat="43.89978" lon="7.25806">
        <ele>539.437874</ele>
        <time>2011-12-04T07:41:57Z</time>
      </trkpt>
      <trkpt lat="43.89969" lon="7.25809">
        <ele>543.437866</ele>
        <time>2011-12-04T07:42:08Z</time>
      </trkpt>
      <trkpt lat="43.89961" lon="7.25817">
        <ele>545.43787</ele>
        <time>2011-12-04T07:42:18Z</time>
      </trkpt>
      <trkpt lat="43.89961" lon="7.25817">
        <ele>545.43787</ele>
        <time>2011-12-04T07:42:22Z</time>
      </trkpt>
      <trkpt lat="43.89954" lon="7.25832">
        <ele>548.437893</ele>
        <time>2011-12-04T07:42:27Z</time>
      </trkpt>
      <trkpt lat="43.8995" lon="7.25846">
        <ele>550.437912</ele>
        <time>2011-12-04T07:42:34Z</time>
      </trkpt>
      <trkpt lat="43.89945" lon="7.25857">
        <ele>551.437931</ele>
        <time>2011-12-04T07:42:41Z</time>
      </trkpt>
      <trkpt lat="43.89945" lon="7.25859">
        <ele>551.437935</ele>
        <time>2011-12-04T07:42:42Z</time>
      </trkpt>
      <trkpt lat="43.8994" lon="7.2589">
        <ele>557.437996</ele>
        <time>2011-12-04T07:42:56Z</time>
      </trkpt>
      <trkpt lat="43.89941" lon="7.25904">
        <ele>557.438023</ele>
        <time>2011-12-04T07:43:04Z</time>
      </trkpt>
      <trkpt lat="43.89942" lon="7.25911">
        <ele>557.438042</ele>
        <time>2011-12-04T07:43:09Z</time>
      </trkpt>
      <trkpt lat="43.89944" lon="7.25924">
        <ele>557.438065</ele>
        <time>2011-12-04T07:43:13Z</time>
      </trkpt>
      <trkpt lat="43.89946" lon="7.25939">
        <ele>558.438103</ele>
        <time>2011-12-04T07:43:19Z</time>
      </trkpt>
      <trkpt lat="43.8995" lon="7.25952">
        <ele>559.438133</ele>
        <time>2011-12-04T07:43:24Z</time>
      </trkpt>
      <trkpt lat="43.89956" lon="7.25967">
        <ele>560.438175</ele>
        <time>2011-12-04T07:43:31Z</time>
      </trkpt>
      <trkpt lat="43.89961" lon="7.25978">
        <ele>561.438202</ele>
        <time>2011-12-04T07:43:36Z</time>
      </trkpt>
      <trkpt lat="43.89966" lon="7.25991">
        <ele>562.438232</ele>
        <time>2011-12-04T07:43:41Z</time>
      </trkpt>
      <trkpt lat="43.89976" lon="7.26011">
        <ele>563.43829</ele>
        <time>2011-12-04T07:43:51Z</time>
      </trkpt>
      <trkpt lat="43.89983" lon="7.2602">
        <ele>564.438316</ele>
        <time>2011-12-04T07:43:56Z</time>
      </trkpt>
      <trkpt lat="43.8999" lon="7.26032">
        <ele>565.438354</ele>
        <time>2011-12-04T07:44:03Z</time>
      </trkpt>
      <trkpt lat="43.8998" lon="7.26033">
        <ele>566.438339</ele>
        <time>2011-12-04T07:44:18Z</time>
      </trkpt>
      <trkpt lat="43.89978" lon="7.26031">
        <ele>567.438332</ele>
        <time>2011-12-04T07:44:19Z</time>
      </trkpt>
      <trkpt lat="43.8997" lon="7.2602">
        <ele>567.438297</ele>
        <time>2011-12-04T07:44:23Z</time>
      </trkpt>
      <trkpt lat="43.89964" lon="7.26009">
        <ele>568.438271</ele>
        <time>2011-12-04T07:44:27Z</time>
      </trkpt>
      <trkpt lat="43.89959" lon="7.25997">
        <ele>569.438232</ele>
        <time>2011-12-04T07:44:31Z</time>
      </trkpt>
      <trkpt lat="43.89951" lon="7.25977">
        <ele>569.438187</ele>
        <time>2011-12-04T07:44:38Z</time>
      </trkpt>
      <trkpt lat="43.89938" lon="7.25953">
        <ele>574.438118</ele>
        <time>2011-12-04T07:44:46Z</time>
      </trkpt>
      <trkpt lat="43.89928" lon="7.25938">
        <ele>578.438072</ele>
        <time>2011-12-04T07:44:54Z</time>
      </trkpt>
      <trkpt lat="43.89926" lon="7.25923">
        <ele>578.438034</ele>
        <time>2011-12-04T07:45:00Z</time>
      </trkpt>
      <trkpt lat="43.89924" lon="7.25904">
        <ele>579.438004</ele>
        <time>2011-12-04T07:45:07Z</time>
      </trkpt>
      <trkpt lat="43.89923" lon="7.25891">
        <ele>581.437973</ele>
        <time>2011-12-04T07:45:13Z</time>
      </trkpt>
      <trkpt lat="43.89923" lon="7.25891">
        <ele>581.437973</ele>
        <time>2011-12-04T07:45:17Z</time>
      </trkpt>
      <trkpt lat="43.89924" lon="7.25874">
        <ele>583.437935</ele>
        <time>2011-12-04T07:45:21Z</time>
      </trkpt>
      <trkpt lat="43.89925" lon="7.25861">
        <ele>584.437912</ele>
        <time>2011-12-04T07:45:27Z</time>
      </trkpt>
      <trkpt lat="43.89926" lon="7.25857">
        <ele>585.437904</ele>
        <time>2011-12-04T07:45:29Z</time>
      </trkpt>
      <trkpt lat="43.89926" lon="7.25843">
        <ele>587.437878</ele>
        <time>2011-12-04T07:45:32Z</time>
      </trkpt>
      <trkpt lat="43.89926" lon="7.25827">
        <ele>590.437843</ele>
        <time>2011-12-04T07:45:36Z</time>
      </trkpt>
      <trkpt lat="43.89926" lon="7.25827">
        <ele>590.437843</ele>
        <time>2011-12-04T07:45:38Z</time>
      </trkpt>
      <trkpt lat="43.89923" lon="7.25801">
        <ele>598.437786</ele>
        <time>2011-12-04T07:45:46Z</time>
      </trkpt>
      <trkpt lat="43.89918" lon="7.25805">
        <ele>599.43779</ele>
        <time>2011-12-04T07:45:49Z</time>
      </trkpt>
      <trkpt lat="43.89916" lon="7.25826">
        <ele>603.437828</ele>
        <time>2011-12-04T07:46:03Z</time>
      </trkpt>
      <trkpt lat="43.89912" lon="7.25838">
        <ele>606.437847</ele>
        <time>2011-12-04T07:46:09Z</time>
      </trkpt>
      <trkpt lat="43.89904" lon="7.25856">
        <ele>610.437874</ele>
        <time>2011-12-04T07:46:19Z</time>
      </trkpt>
      <trkpt lat="43.89901" lon="7.2587">
        <ele>611.437897</ele>
        <time>2011-12-04T07:46:25Z</time>
      </trkpt>
      <trkpt lat="43.89899" lon="7.25883">
        <ele>611.43792</ele>
        <time>2011-12-04T07:46:30Z</time>
      </trkpt>
      <trkpt lat="43.89897" lon="7.25898">
        <ele>614.43795</ele>
        <time>2011-12-04T07:46:39Z</time>
      </trkpt>
      <trkpt lat="43.89897" lon="7.25902">
        <ele>615.437958</ele>
        <time>2011-12-04T07:46:41Z</time>
      </trkpt>
      <trkpt lat="43.89898" lon="7.25923">
        <ele>615.438</ele>
        <time>2011-12-04T07:46:50Z</time>
      </trkpt>
      <trkpt lat="43.899" lon="7.25936">
        <ele>616.438026</ele>
        <time>2011-12-04T07:46:56Z</time>
      </trkpt>
      <trkpt lat="43.89901" lon="7.25959">
        <ele>619.438084</ele>
        <time>2011-12-04T07:47:08Z</time>
      </trkpt>
      <trkpt lat="43.89903" lon="7.25972">
        <ele>621.43811</ele>
        <time>2011-12-04T07:47:14Z</time>
      </trkpt>
      <trkpt lat="43.89909" lon="7.25988">
        <ele>620.438152</ele>
        <time>2011-12-04T07:47:25Z</time>
      </trkpt>
      <trkpt lat="43.89912" lon="7.25996">
        <ele>621.438171</ele>
        <time>2011-12-04T07:47:30Z</time>
      </trkpt>
      <trkpt lat="43.89916" lon="7.26008">
        <ele>622.438202</ele>
        <time>2011-12-04T07:47:38Z</time>
      </trkpt>
      <trkpt lat="43.89925" lon="7.26023">
        <ele>623.438244</ele>
        <time>2011-12-04T07:47:44Z</time>
      </trkpt>
      <trkpt lat="43.89926" lon="7.26024">
        <ele>623.438248</ele>
        <time>2011-12-04T07:47:45Z</time>
      </trkpt>
      <trkpt lat="43.89928" lon="7.2604">
        <ele>624.438286</ele>
        <time>2011-12-04T07:47:58Z</time>
      </trkpt>
      <trkpt lat="43.89918" lon="7.26048">
        <ele>630.438286</ele>
        <time>2011-12-04T07:48:09Z</time>
      </trkpt>
      <trkpt lat="43.89908" lon="7.26058">
        <ele>632.438293</ele>
        <time>2011-12-04T07:48:23Z</time>
      </trkpt>
      <trkpt lat="43.89901" lon="7.26095">
        <ele>638.438362</ele>
        <time>2011-12-04T07:48:45Z</time>
      </trkpt>
      <trkpt lat="43.8988" lon="7.26121">
        <ele>640.438385</ele>
        <time>2011-12-04T07:49:06Z</time>
      </trkpt>
      <trkpt lat="43.89864" lon="7.26152">
        <ele>645.438423</ele>
        <time>2011-12-04T07:49:25Z</time>
      </trkpt>
      <trkpt lat="43.89844" lon="7.26177">
        <ele>645.43845</ele>
        <time>2011-12-04T07:49:48Z</time>
      </trkpt>
      <trkpt lat="43.89826" lon="7.26207">
        <ele>646.438488</ele>
        <time>2011-12-04T07:50:12Z</time>
      </trkpt>
      <trkpt lat="43.89806" lon="7.26233">
        <ele>648.438511</ele>
        <time>2011-12-04T07:50:32Z</time>
      </trkpt>
      <trkpt lat="43.89794" lon="7.2625">
        <ele>650.43853</ele>
        <time>2011-12-04T07:50:43Z</time>
      </trkpt>
      <trkpt lat="43.8979" lon="7.26261">
        <ele>651.438545</ele>
        <time>2011-12-04T07:50:48Z</time>
      </trkpt>
      <trkpt lat="43.89786" lon="7.2628">
        <ele>655.43858</ele>
        <time>2011-12-04T07:50:54Z</time>
      </trkpt>
      <trkpt lat="43.89784" lon="7.26294">
        <ele>657.438606</ele>
        <time>2011-12-04T07:51:00Z</time>
      </trkpt>
      <trkpt lat="43.89781" lon="7.26311">
        <ele>661.438637</ele>
        <time>2011-12-04T07:51:06Z</time>
      </trkpt>
      <trkpt lat="43.89779" lon="7.26323">
        <ele>662.438663</ele>
        <time>2011-12-04T07:51:11Z</time>
      </trkpt>
      <trkpt lat="43.89774" lon="7.26337">
        <ele>662.438683</ele>
        <time>2011-12-04T07:51:20Z</time>
      </trkpt>
      <trkpt lat="43.89768" lon="7.26347">
        <ele>661.438694</ele>
        <time>2011-12-04T07:51:30Z</time>
      </trkpt>
      <trkpt lat="43.89762" lon="7.26357">
        <ele>661.438705</ele>
        <time>2011-12-04T07:51:36Z</time>
      </trkpt>
      <trkpt lat="43.89756" lon="7.26379">
        <ele>664.438744</ele>
        <time>2011-12-04T07:51:46Z</time>
      </trkpt>
      <trkpt lat="43.89748" lon="7.26393">
        <ele>664.438759</ele>
        <time>2011-12-04T07:51:53Z</time>
      </trkpt>
      <trkpt lat="43.89736" lon="7.26427">
        <ele>666.438812</ele>
        <time>2011-12-04T07:52:12Z</time>
      </trkpt>
      <trkpt lat="43.89728" lon="7.26464">
        <ele>670.438881</ele>
        <time>2011-12-04T07:52:31Z</time>
      </trkpt>
      <trkpt lat="43.89724" lon="7.26483">
        <ele>672.438915</ele>
        <time>2011-12-04T07:52:39Z</time>
      </trkpt>
      <trkpt lat="43.89717" lon="7.26508">
        <ele>674.43895</ele>
        <time>2011-12-04T07:52:47Z</time>
      </trkpt>
      <trkpt lat="43.89713" lon="7.26519">
        <ele>675.438972</ele>
        <time>2011-12-04T07:52:52Z</time>
      </trkpt>
      <trkpt lat="43.89708" lon="7.26534">
        <ele>677.438995</ele>
        <time>2011-12-04T07:52:58Z</time>
      </trkpt>
      <trkpt lat="43.89696" lon="7.26551">
        <ele>678.439011</ele>
        <time>2011-12-04T07:53:09Z</time>
      </trkpt>
      <trkpt lat="43.89674" lon="7.26584">
        <ele>684.439049</ele>
        <time>2011-12-04T07:53:41Z</time>
      </trkpt>
      <trkpt lat="43.89667" lon="7.26599">
        <ele>686.439072</ele>
        <time>2011-12-04T07:53:48Z</time>
      </trkpt>
      <trkpt lat="43.89663" lon="7.2661">
        <ele>688.439091</ele>
        <time>2011-12-04T07:53:52Z</time>
      </trkpt>
      <trkpt lat="43.89657" lon="7.26625">
        <ele>692.43911</ele>
        <time>2011-12-04T07:53:59Z</time>
      </trkpt>
      <trkpt lat="43.89652" lon="7.26638">
        <ele>695.439133</ele>
        <time>2011-12-04T07:54:05Z</time>
      </trkpt>
      <trkpt lat="43.89648" lon="7.26651">
        <ele>695.439156</ele>
        <time>2011-12-04T07:54:12Z</time>
      </trkpt>
      <trkpt lat="43.89643" lon="7.26664">
        <ele>695.439171</ele>
        <time>2011-12-04T07:54:19Z</time>
      </trkpt>
      <trkpt lat="43.8964" lon="7.26676">
        <ele>697.439198</ele>
        <time>2011-12-04T07:54:24Z</time>
      </trkpt>
      <trkpt lat="43.89639" lon="7.26694">
        <ele>699.439232</ele>
        <time>2011-12-04T07:54:31Z</time>
      </trkpt>
      <trkpt lat="43.89639" lon="7.26707">
        <ele>700.439255</ele>
        <time>2011-12-04T07:54:36Z</time>
      </trkpt>
      <trkpt lat="43.89639" lon="7.26721">
        <ele>702.439285</ele>
        <time>2011-12-04T07:54:41Z</time>
      </trkpt>
      <trkpt lat="43.89638" lon="7.26745">
        <ele>703.439335</ele>
        <time>2011-12-04T07:54:50Z</time>
      </trkpt>
      <trkpt lat="43.89636" lon="7.26762">
        <ele>705.439369</ele>
        <time>2011-12-04T07:55:01Z</time>
      </trkpt>
      <trkpt lat="43.89627" lon="7.26802">
        <ele>711.439438</ele>
        <time>2011-12-04T07:55:26Z</time>
      </trkpt>
      <trkpt lat="43.89624" lon="7.26816">
        <ele>712.439457</ele>
        <time>2011-12-04T07:55:31Z</time>
      </trkpt>
      <trkpt lat="43.89624" lon="7.26816">
        <ele>712.439457</ele>
        <time>2011-12-04T07:55:32Z</time>
      </trkpt>
      <trkpt lat="43.8962" lon="7.26831">
        <ele>711.439484</ele>
        <time>2011-12-04T07:55:35Z</time>
      </trkpt>
      <trkpt lat="43.89616" lon="7.26843">
        <ele>712.439503</ele>
        <time>2011-12-04T07:55:40Z</time>
      </trkpt>
      <trkpt lat="43.89611" lon="7.26853">
        <ele>714.439514</ele>
        <time>2011-12-04T07:55:47Z</time>
      </trkpt>
      <trkpt lat="43.89609" lon="7.26861">
        <ele>714.439533</ele>
        <time>2011-12-04T07:55:51Z</time>
      </trkpt>
      <trkpt lat="43.89605" lon="7.26874">
        <ele>715.439548</ele>
        <time>2011-12-04T07:55:57Z</time>
      </trkpt>
      <trkpt lat="43.8962" lon="7.26842">
        <ele>721.439507</ele>
        <time>2011-12-04T07:56:37Z</time>
      </trkpt>
      <trkpt lat="43.8962" lon="7.26842">
        <ele>721.439507</ele>
        <time>2011-12-04T07:56:42Z</time>
      </trkpt>
      <trkpt lat="43.89622" lon="7.26829">
        <ele>722.439484</ele>
        <time>2011-12-04T07:56:43Z</time>
      </trkpt>
      <trkpt lat="43.89622" lon="7.26816">
        <ele>723.439457</ele>
        <time>2011-12-04T07:56:50Z</time>
      </trkpt>
      <trkpt lat="43.8962" lon="7.26793">
        <ele>722.439407</ele>
        <time>2011-12-04T07:57:00Z</time>
      </trkpt>
      <trkpt lat="43.89619" lon="7.26773">
        <ele>724.439362</ele>
        <time>2011-12-04T07:57:08Z</time>
      </trkpt>
      <trkpt lat="43.89617" lon="7.26757">
        <ele>725.439331</ele>
        <time>2011-12-04T07:57:15Z</time>
      </trkpt>
      <trkpt lat="43.89614" lon="7.26745">
        <ele>726.439301</ele>
        <time>2011-12-04T07:57:20Z</time>
      </trkpt>
      <trkpt lat="43.89612" lon="7.2674">
        <ele>727.439285</ele>
        <time>2011-12-04T07:57:22Z</time>
      </trkpt>
      <trkpt lat="43.89605" lon="7.26729">
        <ele>730.439255</ele>
        <time>2011-12-04T07:57:28Z</time>
      </trkpt>
      <trkpt lat="43.89599" lon="7.26711">
        <ele>733.439209</ele>
        <time>2011-12-04T07:57:37Z</time>
      </trkpt>
      <trkpt lat="43.89598" lon="7.26706">
        <ele>733.439198</ele>
        <time>2011-12-04T07:57:41Z</time>
      </trkpt>
      <trkpt lat="43.89594" lon="7.26677">
        <ele>738.439133</ele>
        <time>2011-12-04T07:57:48Z</time>
      </trkpt>
      <trkpt lat="43.89591" lon="7.26664">
        <ele>740.439102</ele>
        <time>2011-12-04T07:57:53Z</time>
      </trkpt>
      <trkpt lat="43.89584" lon="7.26641">
        <ele>747.439045</ele>
        <time>2011-12-04T07:58:06Z</time>
      </trkpt>
      <trkpt lat="43.89583" lon="7.26627">
        <ele>751.439014</ele>
        <time>2011-12-04T07:58:16Z</time>
      </trkpt>
      <trkpt lat="43.89577" lon="7.26618">
        <ele>752.438988</ele>
        <time>2011-12-04T07:58:20Z</time>
      </trkpt>
      <trkpt lat="43.8957" lon="7.26608">
        <ele>754.438961</ele>
        <time>2011-12-04T07:58:24Z</time>
      </trkpt>
      <trkpt lat="43.89561" lon="7.26598">
        <ele>755.438927</ele>
        <time>2011-12-04T07:58:28Z</time>
      </trkpt>
      <trkpt lat="43.89553" lon="7.26591">
        <ele>756.438904</ele>
        <time>2011-12-04T07:58:31Z</time>
      </trkpt>
      <trkpt lat="43.89544" lon="7.26583">
        <ele>757.438866</ele>
        <time>2011-12-04T07:58:35Z</time>
      </trkpt>
      <trkpt lat="43.89536" lon="7.26573">
        <ele>757.438843</ele>
        <time>2011-12-04T07:58:39Z</time>
      </trkpt>
      <trkpt lat="43.89528" lon="7.26566">
        <ele>758.438816</ele>
        <time>2011-12-04T07:58:43Z</time>
      </trkpt>
      <trkpt lat="43.89526" lon="7.26563">
        <ele>758.438805</ele>
        <time>2011-12-04T07:58:45Z</time>
      </trkpt>
      <trkpt lat="43.89532" lon="7.26554">
        <ele>756.438793</ele>
        <time>2011-12-04T07:58:54Z</time>
      </trkpt>
      <trkpt lat="43.89542" lon="7.26549">
        <ele>756.438801</ele>
        <time>2011-12-04T07:59:00Z</time>
      </trkpt>
      <trkpt lat="43.89572" lon="7.26538">
        <ele>755.438816</ele>
        <time>2011-12-04T07:59:09Z</time>
      </trkpt>
      <trkpt lat="43.89583" lon="7.26532">
        <ele>756.43882</ele>
        <time>2011-12-04T07:59:13Z</time>
      </trkpt>
      <trkpt lat="43.89593" lon="7.26523">
        <ele>756.438812</ele>
        <time>2011-12-04T07:59:18Z</time>
      </trkpt>
      <trkpt lat="43.89598" lon="7.2651">
        <ele>758.438797</ele>
        <time>2011-12-04T07:59:23Z</time>
      </trkpt>
      <trkpt lat="43.89603" lon="7.26498">
        <ele>760.438778</ele>
        <time>2011-12-04T07:59:29Z</time>
      </trkpt>
      <trkpt lat="43.89609" lon="7.26489">
        <ele>760.438763</ele>
        <time>2011-12-04T07:59:35Z</time>
      </trkpt>
      <trkpt lat="43.89612" lon="7.26475">
        <ele>760.43874</ele>
        <time>2011-12-04T07:59:39Z</time>
      </trkpt>
      <trkpt lat="43.89612" lon="7.26461">
        <ele>759.438717</ele>
        <time>2011-12-04T07:59:44Z</time>
      </trkpt>
      <trkpt lat="43.89613" lon="7.26448">
        <ele>759.43869</ele>
        <time>2011-12-04T07:59:50Z</time>
      </trkpt>
      <trkpt lat="43.89613" lon="7.26448">
        <ele>759.43869</ele>
        <time>2011-12-04T07:59:52Z</time>
      </trkpt>
      <trkpt lat="43.89605" lon="7.26478">
        <ele>758.438736</ele>
        <time>2011-12-04T08:00:09Z</time>
      </trkpt>
      <trkpt lat="43.89604" lon="7.2648">
        <ele>758.438744</ele>
        <time>2011-12-04T08:00:10Z</time>
      </trkpt>
      <trkpt lat="43.89597" lon="7.2649">
        <ele>759.438751</ele>
        <time>2011-12-04T08:00:17Z</time>
      </trkpt>
      <trkpt lat="43.89595" lon="7.26492">
        <ele>759.438755</ele>
        <time>2011-12-04T08:00:18Z</time>
      </trkpt>
      <trkpt lat="43.89588" lon="7.26502">
        <ele>760.438766</ele>
        <time>2011-12-04T08:00:22Z</time>
      </trkpt>
      <trkpt lat="43.89583" lon="7.26513">
        <ele>760.438782</ele>
        <time>2011-12-04T08:00:25Z</time>
      </trkpt>
      <trkpt lat="43.89578" lon="7.26526">
        <ele>759.438805</ele>
        <time>2011-12-04T08:00:29Z</time>
      </trkpt>
      <trkpt lat="43.89577" lon="7.26537">
        <ele>759.43882</ele>
        <time>2011-12-04T08:00:31Z</time>
      </trkpt>
      <trkpt lat="43.89579" lon="7.26557">
        <ele>757.438866</ele>
        <time>2011-12-04T08:00:36Z</time>
      </trkpt>
      <trkpt lat="43.89582" lon="7.26571">
        <ele>756.4389</ele>
        <time>2011-12-04T08:00:41Z</time>
      </trkpt>
      <trkpt lat="43.89582" lon="7.26571">
        <ele>756.4389</ele>
        <time>2011-12-04T08:00:43Z</time>
      </trkpt>
      <trkpt lat="43.89586" lon="7.26584">
        <ele>754.438927</ele>
        <time>2011-12-04T08:00:48Z</time>
      </trkpt>
      <trkpt lat="43.89584" lon="7.26598">
        <ele>754.438957</ele>
        <time>2011-12-04T08:00:55Z</time>
      </trkpt>
      <trkpt lat="43.89578" lon="7.26609">
        <ele>755.438972</ele>
        <time>2011-12-04T08:01:01Z</time>
      </trkpt>
      <trkpt lat="43.89573" lon="7.26621">
        <ele>757.438992</ele>
        <time>2011-12-04T08:01:08Z</time>
      </trkpt>
      <trkpt lat="43.8957" lon="7.26638">
        <ele>757.439018</ele>
        <time>2011-12-04T08:01:16Z</time>
      </trkpt>
      <trkpt lat="43.89567" lon="7.26652">
        <ele>759.439049</ele>
        <time>2011-12-04T08:01:22Z</time>
      </trkpt>
      <trkpt lat="43.89567" lon="7.26667">
        <ele>761.439079</ele>
        <time>2011-12-04T08:01:29Z</time>
      </trkpt>
      <trkpt lat="43.89568" lon="7.26681">
        <ele>763.439106</ele>
        <time>2011-12-04T08:01:35Z</time>
      </trkpt>
      <trkpt lat="43.89568" lon="7.26684">
        <ele>763.43911</ele>
        <time>2011-12-04T08:01:38Z</time>
      </trkpt>
      <trkpt lat="43.89571" lon="7.26697">
        <ele>762.439148</ele>
        <time>2011-12-04T08:01:42Z</time>
      </trkpt>
      <trkpt lat="43.8957" lon="7.2671">
        <ele>762.439163</ele>
        <time>2011-12-04T08:01:48Z</time>
      </trkpt>
      <trkpt lat="43.89562" lon="7.26751">
        <ele>758.43924</ele>
        <time>2011-12-04T08:01:57Z</time>
      </trkpt>
      <trkpt lat="43.89561" lon="7.26759">
        <ele>757.439259</ele>
        <time>2011-12-04T08:01:59Z</time>
      </trkpt>
      <trkpt lat="43.89558" lon="7.26775">
        <ele>756.439285</ele>
        <time>2011-12-04T08:02:03Z</time>
      </trkpt>
      <trkpt lat="43.89557" lon="7.2679">
        <ele>757.439316</ele>
        <time>2011-12-04T08:02:07Z</time>
      </trkpt>
      <trkpt lat="43.89556" lon="7.26803">
        <ele>757.439339</ele>
        <time>2011-12-04T08:02:11Z</time>
      </trkpt>
      <trkpt lat="43.89554" lon="7.26817">
        <ele>756.439362</ele>
        <time>2011-12-04T08:02:16Z</time>
      </trkpt>
      <trkpt lat="43.89552" lon="7.26823">
        <ele>757.439373</ele>
        <time>2011-12-04T08:02:18Z</time>
      </trkpt>
      <trkpt lat="43.89549" lon="7.26837">
        <ele>758.4394</ele>
        <time>2011-12-04T08:02:22Z</time>
      </trkpt>
      <trkpt lat="43.89546" lon="7.26852">
        <ele>757.43943</ele>
        <time>2011-12-04T08:02:25Z</time>
      </trkpt>
      <trkpt lat="43.89541" lon="7.26867">
        <ele>757.439453</ele>
        <time>2011-12-04T08:02:28Z</time>
      </trkpt>
      <trkpt lat="43.89537" lon="7.26883">
        <ele>757.439476</ele>
        <time>2011-12-04T08:02:31Z</time>
      </trkpt>
      <trkpt lat="43.89535" lon="7.26897">
        <ele>757.439507</ele>
        <time>2011-12-04T08:02:35Z</time>
      </trkpt>
      <trkpt lat="43.89533" lon="7.26911">
        <ele>758.439526</ele>
        <time>2011-12-04T08:02:44Z</time>
      </trkpt>
      <trkpt lat="43.8953" lon="7.26924">
        <ele>759.439556</ele>
        <time>2011-12-04T08:02:51Z</time>
      </trkpt>
      <trkpt lat="43.89525" lon="7.2694">
        <ele>762.439575</ele>
        <time>2011-12-04T08:03:02Z</time>
      </trkpt>
      <trkpt lat="43.89519" lon="7.26954">
        <ele>763.439598</ele>
        <time>2011-12-04T08:03:11Z</time>
      </trkpt>
      <trkpt lat="43.89512" lon="7.26965">
        <ele>765.439613</ele>
        <time>2011-12-04T08:03:17Z</time>
      </trkpt>
      <trkpt lat="43.89504" lon="7.26975">
        <ele>766.439621</ele>
        <time>2011-12-04T08:03:23Z</time>
      </trkpt>
      <trkpt lat="43.89497" lon="7.26987">
        <ele>767.439636</ele>
        <time>2011-12-04T08:03:29Z</time>
      </trkpt>
      <trkpt lat="43.89491" lon="7.26998">
        <ele>769.439651</ele>
        <time>2011-12-04T08:03:35Z</time>
      </trkpt>
      <trkpt lat="43.89484" lon="7.27009">
        <ele>771.439663</ele>
        <time>2011-12-04T08:03:41Z</time>
      </trkpt>
      <trkpt lat="43.89479" lon="7.27019">
        <ele>773.439674</ele>
        <time>2011-12-04T08:03:46Z</time>
      </trkpt>
      <trkpt lat="43.89474" lon="7.27032">
        <ele>774.439697</ele>
        <time>2011-12-04T08:03:51Z</time>
      </trkpt>
      <trkpt lat="43.89472" lon="7.27044">
        <ele>776.439716</ele>
        <time>2011-12-04T08:03:56Z</time>
      </trkpt>
      <trkpt lat="43.89469" lon="7.27057">
        <ele>776.439743</ele>
        <time>2011-12-04T08:04:01Z</time>
      </trkpt>
      <trkpt lat="43.89467" lon="7.27071">
        <ele>776.43977</ele>
        <time>2011-12-04T08:04:06Z</time>
      </trkpt>
      <trkpt lat="43.89467" lon="7.27074">
        <ele>775.439774</ele>
        <time>2011-12-04T08:04:07Z</time>
      </trkpt>
      <trkpt lat="43.89465" lon="7.27088">
        <ele>776.439804</ele>
        <time>2011-12-04T08:04:12Z</time>
      </trkpt>
      <trkpt lat="43.89461" lon="7.27101">
        <ele>776.439819</ele>
        <time>2011-12-04T08:04:17Z</time>
      </trkpt>
      <trkpt lat="43.89456" lon="7.27111">
        <ele>779.439835</ele>
        <time>2011-12-04T08:04:22Z</time>
      </trkpt>
      <trkpt lat="43.89449" lon="7.27119">
        <ele>781.439842</ele>
        <time>2011-12-04T08:04:27Z</time>
      </trkpt>
      <trkpt lat="43.8944" lon="7.27127">
        <ele>785.439846</ele>
        <time>2011-12-04T08:04:32Z</time>
      </trkpt>
      <trkpt lat="43.89438" lon="7.27129">
        <ele>786.43985</ele>
        <time>2011-12-04T08:04:33Z</time>
      </trkpt>
      <trkpt lat="43.89433" lon="7.27143">
        <ele>786.439869</ele>
        <time>2011-12-04T08:04:38Z</time>
      </trkpt>
      <trkpt lat="43.89431" lon="7.27155">
        <ele>786.439896</ele>
        <time>2011-12-04T08:04:42Z</time>
      </trkpt>
      <trkpt lat="43.89431" lon="7.27169">
        <ele>787.439919</ele>
        <time>2011-12-04T08:04:46Z</time>
      </trkpt>
      <trkpt lat="43.89432" lon="7.27182">
        <ele>787.439949</ele>
        <time>2011-12-04T08:04:50Z</time>
      </trkpt>
      <trkpt lat="43.89433" lon="7.27192">
        <ele>787.439972</ele>
        <time>2011-12-04T08:04:54Z</time>
      </trkpt>
      <trkpt lat="43.89431" lon="7.27206">
        <ele>787.439995</ele>
        <time>2011-12-04T08:05:00Z</time>
      </trkpt>
      <trkpt lat="43.89426" lon="7.27219">
        <ele>789.440018</ele>
        <time>2011-12-04T08:05:05Z</time>
      </trkpt>
      <trkpt lat="43.89421" lon="7.27231">
        <ele>790.440037</ele>
        <time>2011-12-04T08:05:10Z</time>
      </trkpt>
      <trkpt lat="43.8942" lon="7.27233">
        <ele>790.440041</ele>
        <time>2011-12-04T08:05:11Z</time>
      </trkpt>
      <trkpt lat="43.89411" lon="7.27243">
        <ele>790.440048</ele>
        <time>2011-12-04T08:05:17Z</time>
      </trkpt>
      <trkpt lat="43.89406" lon="7.27255">
        <ele>794.440063</ele>
        <time>2011-12-04T08:05:23Z</time>
      </trkpt>
      <trkpt lat="43.89405" lon="7.2726">
        <ele>795.440071</ele>
        <time>2011-12-04T08:05:28Z</time>
      </trkpt>
      <trkpt lat="43.89408" lon="7.27275">
        <ele>796.440109</ele>
        <time>2011-12-04T08:05:31Z</time>
      </trkpt>
      <trkpt lat="43.89412" lon="7.27287">
        <ele>795.440136</ele>
        <time>2011-12-04T08:05:36Z</time>
      </trkpt>
      <trkpt lat="43.89415" lon="7.27307">
        <ele>793.440178</ele>
        <time>2011-12-04T08:05:44Z</time>
      </trkpt>
      <trkpt lat="43.89416" lon="7.2732">
        <ele>794.440208</ele>
        <time>2011-12-04T08:05:49Z</time>
      </trkpt>
      <trkpt lat="43.89418" lon="7.27333">
        <ele>794.440239</ele>
        <time>2011-12-04T08:05:53Z</time>
      </trkpt>
      <trkpt lat="43.8942" lon="7.27345">
        <ele>793.440266</ele>
        <time>2011-12-04T08:05:57Z</time>
      </trkpt>
      <trkpt lat="43.89423" lon="7.27358">
        <ele>793.440296</ele>
        <time>2011-12-04T08:06:01Z</time>
      </trkpt>
      <trkpt lat="43.89424" lon="7.2737">
        <ele>793.440323</ele>
        <time>2011-12-04T08:06:05Z</time>
      </trkpt>
      <trkpt lat="43.89425" lon="7.27383">
        <ele>794.44035</ele>
        <time>2011-12-04T08:06:09Z</time>
      </trkpt>
      <trkpt lat="43.89427" lon="7.27396">
        <ele>794.44038</ele>
        <time>2011-12-04T08:06:13Z</time>
      </trkpt>
      <trkpt lat="43.89431" lon="7.27407">
        <ele>792.440407</ele>
        <time>2011-12-04T08:06:17Z</time>
      </trkpt>
      <trkpt lat="43.89438" lon="7.27418">
        <ele>792.440445</ele>
        <time>2011-12-04T08:06:22Z</time>
      </trkpt>
      <trkpt lat="43.89442" lon="7.27422">
        <ele>791.440456</ele>
        <time>2011-12-04T08:06:24Z</time>
      </trkpt>
      <trkpt lat="43.89448" lon="7.27435">
        <ele>791.440487</ele>
        <time>2011-12-04T08:06:29Z</time>
      </trkpt>
      <trkpt lat="43.89447" lon="7.27447">
        <ele>792.440514</ele>
        <time>2011-12-04T08:06:34Z</time>
      </trkpt>
      <trkpt lat="43.89442" lon="7.27459">
        <ele>793.440533</ele>
        <time>2011-12-04T08:06:39Z</time>
      </trkpt>
      <trkpt lat="43.89437" lon="7.27472">
        <ele>794.440552</ele>
        <time>2011-12-04T08:06:44Z</time>
      </trkpt>
      <trkpt lat="43.89433" lon="7.27485">
        <ele>795.440571</ele>
        <time>2011-12-04T08:06:50Z</time>
      </trkpt>
      <trkpt lat="43.89431" lon="7.275">
        <ele>797.440601</ele>
        <time>2011-12-04T08:06:56Z</time>
      </trkpt>
      <trkpt lat="43.89433" lon="7.27519">
        <ele>798.440643</ele>
        <time>2011-12-04T08:07:05Z</time>
      </trkpt>
      <trkpt lat="43.89428" lon="7.27529">
        <ele>798.440655</ele>
        <time>2011-12-04T08:07:11Z</time>
      </trkpt>
      <trkpt lat="43.89418" lon="7.27533">
        <ele>798.440647</ele>
        <time>2011-12-04T08:07:18Z</time>
      </trkpt>
      <trkpt lat="43.89409" lon="7.27538">
        <ele>800.440647</ele>
        <time>2011-12-04T08:07:24Z</time>
      </trkpt>
      <trkpt lat="43.894" lon="7.27544">
        <ele>803.440651</ele>
        <time>2011-12-04T08:07:31Z</time>
      </trkpt>
      <trkpt lat="43.89391" lon="7.2756">
        <ele>808.44067</ele>
        <time>2011-12-04T08:07:41Z</time>
      </trkpt>
      <trkpt lat="43.89396" lon="7.27571">
        <ele>808.440697</ele>
        <time>2011-12-04T08:07:47Z</time>
      </trkpt>
      <trkpt lat="43.89405" lon="7.2758">
        <ele>810.440731</ele>
        <time>2011-12-04T08:07:54Z</time>
      </trkpt>
      <trkpt lat="43.89415" lon="7.27584">
        <ele>812.44075</ele>
        <time>2011-12-04T08:07:59Z</time>
      </trkpt>
      <trkpt lat="43.89424" lon="7.27598">
        <ele>813.440788</ele>
        <time>2011-12-04T08:08:13Z</time>
      </trkpt>
      <trkpt lat="43.89431" lon="7.27608">
        <ele>815.440819</ele>
        <time>2011-12-04T08:08:21Z</time>
      </trkpt>
      <trkpt lat="43.89437" lon="7.27617">
        <ele>818.440849</ele>
        <time>2011-12-04T08:08:31Z</time>
      </trkpt>
      <trkpt lat="43.89442" lon="7.2763">
        <ele>819.440876</ele>
        <time>2011-12-04T08:08:39Z</time>
      </trkpt>
      <trkpt lat="43.89445" lon="7.27642">
        <ele>821.44091</ele>
        <time>2011-12-04T08:08:46Z</time>
      </trkpt>
      <trkpt lat="43.89449" lon="7.27659">
        <ele>823.440952</ele>
        <time>2011-12-04T08:08:54Z</time>
      </trkpt>
      <trkpt lat="43.89451" lon="7.27673">
        <ele>825.440979</ele>
        <time>2011-12-04T08:09:00Z</time>
      </trkpt>
      <trkpt lat="43.89452" lon="7.27688">
        <ele>828.441013</ele>
        <time>2011-12-04T08:09:06Z</time>
      </trkpt>
      <trkpt lat="43.89445" lon="7.27705">
        <ele>830.44104</ele>
        <time>2011-12-04T08:09:14Z</time>
      </trkpt>
      <trkpt lat="43.89437" lon="7.27715">
        <ele>831.441048</ele>
        <time>2011-12-04T08:09:20Z</time>
      </trkpt>
      <trkpt lat="43.8943" lon="7.27726">
        <ele>831.441063</ele>
        <time>2011-12-04T08:09:26Z</time>
      </trkpt>
      <trkpt lat="43.89425" lon="7.27736">
        <ele>832.441078</ele>
        <time>2011-12-04T08:09:32Z</time>
      </trkpt>
      <trkpt lat="43.89419" lon="7.27747">
        <ele>832.441093</ele>
        <time>2011-12-04T08:09:39Z</time>
      </trkpt>
      <trkpt lat="43.89414" lon="7.27761">
        <ele>834.441109</ele>
        <time>2011-12-04T08:09:46Z</time>
      </trkpt>
      <trkpt lat="43.89419" lon="7.27772">
        <ele>835.441139</ele>
        <time>2011-12-04T08:09:50Z</time>
      </trkpt>
      <trkpt lat="43.89428" lon="7.27779">
        <ele>835.44117</ele>
        <time>2011-12-04T08:09:54Z</time>
      </trkpt>
      <trkpt lat="43.89438" lon="7.27783">
        <ele>834.441193</ele>
        <time>2011-12-04T08:09:57Z</time>
      </trkpt>
      <trkpt lat="43.89449" lon="7.27788">
        <ele>834.441219</ele>
        <time>2011-12-04T08:10:00Z</time>
      </trkpt>
      <trkpt lat="43.89457" lon="7.27799">
        <ele>833.441246</ele>
        <time>2011-12-04T08:10:03Z</time>
      </trkpt>
      <trkpt lat="43.89458" lon="7.27813">
        <ele>832.441277</ele>
        <time>2011-12-04T08:10:07Z</time>
      </trkpt>
      <trkpt lat="43.89452" lon="7.27824">
        <ele>831.441292</ele>
        <time>2011-12-04T08:10:10Z</time>
      </trkpt>
      <trkpt lat="43.89445" lon="7.27834">
        <ele>830.441307</ele>
        <time>2011-12-04T08:10:13Z</time>
      </trkpt>
      <trkpt lat="43.89437" lon="7.27844">
        <ele>829.441315</ele>
        <time>2011-12-04T08:10:16Z</time>
      </trkpt>
      <trkpt lat="43.89435" lon="7.27848">
        <ele>829.441322</ele>
        <time>2011-12-04T08:10:17Z</time>
      </trkpt>
      <trkpt lat="43.8943" lon="7.27861">
        <ele>831.441338</ele>
        <time>2011-12-04T08:10:20Z</time>
      </trkpt>
      <trkpt lat="43.89428" lon="7.27874">
        <ele>832.441364</ele>
        <time>2011-12-04T08:10:23Z</time>
      </trkpt>
      <trkpt lat="43.89429" lon="7.27887">
        <ele>832.441391</ele>
        <time>2011-12-04T08:10:26Z</time>
      </trkpt>
      <trkpt lat="43.89433" lon="7.279">
        <ele>832.441422</ele>
        <time>2011-12-04T08:10:29Z</time>
      </trkpt>
      <trkpt lat="43.89437" lon="7.27913">
        <ele>833.441452</ele>
        <time>2011-12-04T08:10:32Z</time>
      </trkpt>
      <trkpt lat="43.89439" lon="7.27927">
        <ele>834.441486</ele>
        <time>2011-12-04T08:10:35Z</time>
      </trkpt>
      <trkpt lat="43.89438" lon="7.27942">
        <ele>835.441513</ele>
        <time>2011-12-04T08:10:39Z</time>
      </trkpt>
      <trkpt lat="43.89434" lon="7.27957">
        <ele>837.44154</ele>
        <time>2011-12-04T08:10:43Z</time>
      </trkpt>
      <trkpt lat="43.89431" lon="7.27972">
        <ele>838.441566</ele>
        <time>2011-12-04T08:10:47Z</time>
      </trkpt>
      <trkpt lat="43.89428" lon="7.27986">
        <ele>838.441597</ele>
        <time>2011-12-04T08:10:51Z</time>
      </trkpt>
      <trkpt lat="43.89426" lon="7.28">
        <ele>840.44162</ele>
        <time>2011-12-04T08:10:55Z</time>
      </trkpt>
      <trkpt lat="43.89422" lon="7.28014">
        <ele>840.441643</ele>
        <time>2011-12-04T08:10:59Z</time>
      </trkpt>
      <trkpt lat="43.89418" lon="7.28028">
        <ele>840.441669</ele>
        <time>2011-12-04T08:11:03Z</time>
      </trkpt>
      <trkpt lat="43.89414" lon="7.28042">
        <ele>841.441689</ele>
        <time>2011-12-04T08:11:07Z</time>
      </trkpt>
      <trkpt lat="43.8941" lon="7.28055">
        <ele>841.441711</ele>
        <time>2011-12-04T08:11:11Z</time>
      </trkpt>
      <trkpt lat="43.89406" lon="7.28068">
        <ele>842.44173</ele>
        <time>2011-12-04T08:11:15Z</time>
      </trkpt>
      <trkpt lat="43.89402" lon="7.28081">
        <ele>843.441753</ele>
        <time>2011-12-04T08:11:20Z</time>
      </trkpt>
      <trkpt lat="43.89399" lon="7.28095">
        <ele>844.44178</ele>
        <time>2011-12-04T08:11:25Z</time>
      </trkpt>
      <trkpt lat="43.89401" lon="7.2811">
        <ele>843.441811</ele>
        <time>2011-12-04T08:11:30Z</time>
      </trkpt>
      <trkpt lat="43.89403" lon="7.28125">
        <ele>846.441845</ele>
        <time>2011-12-04T08:11:35Z</time>
      </trkpt>
      <trkpt lat="43.89399" lon="7.28139">
        <ele>848.441872</ele>
        <time>2011-12-04T08:11:40Z</time>
      </trkpt>
      <trkpt lat="43.89394" lon="7.2815">
        <ele>851.441879</ele>
        <time>2011-12-04T08:11:44Z</time>
      </trkpt>
      <trkpt lat="43.89388" lon="7.28162">
        <ele>852.441898</ele>
        <time>2011-12-04T08:11:49Z</time>
      </trkpt>
      <trkpt lat="43.89384" lon="7.28175">
        <ele>852.441917</ele>
        <time>2011-12-04T08:11:54Z</time>
      </trkpt>
      <trkpt lat="43.89383" lon="7.28189">
        <ele>851.441948</ele>
        <time>2011-12-04T08:11:59Z</time>
      </trkpt>
      <trkpt lat="43.89383" lon="7.28204">
        <ele>851.441982</ele>
        <time>2011-12-04T08:12:04Z</time>
      </trkpt>
      <trkpt lat="43.8938" lon="7.28217">
        <ele>852.442005</ele>
        <time>2011-12-04T08:12:07Z</time>
      </trkpt>
      <trkpt lat="43.89376" lon="7.2823">
        <ele>853.442024</ele>
        <time>2011-12-04T08:12:09Z</time>
      </trkpt>
      <trkpt lat="43.89372" lon="7.28245">
        <ele>854.442047</ele>
        <time>2011-12-04T08:12:11Z</time>
      </trkpt>
      <trkpt lat="43.89368" lon="7.28259">
        <ele>855.44207</ele>
        <time>2011-12-04T08:12:13Z</time>
      </trkpt>
      <trkpt lat="43.89365" lon="7.28272">
        <ele>854.442093</ele>
        <time>2011-12-04T08:12:15Z</time>
      </trkpt>
      <trkpt lat="43.89362" lon="7.28286">
        <ele>855.442116</ele>
        <time>2011-12-04T08:12:17Z</time>
      </trkpt>
      <trkpt lat="43.8936" lon="7.28299">
        <ele>855.442142</ele>
        <time>2011-12-04T08:12:19Z</time>
      </trkpt>
      <trkpt lat="43.89351" lon="7.28309">
        <ele>856.442154</ele>
        <time>2011-12-04T08:12:22Z</time>
      </trkpt>
      <trkpt lat="43.89342" lon="7.28312">
        <ele>856.442146</ele>
        <time>2011-12-04T08:12:27Z</time>
      </trkpt>
      <trkpt lat="43.89333" lon="7.28308">
        <ele>856.442127</ele>
        <time>2011-12-04T08:12:35Z</time>
      </trkpt>
      <trkpt lat="43.89323" lon="7.28309">
        <ele>860.442116</ele>
        <time>2011-12-04T08:12:41Z</time>
      </trkpt>
      <trkpt lat="43.89315" lon="7.28315">
        <ele>867.442116</ele>
        <time>2011-12-04T08:12:47Z</time>
      </trkpt>
      <trkpt lat="43.89309" lon="7.28325">
        <ele>869.442127</ele>
        <time>2011-12-04T08:12:53Z</time>
      </trkpt>
      <trkpt lat="43.89299" lon="7.28331">
        <ele>869.442123</ele>
        <time>2011-12-04T08:13:00Z</time>
      </trkpt>
      <trkpt lat="43.8929" lon="7.28329">
        <ele>871.442108</ele>
        <time>2011-12-04T08:13:07Z</time>
      </trkpt>
      <trkpt lat="43.8929" lon="7.28329">
        <ele>871.442108</ele>
        <time>2011-12-04T08:13:08Z</time>
      </trkpt>
      <trkpt lat="43.89279" lon="7.28323">
        <ele>869.442085</ele>
        <time>2011-12-04T08:13:15Z</time>
      </trkpt>
      <trkpt lat="43.89278" lon="7.28323">
        <ele>869.442081</ele>
        <time>2011-12-04T08:13:16Z</time>
      </trkpt>
      <trkpt lat="43.89268" lon="7.28318">
        <ele>873.442062</ele>
        <time>2011-12-04T08:13:22Z</time>
      </trkpt>
      <trkpt lat="43.89258" lon="7.28314">
        <ele>876.442032</ele>
        <time>2011-12-04T08:13:27Z</time>
      </trkpt>
      <trkpt lat="43.89248" lon="7.28313">
        <ele>879.44202</ele>
        <time>2011-12-04T08:13:32Z</time>
      </trkpt>
      <trkpt lat="43.89237" lon="7.28315">
        <ele>883.442009</ele>
        <time>2011-12-04T08:13:38Z</time>
      </trkpt>
      <trkpt lat="43.89228" lon="7.2832">
        <ele>884.442005</ele>
        <time>2011-12-04T08:13:44Z</time>
      </trkpt>
      <trkpt lat="43.89218" lon="7.28325">
        <ele>884.442005</ele>
        <time>2011-12-04T08:13:51Z</time>
      </trkpt>
      <trkpt lat="43.89209" lon="7.28332">
        <ele>886.442009</ele>
        <time>2011-12-04T08:13:57Z</time>
      </trkpt>
      <trkpt lat="43.89201" lon="7.28339">
        <ele>888.442009</ele>
        <time>2011-12-04T08:14:02Z</time>
      </trkpt>
      <trkpt lat="43.89192" lon="7.28345">
        <ele>889.442009</ele>
        <time>2011-12-04T08:14:08Z</time>
      </trkpt>
      <trkpt lat="43.89183" lon="7.28352">
        <ele>892.442009</ele>
        <time>2011-12-04T08:14:14Z</time>
      </trkpt>
      <trkpt lat="43.89175" lon="7.28361">
        <ele>893.44202</ele>
        <time>2011-12-04T08:14:20Z</time>
      </trkpt>
      <trkpt lat="43.89168" lon="7.2837">
        <ele>895.442032</ele>
        <time>2011-12-04T08:14:25Z</time>
      </trkpt>
      <trkpt lat="43.89162" lon="7.28382">
        <ele>894.442047</ele>
        <time>2011-12-04T08:14:31Z</time>
      </trkpt>
      <trkpt lat="43.89155" lon="7.28393">
        <ele>895.442059</ele>
        <time>2011-12-04T08:14:37Z</time>
      </trkpt>
      <trkpt lat="43.89147" lon="7.28401">
        <ele>898.442062</ele>
        <time>2011-12-04T08:14:43Z</time>
      </trkpt>
      <trkpt lat="43.89137" lon="7.28406">
        <ele>901.442059</ele>
        <time>2011-12-04T08:14:49Z</time>
      </trkpt>
      <trkpt lat="43.89128" lon="7.2841">
        <ele>902.442055</ele>
        <time>2011-12-04T08:14:55Z</time>
      </trkpt>
      <trkpt lat="43.89118" lon="7.28413">
        <ele>903.442047</ele>
        <time>2011-12-04T08:15:02Z</time>
      </trkpt>
      <trkpt lat="43.89109" lon="7.28417">
        <ele>905.442047</ele>
        <time>2011-12-04T08:15:08Z</time>
      </trkpt>
      <trkpt lat="43.89101" lon="7.28422">
        <ele>904.442047</ele>
        <time>2011-12-04T08:15:14Z</time>
      </trkpt>
      <trkpt lat="43.89093" lon="7.28429">
        <ele>906.442051</ele>
        <time>2011-12-04T08:15:20Z</time>
      </trkpt>
      <trkpt lat="43.89085" lon="7.28435">
        <ele>907.442047</ele>
        <time>2011-12-04T08:15:27Z</time>
      </trkpt>
      <trkpt lat="43.89077" lon="7.28442">
        <ele>910.442051</ele>
        <time>2011-12-04T08:15:34Z</time>
      </trkpt>
      <trkpt lat="43.89067" lon="7.28444">
        <ele>912.442043</ele>
        <time>2011-12-04T08:15:40Z</time>
      </trkpt>
      <trkpt lat="43.89057" lon="7.28445">
        <ele>912.442032</ele>
        <time>2011-12-04T08:15:46Z</time>
      </trkpt>
      <trkpt lat="43.89047" lon="7.28448">
        <ele>913.442024</ele>
        <time>2011-12-04T08:15:52Z</time>
      </trkpt>
      <trkpt lat="43.89038" lon="7.2845">
        <ele>916.442017</ele>
        <time>2011-12-04T08:15:57Z</time>
      </trkpt>
      <trkpt lat="43.89029" lon="7.28449">
        <ele>917.442001</ele>
        <time>2011-12-04T08:16:03Z</time>
      </trkpt>
      <trkpt lat="43.89024" lon="7.28437">
        <ele>913.441971</ele>
        <time>2011-12-04T08:16:19Z</time>
      </trkpt>
      <trkpt lat="43.89024" lon="7.28428">
        <ele>910.441952</ele>
        <time>2011-12-04T08:16:25Z</time>
      </trkpt>
      <trkpt lat="43.89016" lon="7.28421">
        <ele>912.441925</ele>
        <time>2011-12-04T08:16:36Z</time>
      </trkpt>
      <trkpt lat="43.89013" lon="7.28423">
        <ele>912.441929</ele>
        <time>2011-12-04T08:16:39Z</time>
      </trkpt>
      <trkpt lat="43.89006" lon="7.28439">
        <ele>913.441948</ele>
        <time>2011-12-04T08:16:49Z</time>
      </trkpt>
      <trkpt lat="43.89005" lon="7.28454">
        <ele>914.441978</ele>
        <time>2011-12-04T08:16:55Z</time>
      </trkpt>
      <trkpt lat="43.89005" lon="7.28469">
        <ele>914.442009</ele>
        <time>2011-12-04T08:17:02Z</time>
      </trkpt>
      <trkpt lat="43.89006" lon="7.28471">
        <ele>914.442017</ele>
        <time>2011-12-04T08:17:03Z</time>
      </trkpt>
      <trkpt lat="43.89009" lon="7.28483">
        <ele>914.442047</ele>
        <time>2011-12-04T08:17:09Z</time>
      </trkpt>
      <trkpt lat="43.89019" lon="7.28495">
        <ele>916.442085</ele>
        <time>2011-12-04T08:17:26Z</time>
      </trkpt>
      <trkpt lat="43.8902" lon="7.28496">
        <ele>916.442085</ele>
        <time>2011-12-04T08:17:27Z</time>
      </trkpt>
      <trkpt lat="43.8903" lon="7.28499">
        <ele>919.442101</ele>
        <time>2011-12-04T08:17:35Z</time>
      </trkpt>
      <trkpt lat="43.89044" lon="7.28504">
        <ele>921.442135</ele>
        <time>2011-12-04T08:17:43Z</time>
      </trkpt>
      <trkpt lat="43.89052" lon="7.28511">
        <ele>927.442162</ele>
        <time>2011-12-04T08:17:50Z</time>
      </trkpt>
      <trkpt lat="43.89043" lon="7.28517">
        <ele>941.442162</ele>
        <time>2011-12-04T08:18:03Z</time>
      </trkpt>
      <trkpt lat="43.89034" lon="7.2852">
        <ele>943.442154</ele>
        <time>2011-12-04T08:18:12Z</time>
      </trkpt>
      <trkpt lat="43.89025" lon="7.28523">
        <ele>945.442154</ele>
        <time>2011-12-04T08:18:19Z</time>
      </trkpt>
      <trkpt lat="43.89016" lon="7.28525">
        <ele>947.442139</ele>
        <time>2011-12-04T08:18:27Z</time>
      </trkpt>
      <trkpt lat="43.89006" lon="7.28524">
        <ele>948.442131</ele>
        <time>2011-12-04T08:18:34Z</time>
      </trkpt>
      <trkpt lat="43.88994" lon="7.28523">
        <ele>947.442108</ele>
        <time>2011-12-04T08:18:43Z</time>
      </trkpt>
      <trkpt lat="43.88985" lon="7.28524">
        <ele>947.442093</ele>
        <time>2011-12-04T08:18:50Z</time>
      </trkpt>
      <trkpt lat="43.88971" lon="7.28526">
        <ele>950.442078</ele>
        <time>2011-12-04T08:19:17Z</time>
      </trkpt>
      <trkpt lat="43.88986" lon="7.28517">
        <ele>953.442085</ele>
        <time>2011-12-04T08:19:31Z</time>
      </trkpt>
      <trkpt lat="43.88988" lon="7.28514">
        <ele>954.442078</ele>
        <time>2011-12-04T08:19:36Z</time>
      </trkpt>
      <trkpt lat="43.88987" lon="7.28501">
        <ele>956.442055</ele>
        <time>2011-12-04T08:19:38Z</time>
      </trkpt>
      <trkpt lat="43.88977" lon="7.28504">
        <ele>955.442047</ele>
        <time>2011-12-04T08:19:49Z</time>
      </trkpt>
      <trkpt lat="43.88967" lon="7.28505">
        <ele>956.442036</ele>
        <time>2011-12-04T08:19:56Z</time>
      </trkpt>
      <trkpt lat="43.88952" lon="7.28507">
        <ele>957.442017</ele>
        <time>2011-12-04T08:20:08Z</time>
      </trkpt>
      <trkpt lat="43.88937" lon="7.28513">
        <ele>957.442009</ele>
        <time>2011-12-04T08:20:17Z</time>
      </trkpt>
      <trkpt lat="43.88935" lon="7.28515">
        <ele>957.442009</ele>
        <time>2011-12-04T08:20:20Z</time>
      </trkpt>
      <trkpt lat="43.8893" lon="7.28527">
        <ele>957.442024</ele>
        <time>2011-12-04T08:20:22Z</time>
      </trkpt>
      <trkpt lat="43.88931" lon="7.28549">
        <ele>956.442078</ele>
        <time>2011-12-04T08:20:30Z</time>
      </trkpt>
      <trkpt lat="43.88935" lon="7.28563">
        <ele>956.442108</ele>
        <time>2011-12-04T08:20:35Z</time>
      </trkpt>
      <trkpt lat="43.88935" lon="7.28563">
        <ele>956.442108</ele>
        <time>2011-12-04T08:20:36Z</time>
      </trkpt>
      <trkpt lat="43.88939" lon="7.28575">
        <ele>956.442139</ele>
        <time>2011-12-04T08:20:40Z</time>
      </trkpt>
      <trkpt lat="43.88943" lon="7.28588">
        <ele>955.442173</ele>
        <time>2011-12-04T08:20:46Z</time>
      </trkpt>
      <trkpt lat="43.88952" lon="7.28598">
        <ele>954.4422</ele>
        <time>2011-12-04T08:20:55Z</time>
      </trkpt>
      <trkpt lat="43.88955" lon="7.28601">
        <ele>955.442215</ele>
        <time>2011-12-04T08:20:58Z</time>
      </trkpt>
      <trkpt lat="43.88966" lon="7.28615">
        <ele>955.442261</ele>
        <time>2011-12-04T08:21:08Z</time>
      </trkpt>
      <trkpt lat="43.88974" lon="7.28623">
        <ele>955.442287</ele>
        <time>2011-12-04T08:21:15Z</time>
      </trkpt>
      <trkpt lat="43.88983" lon="7.2863">
        <ele>954.44231</ele>
        <time>2011-12-04T08:21:21Z</time>
      </trkpt>
      <trkpt lat="43.88984" lon="7.2863">
        <ele>954.442314</ele>
        <time>2011-12-04T08:21:22Z</time>
      </trkpt>
      <trkpt lat="43.88976" lon="7.28637">
        <ele>965.442318</ele>
        <time>2011-12-04T08:21:38Z</time>
      </trkpt>
      <trkpt lat="43.88967" lon="7.28632">
        <ele>967.442291</ele>
        <time>2011-12-04T08:21:44Z</time>
      </trkpt>
      <trkpt lat="43.88963" lon="7.28629">
        <ele>966.44228</ele>
        <time>2011-12-04T08:21:47Z</time>
      </trkpt>
      <trkpt lat="43.88956" lon="7.2862">
        <ele>965.442253</ele>
        <time>2011-12-04T08:21:54Z</time>
      </trkpt>
      <trkpt lat="43.88943" lon="7.28607">
        <ele>969.442211</ele>
        <time>2011-12-04T08:22:05Z</time>
      </trkpt>
      <trkpt lat="43.88935" lon="7.28601">
        <ele>972.442188</ele>
        <time>2011-12-04T08:22:11Z</time>
      </trkpt>
      <trkpt lat="43.88933" lon="7.28601">
        <ele>973.442188</ele>
        <time>2011-12-04T08:22:12Z</time>
      </trkpt>
      <trkpt lat="43.88924" lon="7.28602">
        <ele>972.442173</ele>
        <time>2011-12-04T08:22:19Z</time>
      </trkpt>
      <trkpt lat="43.88923" lon="7.28614">
        <ele>974.4422</ele>
        <time>2011-12-04T08:22:28Z</time>
      </trkpt>
      <trkpt lat="43.8893" lon="7.28625">
        <ele>975.442226</ele>
        <time>2011-12-04T08:22:34Z</time>
      </trkpt>
      <trkpt lat="43.88937" lon="7.28632">
        <ele>976.442253</ele>
        <time>2011-12-04T08:22:38Z</time>
      </trkpt>
      <trkpt lat="43.88939" lon="7.28635">
        <ele>977.442261</ele>
        <time>2011-12-04T08:22:39Z</time>
      </trkpt>
      <trkpt lat="43.88948" lon="7.28643">
        <ele>978.442291</ele>
        <time>2011-12-04T08:22:43Z</time>
      </trkpt>
      <trkpt lat="43.88957" lon="7.28652">
        <ele>977.442322</ele>
        <time>2011-12-04T08:22:47Z</time>
      </trkpt>
      <trkpt lat="43.88959" lon="7.28654">
        <ele>977.442322</ele>
        <time>2011-12-04T08:22:48Z</time>
      </trkpt>
      <trkpt lat="43.88966" lon="7.28662">
        <ele>977.442352</ele>
        <time>2011-12-04T08:22:52Z</time>
      </trkpt>
      <trkpt lat="43.88973" lon="7.28671">
        <ele>977.442383</ele>
        <time>2011-12-04T08:22:57Z</time>
      </trkpt>
      <trkpt lat="43.88979" lon="7.2868">
        <ele>976.44241</ele>
        <time>2011-12-04T08:23:03Z</time>
      </trkpt>
      <trkpt lat="43.8899" lon="7.28683">
        <ele>976.442429</ele>
        <time>2011-12-04T08:23:09Z</time>
      </trkpt>
      <trkpt lat="43.89001" lon="7.2868">
        <ele>976.442436</ele>
        <time>2011-12-04T08:23:12Z</time>
      </trkpt>
      <trkpt lat="43.89008" lon="7.28673">
        <ele>974.442436</ele>
        <time>2011-12-04T08:23:22Z</time>
      </trkpt>
      <trkpt lat="43.89011" lon="7.28671">
        <ele>977.442436</ele>
        <time>2011-12-04T08:23:28Z</time>
      </trkpt>
      <trkpt lat="43.8902" lon="7.28662">
        <ele>973.442429</ele>
        <time>2011-12-04T08:28:10Z</time>
      </trkpt>
      <trkpt lat="43.89031" lon="7.28653">
        <ele>976.442421</ele>
        <time>2011-12-04T08:28:23Z</time>
      </trkpt>
      <trkpt lat="43.89032" lon="7.28651">
        <ele>976.442421</ele>
        <time>2011-12-04T08:28:25Z</time>
      </trkpt>
      <trkpt lat="43.89038" lon="7.28642">
        <ele>978.44241</ele>
        <time>2011-12-04T08:28:35Z</time>
      </trkpt>
      <trkpt lat="43.89047" lon="7.28635">
        <ele>979.442413</ele>
        <time>2011-12-04T08:28:54Z</time>
      </trkpt>
      <trkpt lat="43.89057" lon="7.2863">
        <ele>984.442413</ele>
        <time>2011-12-04T08:29:08Z</time>
      </trkpt>
      <trkpt lat="43.89066" lon="7.2863">
        <ele>987.442425</ele>
        <time>2011-12-04T08:29:21Z</time>
      </trkpt>
      <trkpt lat="43.89074" lon="7.28623">
        <ele>989.442421</ele>
        <time>2011-12-04T08:29:32Z</time>
      </trkpt>
      <trkpt lat="43.89082" lon="7.28616">
        <ele>990.442413</ele>
        <time>2011-12-04T08:29:44Z</time>
      </trkpt>
      <trkpt lat="43.89091" lon="7.28611">
        <ele>994.442421</ele>
        <time>2011-12-04T08:29:55Z</time>
      </trkpt>
      <trkpt lat="43.89101" lon="7.28609">
        <ele>996.442429</ele>
        <time>2011-12-04T08:30:05Z</time>
      </trkpt>
      <trkpt lat="43.8911" lon="7.28605">
        <ele>998.442436</ele>
        <time>2011-12-04T08:30:15Z</time>
      </trkpt>
      <trkpt lat="43.89119" lon="7.286">
        <ele>1001.442432</ele>
        <time>2011-12-04T08:30:21Z</time>
      </trkpt>
      <trkpt lat="43.89128" lon="7.28595">
        <ele>1004.442436</ele>
        <time>2011-12-04T08:30:34Z</time>
      </trkpt>
      <trkpt lat="43.8913" lon="7.28594">
        <ele>1004.442436</ele>
        <time>2011-12-04T08:30:37Z</time>
      </trkpt>
      <trkpt lat="43.89139" lon="7.28585">
        <ele>1007.442429</ele>
        <time>2011-12-04T08:30:46Z</time>
      </trkpt>
      <trkpt lat="43.89146" lon="7.28576">
        <ele>1008.442421</ele>
        <time>2011-12-04T08:31:00Z</time>
      </trkpt>
      <trkpt lat="43.8915" lon="7.28573">
        <ele>1009.442421</ele>
        <time>2011-12-04T08:31:03Z</time>
      </trkpt>
      <trkpt lat="43.89158" lon="7.28566">
        <ele>1010.442421</ele>
        <time>2011-12-04T08:31:14Z</time>
      </trkpt>
      <trkpt lat="43.89166" lon="7.28561">
        <ele>1010.442421</ele>
        <time>2011-12-04T08:31:25Z</time>
      </trkpt>
      <trkpt lat="43.89175" lon="7.28559">
        <ele>1011.442429</ele>
        <time>2011-12-04T08:31:38Z</time>
      </trkpt>
      <trkpt lat="43.89177" lon="7.28559">
        <ele>1012.442429</ele>
        <time>2011-12-04T08:31:40Z</time>
      </trkpt>
      <trkpt lat="43.89186" lon="7.28559">
        <ele>1013.442444</ele>
        <time>2011-12-04T08:31:48Z</time>
      </trkpt>
      <trkpt lat="43.89195" lon="7.28561">
        <ele>1013.442459</ele>
        <time>2011-12-04T08:31:53Z</time>
      </trkpt>
      <trkpt lat="43.89204" lon="7.28565">
        <ele>1016.442478</ele>
        <time>2011-12-04T08:32:14Z</time>
      </trkpt>
      <trkpt lat="43.89204" lon="7.28565">
        <ele>1016.442478</ele>
        <time>2011-12-04T08:32:15Z</time>
      </trkpt>
      <trkpt lat="43.89216" lon="7.2857">
        <ele>1026.442505</ele>
        <time>2011-12-04T08:33:19Z</time>
      </trkpt>
      <trkpt lat="43.8922" lon="7.28584">
        <ele>1042.442535</ele>
        <time>2011-12-04T08:34:21Z</time>
      </trkpt>
      <trkpt lat="43.8923" lon="7.28583">
        <ele>1043.442551</ele>
        <time>2011-12-04T08:34:43Z</time>
      </trkpt>
      <trkpt lat="43.89235" lon="7.28581">
        <ele>1050.442551</ele>
        <time>2011-12-04T08:34:56Z</time>
      </trkpt>
      <trkpt lat="43.89244" lon="7.28579">
        <ele>1072.442558</ele>
        <time>2011-12-04T08:36:48Z</time>
      </trkpt>
      <trkpt lat="43.89253" lon="7.28583">
        <ele>1075.442581</ele>
        <time>2011-12-04T08:37:19Z</time>
      </trkpt>
      <trkpt lat="43.89263" lon="7.28586">
        <ele>1077.442604</ele>
        <time>2011-12-04T08:37:32Z</time>
      </trkpt>
      <trkpt lat="43.89272" lon="7.28592">
        <ele>1077.442627</ele>
        <time>2011-12-04T08:37:48Z</time>
      </trkpt>
      <trkpt lat="43.89272" lon="7.28592">
        <ele>1077.442627</ele>
        <time>2011-12-04T08:37:49Z</time>
      </trkpt>
      <trkpt lat="43.8928" lon="7.28597">
        <ele>1077.442642</ele>
        <time>2011-12-04T08:38:04Z</time>
      </trkpt>
      <trkpt lat="43.89281" lon="7.28609">
        <ele>1085.442673</ele>
        <time>2011-12-04T08:38:25Z</time>
      </trkpt>
      <trkpt lat="43.89272" lon="7.28611">
        <ele>1087.442665</ele>
        <time>2011-12-04T08:38:40Z</time>
      </trkpt>
      <trkpt lat="43.89272" lon="7.28611">
        <ele>1087.442665</ele>
        <time>2011-12-04T08:38:42Z</time>
      </trkpt>
      <trkpt lat="43.89263" lon="7.28611">
        <ele>1089.44265</ele>
        <time>2011-12-04T08:39:01Z</time>
      </trkpt>
      <trkpt lat="43.89256" lon="7.28619">
        <ele>1087.442657</ele>
        <time>2011-12-04T08:39:14Z</time>
      </trkpt>
      <trkpt lat="43.89257" lon="7.28633">
        <ele>1095.442688</ele>
        <time>2011-12-04T08:39:55Z</time>
      </trkpt>
      <trkpt lat="43.89254" lon="7.28646">
        <ele>1100.442711</ele>
        <time>2011-12-04T08:40:08Z</time>
      </trkpt>
      <trkpt lat="43.89246" lon="7.28653">
        <ele>1103.442719</ele>
        <time>2011-12-04T08:40:23Z</time>
      </trkpt>
      <trkpt lat="43.89237" lon="7.28656">
        <ele>1104.442703</ele>
        <time>2011-12-04T08:40:48Z</time>
      </trkpt>
      <trkpt lat="43.89237" lon="7.28656">
        <ele>1104.442703</ele>
        <time>2011-12-04T08:40:50Z</time>
      </trkpt>
      <trkpt lat="43.8925" lon="7.28656">
        <ele>1110.442726</ele>
        <time>2011-12-04T08:41:19Z</time>
      </trkpt>
      <trkpt lat="43.8926" lon="7.28655">
        <ele>1111.442738</ele>
        <time>2011-12-04T08:41:29Z</time>
      </trkpt>
      <trkpt lat="43.89269" lon="7.2865">
        <ele>1113.442741</ele>
        <time>2011-12-04T08:41:39Z</time>
      </trkpt>
      <trkpt lat="43.8928" lon="7.2865">
        <ele>1114.442757</ele>
        <time>2011-12-04T08:41:52Z</time>
      </trkpt>
      <trkpt lat="43.89289" lon="7.28652">
        <ele>1115.442776</ele>
        <time>2011-12-04T08:42:04Z</time>
      </trkpt>
      <trkpt lat="43.89298" lon="7.28654">
        <ele>1118.442787</ele>
        <time>2011-12-04T08:42:16Z</time>
      </trkpt>
      <trkpt lat="43.893" lon="7.28654">
        <ele>1118.442795</ele>
        <time>2011-12-04T08:42:18Z</time>
      </trkpt>
      <trkpt lat="43.89309" lon="7.28655">
        <ele>1119.442802</ele>
        <time>2011-12-04T08:42:27Z</time>
      </trkpt>
      <trkpt lat="43.8931" lon="7.28655">
        <ele>1119.442806</ele>
        <time>2011-12-04T08:42:28Z</time>
      </trkpt>
      <trkpt lat="43.89319" lon="7.28657">
        <ele>1126.442825</ele>
        <time>2011-12-04T08:42:53Z</time>
      </trkpt>
      <trkpt lat="43.89312" lon="7.28649">
        <ele>1131.442795</ele>
        <time>2011-12-04T08:44:18Z</time>
      </trkpt>
      <trkpt lat="43.89317" lon="7.2866">
        <ele>1130.442825</ele>
        <time>2011-12-04T08:44:31Z</time>
      </trkpt>
      <trkpt lat="43.89327" lon="7.28664">
        <ele>1130.442848</ele>
        <time>2011-12-04T08:44:34Z</time>
      </trkpt>
      <trkpt lat="43.8934" lon="7.28663">
        <ele>1129.442863</ele>
        <time>2011-12-04T08:44:41Z</time>
      </trkpt>
      <trkpt lat="43.89351" lon="7.28659">
        <ele>1131.442871</ele>
        <time>2011-12-04T08:44:46Z</time>
      </trkpt>
      <trkpt lat="43.89361" lon="7.28655">
        <ele>1131.442879</ele>
        <time>2011-12-04T08:44:50Z</time>
      </trkpt>
      <trkpt lat="43.89372" lon="7.28648">
        <ele>1134.442879</ele>
        <time>2011-12-04T08:44:54Z</time>
      </trkpt>
      <trkpt lat="43.89381" lon="7.2864">
        <ele>1136.442871</ele>
        <time>2011-12-04T08:44:58Z</time>
      </trkpt>
      <trkpt lat="43.89389" lon="7.28631">
        <ele>1139.442863</ele>
        <time>2011-12-04T08:45:02Z</time>
      </trkpt>
      <trkpt lat="43.89394" lon="7.2862">
        <ele>1141.442848</ele>
        <time>2011-12-04T08:45:06Z</time>
      </trkpt>
      <trkpt lat="43.894" lon="7.28603">
        <ele>1144.442825</ele>
        <time>2011-12-04T08:45:12Z</time>
      </trkpt>
      <trkpt lat="43.89401" lon="7.286">
        <ele>1144.442818</ele>
        <time>2011-12-04T08:45:15Z</time>
      </trkpt>
      <trkpt lat="43.89405" lon="7.28588">
        <ele>1144.442799</ele>
        <time>2011-12-04T08:45:17Z</time>
      </trkpt>
      <trkpt lat="43.8941" lon="7.28577">
        <ele>1144.44278</ele>
        <time>2011-12-04T08:45:21Z</time>
      </trkpt>
      <trkpt lat="43.89415" lon="7.28564">
        <ele>1144.44276</ele>
        <time>2011-12-04T08:45:26Z</time>
      </trkpt>
      <trkpt lat="43.8942" lon="7.28552">
        <ele>1144.442745</ele>
        <time>2011-12-04T08:45:30Z</time>
      </trkpt>
      <trkpt lat="43.89428" lon="7.28538">
        <ele>1144.442726</ele>
        <time>2011-12-04T08:45:36Z</time>
      </trkpt>
      <trkpt lat="43.89436" lon="7.28529">
        <ele>1143.442719</ele>
        <time>2011-12-04T08:45:44Z</time>
      </trkpt>
      <trkpt lat="43.89444" lon="7.28522">
        <ele>1144.442715</ele>
        <time>2011-12-04T08:45:55Z</time>
      </trkpt>
      <trkpt lat="43.89452" lon="7.28515">
        <ele>1144.442711</ele>
        <time>2011-12-04T08:46:02Z</time>
      </trkpt>
      <trkpt lat="43.89457" lon="7.28502">
        <ele>1143.442692</ele>
        <time>2011-12-04T08:46:07Z</time>
      </trkpt>
      <trkpt lat="43.89458" lon="7.28499">
        <ele>1141.442688</ele>
        <time>2011-12-04T08:46:08Z</time>
      </trkpt>
      <trkpt lat="43.89463" lon="7.28491">
        <ele>1131.442677</ele>
        <time>2011-12-04T08:46:12Z</time>
      </trkpt>
      <trkpt lat="43.89473" lon="7.28485">
        <ele>1118.44268</ele>
        <time>2011-12-04T08:46:17Z</time>
      </trkpt>
      <trkpt lat="43.89477" lon="7.28482">
        <ele>1114.442677</ele>
        <time>2011-12-04T08:46:21Z</time>
      </trkpt>
      <trkpt lat="43.89486" lon="7.28475">
        <ele>1107.442677</ele>
        <time>2011-12-04T08:46:23Z</time>
      </trkpt>
      <trkpt lat="43.89503" lon="7.28458">
        <ele>1098.442665</ele>
        <time>2011-12-04T08:46:33Z</time>
      </trkpt>
      <trkpt lat="43.89505" lon="7.28445">
        <ele>1096.442642</ele>
        <time>2011-12-04T08:46:45Z</time>
      </trkpt>
      <trkpt lat="43.89511" lon="7.28432">
        <ele>1095.442619</ele>
        <time>2011-12-04T08:46:53Z</time>
      </trkpt>
      <trkpt lat="43.89517" lon="7.28421">
        <ele>1092.442604</ele>
        <time>2011-12-04T08:46:58Z</time>
      </trkpt>
      <trkpt lat="43.89525" lon="7.28409">
        <ele>1089.442589</ele>
        <time>2011-12-04T08:47:04Z</time>
      </trkpt>
      <trkpt lat="43.89535" lon="7.284">
        <ele>1087.442589</ele>
        <time>2011-12-04T08:47:10Z</time>
      </trkpt>
      <trkpt lat="43.89541" lon="7.28389">
        <ele>1086.442574</ele>
        <time>2011-12-04T08:47:16Z</time>
      </trkpt>
      <trkpt lat="43.89541" lon="7.28368">
        <ele>1088.442535</ele>
        <time>2011-12-04T08:47:24Z</time>
      </trkpt>
      <trkpt lat="43.8954" lon="7.28357">
        <ele>1087.442509</ele>
        <time>2011-12-04T08:47:27Z</time>
      </trkpt>
      <trkpt lat="43.8954" lon="7.28344">
        <ele>1086.442478</ele>
        <time>2011-12-04T08:47:31Z</time>
      </trkpt>
      <trkpt lat="43.89538" lon="7.2833">
        <ele>1084.442444</ele>
        <time>2011-12-04T08:47:35Z</time>
      </trkpt>
      <trkpt lat="43.89536" lon="7.28314">
        <ele>1081.442413</ele>
        <time>2011-12-04T08:47:39Z</time>
      </trkpt>
      <trkpt lat="43.89534" lon="7.283">
        <ele>1078.442383</ele>
        <time>2011-12-04T08:47:44Z</time>
      </trkpt>
      <trkpt lat="43.89534" lon="7.28293">
        <ele>1075.442368</ele>
        <time>2011-12-04T08:47:47Z</time>
      </trkpt>
      <trkpt lat="43.89532" lon="7.2828">
        <ele>1070.442337</ele>
        <time>2011-12-04T08:47:53Z</time>
      </trkpt>
      <trkpt lat="43.89525" lon="7.28254">
        <ele>1065.442276</ele>
        <time>2011-12-04T08:48:04Z</time>
      </trkpt>
      <trkpt lat="43.89526" lon="7.28251">
        <ele>1064.442268</ele>
        <time>2011-12-04T08:48:07Z</time>
      </trkpt>
      <trkpt lat="43.89537" lon="7.28242">
        <ele>1066.442268</ele>
        <time>2011-12-04T08:48:23Z</time>
      </trkpt>
      <trkpt lat="43.89546" lon="7.28237">
        <ele>1066.442268</ele>
        <time>2011-12-04T08:48:28Z</time>
      </trkpt>
      <trkpt lat="43.89557" lon="7.28232">
        <ele>1066.442272</ele>
        <time>2011-12-04T08:48:34Z</time>
      </trkpt>
      <trkpt lat="43.89571" lon="7.28223">
        <ele>1066.442272</ele>
        <time>2011-12-04T08:48:40Z</time>
      </trkpt>
      <trkpt lat="43.89581" lon="7.28212">
        <ele>1065.442265</ele>
        <time>2011-12-04T08:48:45Z</time>
      </trkpt>
      <trkpt lat="43.89582" lon="7.2821">
        <ele>1065.442265</ele>
        <time>2011-12-04T08:48:57Z</time>
      </trkpt>
      <trkpt lat="43.89586" lon="7.28198">
        <ele>1070.442238</ele>
        <time>2011-12-04T08:49:19Z</time>
      </trkpt>
      <trkpt lat="43.89586" lon="7.28195">
        <ele>1071.442238</ele>
        <time>2011-12-04T08:49:29Z</time>
      </trkpt>
      <trkpt lat="43.89593" lon="7.28183">
        <ele>1080.442223</ele>
        <time>2011-12-04T08:52:21Z</time>
      </trkpt>
      <trkpt lat="43.89614" lon="7.28181">
        <ele>1077.442249</ele>
        <time>2011-12-04T08:52:50Z</time>
      </trkpt>
      <trkpt lat="43.89618" lon="7.28169">
        <ele>1077.44223</ele>
        <time>2011-12-04T08:52:53Z</time>
      </trkpt>
      <trkpt lat="43.89623" lon="7.28155">
        <ele>1077.442207</ele>
        <time>2011-12-04T08:52:56Z</time>
      </trkpt>
      <trkpt lat="43.89626" lon="7.28142">
        <ele>1078.442184</ele>
        <time>2011-12-04T08:52:58Z</time>
      </trkpt>
      <trkpt lat="43.89627" lon="7.28128">
        <ele>1079.442154</ele>
        <time>2011-12-04T08:52:59Z</time>
      </trkpt>
      <trkpt lat="43.8963" lon="7.28113">
        <ele>1080.442131</ele>
        <time>2011-12-04T08:53:01Z</time>
      </trkpt>
      <trkpt lat="43.89631" lon="7.281">
        <ele>1081.442101</ele>
        <time>2011-12-04T08:53:03Z</time>
      </trkpt>
      <trkpt lat="43.89634" lon="7.28083">
        <ele>1083.44207</ele>
        <time>2011-12-04T08:53:06Z</time>
      </trkpt>
      <trkpt lat="43.89638" lon="7.28064">
        <ele>1085.442036</ele>
        <time>2011-12-04T08:53:11Z</time>
      </trkpt>
      <trkpt lat="43.89639" lon="7.28051">
        <ele>1087.442013</ele>
        <time>2011-12-04T08:53:13Z</time>
      </trkpt>
      <trkpt lat="43.89642" lon="7.28038">
        <ele>1088.441994</ele>
        <time>2011-12-04T08:53:15Z</time>
      </trkpt>
      <trkpt lat="43.89644" lon="7.28021">
        <ele>1089.441956</ele>
        <time>2011-12-04T08:53:18Z</time>
      </trkpt>
      <trkpt lat="43.89646" lon="7.28008">
        <ele>1090.441933</ele>
        <time>2011-12-04T08:53:20Z</time>
      </trkpt>
      <trkpt lat="43.89647" lon="7.27996">
        <ele>1090.44191</ele>
        <time>2011-12-04T08:53:22Z</time>
      </trkpt>
      <trkpt lat="43.89647" lon="7.27983">
        <ele>1091.441887</ele>
        <time>2011-12-04T08:53:24Z</time>
      </trkpt>
      <trkpt lat="43.89646" lon="7.27966">
        <ele>1093.441849</ele>
        <time>2011-12-04T08:53:27Z</time>
      </trkpt>
      <trkpt lat="43.89647" lon="7.27952">
        <ele>1095.441818</ele>
        <time>2011-12-04T08:53:29Z</time>
      </trkpt>
      <trkpt lat="43.89647" lon="7.27936">
        <ele>1098.441788</ele>
        <time>2011-12-04T08:53:32Z</time>
      </trkpt>
      <trkpt lat="43.89648" lon="7.27926">
        <ele>1100.441769</ele>
        <time>2011-12-04T08:53:34Z</time>
      </trkpt>
      <trkpt lat="43.89649" lon="7.27906">
        <ele>1105.44173</ele>
        <time>2011-12-04T08:53:40Z</time>
      </trkpt>
      <trkpt lat="43.89648" lon="7.279">
        <ele>1106.441715</ele>
        <time>2011-12-04T08:53:41Z</time>
      </trkpt>
      <trkpt lat="43.89638" lon="7.27879">
        <ele>1111.441658</ele>
        <time>2011-12-04T08:53:45Z</time>
      </trkpt>
      <trkpt lat="43.89632" lon="7.27868">
        <ele>1112.441624</ele>
        <time>2011-12-04T08:53:47Z</time>
      </trkpt>
      <trkpt lat="43.89624" lon="7.27854">
        <ele>1110.441589</ele>
        <time>2011-12-04T08:53:50Z</time>
      </trkpt>
      <trkpt lat="43.89619" lon="7.2785">
        <ele>1103.441574</ele>
        <time>2011-12-04T08:53:56Z</time>
      </trkpt>
      <trkpt lat="43.89617" lon="7.2783">
        <ele>1095.441528</ele>
        <time>2011-12-04T08:54:04Z</time>
      </trkpt>
      <trkpt lat="43.89613" lon="7.27819">
        <ele>1093.441505</ele>
        <time>2011-12-04T08:54:06Z</time>
      </trkpt>
      <trkpt lat="43.89606" lon="7.27804">
        <ele>1089.44146</ele>
        <time>2011-12-04T08:54:09Z</time>
      </trkpt>
      <trkpt lat="43.89601" lon="7.27791">
        <ele>1084.441429</ele>
        <time>2011-12-04T08:54:12Z</time>
      </trkpt>
      <trkpt lat="43.89595" lon="7.27777">
        <ele>1081.441387</ele>
        <time>2011-12-04T08:54:15Z</time>
      </trkpt>
      <trkpt lat="43.89589" lon="7.27762">
        <ele>1077.441353</ele>
        <time>2011-12-04T08:54:18Z</time>
      </trkpt>
      <trkpt lat="43.89586" lon="7.2775">
        <ele>1071.441322</ele>
        <time>2011-12-04T08:54:21Z</time>
      </trkpt>
      <trkpt lat="43.89585" lon="7.27742">
        <ele>1059.441307</ele>
        <time>2011-12-04T08:54:24Z</time>
      </trkpt>
      <trkpt lat="43.89589" lon="7.27729">
        <ele>1049.441284</ele>
        <time>2011-12-04T08:54:29Z</time>
      </trkpt>
      <trkpt lat="43.89599" lon="7.27729">
        <ele>1037.441299</ele>
        <time>2011-12-04T08:54:34Z</time>
      </trkpt>
      <trkpt lat="43.89608" lon="7.27727">
        <ele>1023.441307</ele>
        <time>2011-12-04T08:54:41Z</time>
      </trkpt>
      <trkpt lat="43.8961" lon="7.27726">
        <ele>1020.441307</ele>
        <time>2011-12-04T08:54:46Z</time>
      </trkpt>
      <trkpt lat="43.89624" lon="7.27719">
        <ele>980.441315</ele>
        <time>2011-12-04T08:55:10Z</time>
      </trkpt>
      <trkpt lat="43.89625" lon="7.2772">
        <ele>974.441315</ele>
        <time>2011-12-04T08:55:13Z</time>
      </trkpt>
      <trkpt lat="43.89633" lon="7.27725">
        <ele>952.441334</ele>
        <time>2011-12-04T08:55:45Z</time>
      </trkpt>
      <trkpt lat="43.89633" lon="7.27725">
        <ele>952.441334</ele>
        <time>2011-12-04T08:55:52Z</time>
      </trkpt>
      <trkpt lat="43.8964" lon="7.27733">
        <ele>943.44136</ele>
        <time>2011-12-04T08:56:10Z</time>
      </trkpt>
      <trkpt lat="43.89631" lon="7.27729">
        <ele>942.441345</ele>
        <time>2011-12-04T08:56:54Z</time>
      </trkpt>
      <trkpt lat="43.89627" lon="7.27727">
        <ele>941.441338</ele>
        <time>2011-12-04T08:56:57Z</time>
      </trkpt>
      <trkpt lat="43.89633" lon="7.27718">
        <ele>930.441322</ele>
        <time>2011-12-04T08:57:52Z</time>
      </trkpt>
      <trkpt lat="43.89634" lon="7.27704">
        <ele>930.441299</ele>
        <time>2011-12-04T08:57:54Z</time>
      </trkpt>
      <trkpt lat="43.89634" lon="7.27688">
        <ele>930.441261</ele>
        <time>2011-12-04T08:57:56Z</time>
      </trkpt>
      <trkpt lat="43.89636" lon="7.27673">
        <ele>929.441235</ele>
        <time>2011-12-04T08:57:58Z</time>
      </trkpt>
      <trkpt lat="43.89633" lon="7.2766">
        <ele>929.4412</ele>
        <time>2011-12-04T08:58:00Z</time>
      </trkpt>
      <trkpt lat="43.89634" lon="7.27643">
        <ele>930.44117</ele>
        <time>2011-12-04T08:58:04Z</time>
      </trkpt>
      <trkpt lat="43.89628" lon="7.27633">
        <ele>930.441139</ele>
        <time>2011-12-04T08:58:06Z</time>
      </trkpt>
      <trkpt lat="43.8962" lon="7.2762">
        <ele>931.441109</ele>
        <time>2011-12-04T08:58:09Z</time>
      </trkpt>
      <trkpt lat="43.8962" lon="7.27617">
        <ele>931.441097</ele>
        <time>2011-12-04T08:58:10Z</time>
      </trkpt>
      <trkpt lat="43.8962" lon="7.27603">
        <ele>931.441071</ele>
        <time>2011-12-04T08:58:13Z</time>
      </trkpt>
      <trkpt lat="43.89622" lon="7.27586">
        <ele>931.44104</ele>
        <time>2011-12-04T08:58:16Z</time>
      </trkpt>
      <trkpt lat="43.89621" lon="7.27573">
        <ele>930.44101</ele>
        <time>2011-12-04T08:58:18Z</time>
      </trkpt>
      <trkpt lat="43.89618" lon="7.2756">
        <ele>928.440979</ele>
        <time>2011-12-04T08:58:20Z</time>
      </trkpt>
      <trkpt lat="43.89616" lon="7.27547">
        <ele>928.440948</ele>
        <time>2011-12-04T08:58:22Z</time>
      </trkpt>
      <trkpt lat="43.89612" lon="7.27534">
        <ele>927.440914</ele>
        <time>2011-12-04T08:58:24Z</time>
      </trkpt>
      <trkpt lat="43.89608" lon="7.2752">
        <ele>926.44088</ele>
        <time>2011-12-04T08:58:26Z</time>
      </trkpt>
      <trkpt lat="43.89601" lon="7.275">
        <ele>924.440834</ele>
        <time>2011-12-04T08:58:28Z</time>
      </trkpt>
      <trkpt lat="43.89598" lon="7.27492">
        <ele>923.440811</ele>
        <time>2011-12-04T08:58:29Z</time>
      </trkpt>
      <trkpt lat="43.89594" lon="7.27476">
        <ele>922.440773</ele>
        <time>2011-12-04T08:58:31Z</time>
      </trkpt>
      <trkpt lat="43.89591" lon="7.27462">
        <ele>920.440735</ele>
        <time>2011-12-04T08:58:33Z</time>
      </trkpt>
      <trkpt lat="43.89586" lon="7.27447">
        <ele>919.440704</ele>
        <time>2011-12-04T08:58:35Z</time>
      </trkpt>
      <trkpt lat="43.89584" lon="7.27439">
        <ele>919.440681</ele>
        <time>2011-12-04T08:58:36Z</time>
      </trkpt>
      <trkpt lat="43.89579" lon="7.27423">
        <ele>917.440643</ele>
        <time>2011-12-04T08:58:38Z</time>
      </trkpt>
      <trkpt lat="43.89576" lon="7.27409">
        <ele>915.440613</ele>
        <time>2011-12-04T08:58:40Z</time>
      </trkpt>
      <trkpt lat="43.89573" lon="7.27397">
        <ele>913.440578</ele>
        <time>2011-12-04T08:58:42Z</time>
      </trkpt>
      <trkpt lat="43.89572" lon="7.27391">
        <ele>913.440567</ele>
        <time>2011-12-04T08:58:43Z</time>
      </trkpt>
      <trkpt lat="43.89568" lon="7.27375">
        <ele>911.440529</ele>
        <time>2011-12-04T08:58:46Z</time>
      </trkpt>
      <trkpt lat="43.89566" lon="7.2737">
        <ele>910.440514</ele>
        <time>2011-12-04T08:58:47Z</time>
      </trkpt>
      <trkpt lat="43.89561" lon="7.27355">
        <ele>908.440475</ele>
        <time>2011-12-04T08:58:50Z</time>
      </trkpt>
      <trkpt lat="43.89556" lon="7.27341">
        <ele>906.440445</ele>
        <time>2011-12-04T08:58:53Z</time>
      </trkpt>
      <trkpt lat="43.89555" lon="7.27337">
        <ele>905.440434</ele>
        <time>2011-12-04T08:58:54Z</time>
      </trkpt>
      <trkpt lat="43.89552" lon="7.27322">
        <ele>903.440399</ele>
        <time>2011-12-04T08:58:58Z</time>
      </trkpt>
      <trkpt lat="43.89551" lon="7.27318">
        <ele>903.440392</ele>
        <time>2011-12-04T08:58:59Z</time>
      </trkpt>
      <trkpt lat="43.8954" lon="7.27269">
        <ele>901.440277</ele>
        <time>2011-12-04T08:59:12Z</time>
      </trkpt>
      <trkpt lat="43.89536" lon="7.27256">
        <ele>898.440243</ele>
        <time>2011-12-04T08:59:15Z</time>
      </trkpt>
      <trkpt lat="43.89532" lon="7.2724">
        <ele>895.440201</ele>
        <time>2011-12-04T08:59:18Z</time>
      </trkpt>
      <trkpt lat="43.8953" lon="7.27234">
        <ele>894.440186</ele>
        <time>2011-12-04T08:59:19Z</time>
      </trkpt>
      <trkpt lat="43.89523" lon="7.27226">
        <ele>893.440163</ele>
        <time>2011-12-04T08:59:21Z</time>
      </trkpt>
      <trkpt lat="43.89515" lon="7.27218">
        <ele>892.44014</ele>
        <time>2011-12-04T08:59:23Z</time>
      </trkpt>
      <trkpt lat="43.89497" lon="7.27195">
        <ele>889.440063</ele>
        <time>2011-12-04T08:59:30Z</time>
      </trkpt>
      <trkpt lat="43.89493" lon="7.27182">
        <ele>887.440033</ele>
        <time>2011-12-04T08:59:34Z</time>
      </trkpt>
      <trkpt lat="43.89484" lon="7.27177">
        <ele>882.44001</ele>
        <time>2011-12-04T08:59:41Z</time>
      </trkpt>
      <trkpt lat="43.89481" lon="7.27176">
        <ele>878.440006</ele>
        <time>2011-12-04T08:59:46Z</time>
      </trkpt>
      <trkpt lat="43.89481" lon="7.27152">
        <ele>868.439953</ele>
        <time>2011-12-04T08:59:59Z</time>
      </trkpt>
      <trkpt lat="43.89487" lon="7.27141">
        <ele>865.439938</ele>
        <time>2011-12-04T09:00:06Z</time>
      </trkpt>
      <trkpt lat="43.89486" lon="7.27128">
        <ele>865.439911</ele>
        <time>2011-12-04T09:00:09Z</time>
      </trkpt>
      <trkpt lat="43.89486" lon="7.27123">
        <ele>865.439903</ele>
        <time>2011-12-04T09:00:10Z</time>
      </trkpt>
      <trkpt lat="43.89482" lon="7.2711">
        <ele>866.439865</ele>
        <time>2011-12-04T09:00:14Z</time>
      </trkpt>
      <trkpt lat="43.89474" lon="7.27103">
        <ele>868.439842</ele>
        <time>2011-12-04T09:00:17Z</time>
      </trkpt>
      <trkpt lat="43.89464" lon="7.27101">
        <ele>868.439827</ele>
        <time>2011-12-04T09:00:21Z</time>
      </trkpt>
      <trkpt lat="43.89464" lon="7.27101">
        <ele>868.439827</ele>
        <time>2011-12-04T09:00:26Z</time>
      </trkpt>
      <trkpt lat="43.89461" lon="7.27086">
        <ele>865.439793</ele>
        <time>2011-12-04T09:00:28Z</time>
      </trkpt>
      <trkpt lat="43.89459" lon="7.27067">
        <ele>864.439747</ele>
        <time>2011-12-04T09:00:34Z</time>
      </trkpt>
      <trkpt lat="43.89458" lon="7.27052">
        <ele>862.43972</ele>
        <time>2011-12-04T09:00:38Z</time>
      </trkpt>
      <trkpt lat="43.89457" lon="7.27036">
        <ele>860.439682</ele>
        <time>2011-12-04T09:00:42Z</time>
      </trkpt>
      <trkpt lat="43.8946" lon="7.26996">
        <ele>853.439602</ele>
        <time>2011-12-04T09:01:00Z</time>
      </trkpt>
      <trkpt lat="43.8945" lon="7.26994">
        <ele>852.439587</ele>
        <time>2011-12-04T09:01:06Z</time>
      </trkpt>
      <trkpt lat="43.89449" lon="7.26995">
        <ele>852.439587</ele>
        <time>2011-12-04T09:01:07Z</time>
      </trkpt>
      <trkpt lat="43.89454" lon="7.27005">
        <ele>820.439617</ele>
        <time>2011-12-04T09:04:50Z</time>
      </trkpt>
      <trkpt lat="43.89455" lon="7.27008">
        <ele>819.439621</ele>
        <time>2011-12-04T09:05:03Z</time>
      </trkpt>
      <trkpt lat="43.89454" lon="7.27023">
        <ele>813.439651</ele>
        <time>2011-12-04T09:05:29Z</time>
      </trkpt>
      <trkpt lat="43.89452" lon="7.27031">
        <ele>812.439667</ele>
        <time>2011-12-04T09:05:34Z</time>
      </trkpt>
      <trkpt lat="43.8945" lon="7.27045">
        <ele>811.43969</ele>
        <time>2011-12-04T09:05:39Z</time>
      </trkpt>
      <trkpt lat="43.89449" lon="7.27056">
        <ele>811.439713</ele>
        <time>2011-12-04T09:05:43Z</time>
      </trkpt>
      <trkpt lat="43.89448" lon="7.27078">
        <ele>809.439754</ele>
        <time>2011-12-04T09:05:54Z</time>
      </trkpt>
      <trkpt lat="43.89447" lon="7.27083">
        <ele>809.439766</ele>
        <time>2011-12-04T09:05:56Z</time>
      </trkpt>
      <trkpt lat="43.89444" lon="7.27095">
        <ele>811.439785</ele>
        <time>2011-12-04T09:06:01Z</time>
      </trkpt>
      <trkpt lat="43.89438" lon="7.27105">
        <ele>811.439796</ele>
        <time>2011-12-04T09:06:07Z</time>
      </trkpt>
      <trkpt lat="43.8943" lon="7.27112">
        <ele>812.4398</ele>
        <time>2011-12-04T09:06:14Z</time>
      </trkpt>
      <trkpt lat="43.89429" lon="7.27113">
        <ele>813.4398</ele>
        <time>2011-12-04T09:06:15Z</time>
      </trkpt>
      <trkpt lat="43.89421" lon="7.27121">
        <ele>814.439808</ele>
        <time>2011-12-04T09:06:26Z</time>
      </trkpt>
      <trkpt lat="43.89416" lon="7.27137">
        <ele>814.439835</ele>
        <time>2011-12-04T09:06:34Z</time>
      </trkpt>
      <trkpt lat="43.89414" lon="7.2715">
        <ele>814.439857</ele>
        <time>2011-12-04T09:06:39Z</time>
      </trkpt>
      <trkpt lat="43.89414" lon="7.2715">
        <ele>814.439857</ele>
        <time>2011-12-04T09:06:41Z</time>
      </trkpt>
      <trkpt lat="43.89417" lon="7.27163">
        <ele>813.439888</ele>
        <time>2011-12-04T09:06:48Z</time>
      </trkpt>
      <trkpt lat="43.8942" lon="7.27175">
        <ele>814.439919</ele>
        <time>2011-12-04T09:06:53Z</time>
      </trkpt>
      <trkpt lat="43.89421" lon="7.2719">
        <ele>814.439949</ele>
        <time>2011-12-04T09:06:59Z</time>
      </trkpt>
      <trkpt lat="43.89419" lon="7.27204">
        <ele>815.43998</ele>
        <time>2011-12-04T09:07:04Z</time>
      </trkpt>
      <trkpt lat="43.89415" lon="7.27218">
        <ele>814.440002</ele>
        <time>2011-12-04T09:07:09Z</time>
      </trkpt>
      <trkpt lat="43.89409" lon="7.27229">
        <ele>814.440018</ele>
        <time>2011-12-04T09:07:14Z</time>
      </trkpt>
      <trkpt lat="43.89401" lon="7.27238">
        <ele>814.440022</ele>
        <time>2011-12-04T09:07:19Z</time>
      </trkpt>
      <trkpt lat="43.89395" lon="7.27247">
        <ele>814.440033</ele>
        <time>2011-12-04T09:07:24Z</time>
      </trkpt>
      <trkpt lat="43.89394" lon="7.2726">
        <ele>815.440056</ele>
        <time>2011-12-04T09:07:29Z</time>
      </trkpt>
      <trkpt lat="43.89399" lon="7.27276">
        <ele>813.440094</ele>
        <time>2011-12-04T09:07:35Z</time>
      </trkpt>
      <trkpt lat="43.89405" lon="7.27289">
        <ele>810.440132</ele>
        <time>2011-12-04T09:07:39Z</time>
      </trkpt>
      <trkpt lat="43.89411" lon="7.27302">
        <ele>807.440166</ele>
        <time>2011-12-04T09:07:44Z</time>
      </trkpt>
      <trkpt lat="43.89419" lon="7.27326">
        <ele>804.440224</ele>
        <time>2011-12-04T09:07:53Z</time>
      </trkpt>
      <trkpt lat="43.89421" lon="7.2734">
        <ele>803.440258</ele>
        <time>2011-12-04T09:07:58Z</time>
      </trkpt>
      <trkpt lat="43.89425" lon="7.27354">
        <ele>802.440292</ele>
        <time>2011-12-04T09:08:03Z</time>
      </trkpt>
      <trkpt lat="43.89429" lon="7.2738">
        <ele>799.440346</ele>
        <time>2011-12-04T09:08:18Z</time>
      </trkpt>
      <trkpt lat="43.89431" lon="7.27393">
        <ele>801.44038</ele>
        <time>2011-12-04T09:08:22Z</time>
      </trkpt>
      <trkpt lat="43.89436" lon="7.27412">
        <ele>804.44043</ele>
        <time>2011-12-04T09:08:29Z</time>
      </trkpt>
      <trkpt lat="43.89443" lon="7.27428">
        <ele>806.440468</ele>
        <time>2011-12-04T09:08:35Z</time>
      </trkpt>
      <trkpt lat="43.89445" lon="7.27433">
        <ele>806.440479</ele>
        <time>2011-12-04T09:08:37Z</time>
      </trkpt>
      <trkpt lat="43.89448" lon="7.27445">
        <ele>807.44051</ele>
        <time>2011-12-04T09:08:42Z</time>
      </trkpt>
      <trkpt lat="43.89448" lon="7.27462">
        <ele>807.440544</ele>
        <time>2011-12-04T09:08:50Z</time>
      </trkpt>
      <trkpt lat="43.89443" lon="7.27475">
        <ele>808.440563</ele>
        <time>2011-12-04T09:08:57Z</time>
      </trkpt>
      <trkpt lat="43.89442" lon="7.27477">
        <ele>808.440567</ele>
        <time>2011-12-04T09:08:58Z</time>
      </trkpt>
      <trkpt lat="43.89437" lon="7.27489">
        <ele>807.440586</ele>
        <time>2011-12-04T09:09:04Z</time>
      </trkpt>
      <trkpt lat="43.89435" lon="7.27502">
        <ele>805.440613</ele>
        <time>2011-12-04T09:09:11Z</time>
      </trkpt>
      <trkpt lat="43.89436" lon="7.27519">
        <ele>805.440647</ele>
        <time>2011-12-04T09:09:21Z</time>
      </trkpt>
      <trkpt lat="43.89436" lon="7.27532">
        <ele>810.440674</ele>
        <time>2011-12-04T09:09:29Z</time>
      </trkpt>
      <trkpt lat="43.89429" lon="7.27542">
        <ele>814.440681</ele>
        <time>2011-12-04T09:09:38Z</time>
      </trkpt>
      <trkpt lat="43.8942" lon="7.27544">
        <ele>814.440674</ele>
        <time>2011-12-04T09:09:46Z</time>
      </trkpt>
      <trkpt lat="43.8941" lon="7.27546">
        <ele>815.440666</ele>
        <time>2011-12-04T09:09:54Z</time>
      </trkpt>
      <trkpt lat="43.89401" lon="7.27549">
        <ele>816.440659</ele>
        <time>2011-12-04T09:10:02Z</time>
      </trkpt>
      <trkpt lat="43.89394" lon="7.27558">
        <ele>818.440666</ele>
        <time>2011-12-04T09:10:11Z</time>
      </trkpt>
      <trkpt lat="43.89394" lon="7.27559">
        <ele>818.440674</ele>
        <time>2011-12-04T09:10:12Z</time>
      </trkpt>
      <trkpt lat="43.89397" lon="7.27572">
        <ele>818.440701</ele>
        <time>2011-12-04T09:10:21Z</time>
      </trkpt>
      <trkpt lat="43.89409" lon="7.27583">
        <ele>819.440739</ele>
        <time>2011-12-04T09:10:33Z</time>
      </trkpt>
      <trkpt lat="43.89417" lon="7.2759">
        <ele>820.440765</ele>
        <time>2011-12-04T09:10:41Z</time>
      </trkpt>
      <trkpt lat="43.89425" lon="7.27601">
        <ele>820.440796</ele>
        <time>2011-12-04T09:10:53Z</time>
      </trkpt>
      <trkpt lat="43.89432" lon="7.27613">
        <ele>819.440834</ele>
        <time>2011-12-04T09:11:03Z</time>
      </trkpt>
      <trkpt lat="43.89438" lon="7.27623">
        <ele>820.440861</ele>
        <time>2011-12-04T09:11:11Z</time>
      </trkpt>
      <trkpt lat="43.89442" lon="7.27635">
        <ele>824.440895</ele>
        <time>2011-12-04T09:11:20Z</time>
      </trkpt>
      <trkpt lat="43.89445" lon="7.27649">
        <ele>825.440922</ele>
        <time>2011-12-04T09:11:29Z</time>
      </trkpt>
      <trkpt lat="43.89447" lon="7.27662">
        <ele>827.440956</ele>
        <time>2011-12-04T09:11:37Z</time>
      </trkpt>
      <trkpt lat="43.89449" lon="7.27675">
        <ele>828.440979</ele>
        <time>2011-12-04T09:11:43Z</time>
      </trkpt>
      <trkpt lat="43.89448" lon="7.27697">
        <ele>830.441029</ele>
        <time>2011-12-04T09:11:52Z</time>
      </trkpt>
      <trkpt lat="43.89445" lon="7.27711">
        <ele>834.441048</ele>
        <time>2011-12-04T09:11:58Z</time>
      </trkpt>
      <trkpt lat="43.8944" lon="7.27722">
        <ele>834.441067</ele>
        <time>2011-12-04T09:12:04Z</time>
      </trkpt>
      <trkpt lat="43.89433" lon="7.27732">
        <ele>833.441078</ele>
        <time>2011-12-04T09:12:11Z</time>
      </trkpt>
      <trkpt lat="43.89426" lon="7.2774">
        <ele>834.441086</ele>
        <time>2011-12-04T09:12:18Z</time>
      </trkpt>
      <trkpt lat="43.89418" lon="7.27748">
        <ele>836.441093</ele>
        <time>2011-12-04T09:12:25Z</time>
      </trkpt>
      <trkpt lat="43.8941" lon="7.2776">
        <ele>840.441109</ele>
        <time>2011-12-04T09:12:33Z</time>
      </trkpt>
      <trkpt lat="43.89414" lon="7.27773">
        <ele>841.441139</ele>
        <time>2011-12-04T09:12:39Z</time>
      </trkpt>
      <trkpt lat="43.89416" lon="7.27776">
        <ele>841.441147</ele>
        <time>2011-12-04T09:12:40Z</time>
      </trkpt>
      <trkpt lat="43.89426" lon="7.27784">
        <ele>839.441177</ele>
        <time>2011-12-04T09:12:44Z</time>
      </trkpt>
      <trkpt lat="43.89436" lon="7.27791">
        <ele>838.441204</ele>
        <time>2011-12-04T09:12:47Z</time>
      </trkpt>
      <trkpt lat="43.89446" lon="7.278">
        <ele>838.441238</ele>
        <time>2011-12-04T09:12:50Z</time>
      </trkpt>
      <trkpt lat="43.89452" lon="7.27813">
        <ele>838.441269</ele>
        <time>2011-12-04T09:12:54Z</time>
      </trkpt>
      <trkpt lat="43.89454" lon="7.27826">
        <ele>838.441303</ele>
        <time>2011-12-04T09:12:58Z</time>
      </trkpt>
      <trkpt lat="43.89449" lon="7.27839">
        <ele>839.441322</ele>
        <time>2011-12-04T09:13:02Z</time>
      </trkpt>
      <trkpt lat="43.89442" lon="7.2785">
        <ele>840.441338</ele>
        <time>2011-12-04T09:13:06Z</time>
      </trkpt>
      <trkpt lat="43.89434" lon="7.27861">
        <ele>840.441345</ele>
        <time>2011-12-04T09:13:10Z</time>
      </trkpt>
      <trkpt lat="43.89431" lon="7.27866">
        <ele>841.441353</ele>
        <time>2011-12-04T09:13:12Z</time>
      </trkpt>
      <trkpt lat="43.89426" lon="7.27879">
        <ele>841.441368</ele>
        <time>2011-12-04T09:13:16Z</time>
      </trkpt>
      <trkpt lat="43.89427" lon="7.27892">
        <ele>841.441399</ele>
        <time>2011-12-04T09:13:20Z</time>
      </trkpt>
      <trkpt lat="43.89431" lon="7.27905">
        <ele>843.441429</ele>
        <time>2011-12-04T09:13:24Z</time>
      </trkpt>
      <trkpt lat="43.89434" lon="7.27921">
        <ele>845.441467</ele>
        <time>2011-12-04T09:13:28Z</time>
      </trkpt>
      <trkpt lat="43.89435" lon="7.27937">
        <ele>846.441505</ele>
        <time>2011-12-04T09:13:32Z</time>
      </trkpt>
      <trkpt lat="43.89432" lon="7.27953">
        <ele>846.441528</ele>
        <time>2011-12-04T09:13:36Z</time>
      </trkpt>
      <trkpt lat="43.89429" lon="7.27969">
        <ele>847.441559</ele>
        <time>2011-12-04T09:13:40Z</time>
      </trkpt>
      <trkpt lat="43.89426" lon="7.27982">
        <ele>848.441582</ele>
        <time>2011-12-04T09:13:43Z</time>
      </trkpt>
      <trkpt lat="43.89424" lon="7.27995">
        <ele>849.441605</ele>
        <time>2011-12-04T09:13:46Z</time>
      </trkpt>
      <trkpt lat="43.89421" lon="7.28008">
        <ele>850.441628</ele>
        <time>2011-12-04T09:13:49Z</time>
      </trkpt>
      <trkpt lat="43.8942" lon="7.28012">
        <ele>850.441635</ele>
        <time>2011-12-04T09:13:50Z</time>
      </trkpt>
      <trkpt lat="43.89417" lon="7.28024">
        <ele>851.44165</ele>
        <time>2011-12-04T09:13:53Z</time>
      </trkpt>
      <trkpt lat="43.89414" lon="7.28037">
        <ele>851.441681</ele>
        <time>2011-12-04T09:13:56Z</time>
      </trkpt>
      <trkpt lat="43.8941" lon="7.28049">
        <ele>851.441696</ele>
        <time>2011-12-04T09:13:59Z</time>
      </trkpt>
      <trkpt lat="43.89406" lon="7.28061">
        <ele>851.441719</ele>
        <time>2011-12-04T09:14:02Z</time>
      </trkpt>
      <trkpt lat="43.89403" lon="7.28073">
        <ele>851.441734</ele>
        <time>2011-12-04T09:14:05Z</time>
      </trkpt>
      <trkpt lat="43.89399" lon="7.28087">
        <ele>852.441757</ele>
        <time>2011-12-04T09:14:09Z</time>
      </trkpt>
      <trkpt lat="43.89397" lon="7.28101">
        <ele>852.441788</ele>
        <time>2011-12-04T09:14:13Z</time>
      </trkpt>
      <trkpt lat="43.89397" lon="7.28104">
        <ele>852.441792</ele>
        <time>2011-12-04T09:14:14Z</time>
      </trkpt>
      <trkpt lat="43.89398" lon="7.28118">
        <ele>851.441818</ele>
        <time>2011-12-04T09:14:18Z</time>
      </trkpt>
      <trkpt lat="43.894" lon="7.2813">
        <ele>851.441849</ele>
        <time>2011-12-04T09:14:22Z</time>
      </trkpt>
      <trkpt lat="43.894" lon="7.28143">
        <ele>851.441879</ele>
        <time>2011-12-04T09:14:26Z</time>
      </trkpt>
      <trkpt lat="43.89399" lon="7.28146">
        <ele>852.441883</ele>
        <time>2011-12-04T09:14:27Z</time>
      </trkpt>
      <trkpt lat="43.89393" lon="7.28159">
        <ele>853.441902</ele>
        <time>2011-12-04T09:14:31Z</time>
      </trkpt>
      <trkpt lat="43.89388" lon="7.2817">
        <ele>854.441917</ele>
        <time>2011-12-04T09:14:35Z</time>
      </trkpt>
      <trkpt lat="43.89384" lon="7.28182">
        <ele>855.441936</ele>
        <time>2011-12-04T09:14:39Z</time>
      </trkpt>
      <trkpt lat="43.89382" lon="7.28197">
        <ele>855.441963</ele>
        <time>2011-12-04T09:14:44Z</time>
      </trkpt>
      <trkpt lat="43.89382" lon="7.2821">
        <ele>855.441994</ele>
        <time>2011-12-04T09:14:48Z</time>
      </trkpt>
      <trkpt lat="43.89381" lon="7.28221">
        <ele>855.442009</ele>
        <time>2011-12-04T09:14:51Z</time>
      </trkpt>
      <trkpt lat="43.89377" lon="7.28237">
        <ele>855.442039</ele>
        <time>2011-12-04T09:14:55Z</time>
      </trkpt>
      <trkpt lat="43.89375" lon="7.28242">
        <ele>855.442047</ele>
        <time>2011-12-04T09:14:56Z</time>
      </trkpt>
      <trkpt lat="43.8937" lon="7.28259">
        <ele>855.44207</ele>
        <time>2011-12-04T09:14:59Z</time>
      </trkpt>
      <trkpt lat="43.89367" lon="7.2827">
        <ele>855.442093</ele>
        <time>2011-12-04T09:15:01Z</time>
      </trkpt>
      <trkpt lat="43.89363" lon="7.28282">
        <ele>856.442108</ele>
        <time>2011-12-04T09:15:03Z</time>
      </trkpt>
      <trkpt lat="43.89358" lon="7.28296">
        <ele>857.442135</ele>
        <time>2011-12-04T09:15:06Z</time>
      </trkpt>
      <trkpt lat="43.89354" lon="7.28309">
        <ele>858.442154</ele>
        <time>2011-12-04T09:15:09Z</time>
      </trkpt>
      <trkpt lat="43.89348" lon="7.2832">
        <ele>862.442173</ele>
        <time>2011-12-04T09:15:13Z</time>
      </trkpt>
      <trkpt lat="43.8934" lon="7.28326">
        <ele>863.442169</ele>
        <time>2011-12-04T09:15:18Z</time>
      </trkpt>
      <trkpt lat="43.89331" lon="7.28326">
        <ele>865.442158</ele>
        <time>2011-12-04T09:15:25Z</time>
      </trkpt>
      <trkpt lat="43.89321" lon="7.28333">
        <ele>866.442162</ele>
        <time>2011-12-04T09:15:33Z</time>
      </trkpt>
      <trkpt lat="43.89315" lon="7.28344">
        <ele>866.442177</ele>
        <time>2011-12-04T09:15:39Z</time>
      </trkpt>
      <trkpt lat="43.89308" lon="7.28352">
        <ele>868.442181</ele>
        <time>2011-12-04T09:15:45Z</time>
      </trkpt>
      <trkpt lat="43.89298" lon="7.28355">
        <ele>868.442177</ele>
        <time>2011-12-04T09:15:52Z</time>
      </trkpt>
      <trkpt lat="43.89276" lon="7.28346">
        <ele>870.442123</ele>
        <time>2011-12-04T09:16:07Z</time>
      </trkpt>
      <trkpt lat="43.89267" lon="7.28342">
        <ele>871.442104</ele>
        <time>2011-12-04T09:16:13Z</time>
      </trkpt>
      <trkpt lat="43.89258" lon="7.28344">
        <ele>874.442097</ele>
        <time>2011-12-04T09:16:20Z</time>
      </trkpt>
      <trkpt lat="43.89249" lon="7.28348">
        <ele>875.442093</ele>
        <time>2011-12-04T09:16:27Z</time>
      </trkpt>
      <trkpt lat="43.8924" lon="7.28355">
        <ele>876.442101</ele>
        <time>2011-12-04T09:16:35Z</time>
      </trkpt>
      <trkpt lat="43.89232" lon="7.28362">
        <ele>877.442097</ele>
        <time>2011-12-04T09:16:41Z</time>
      </trkpt>
      <trkpt lat="43.89223" lon="7.2837">
        <ele>877.442101</ele>
        <time>2011-12-04T09:16:47Z</time>
      </trkpt>
      <trkpt lat="43.89213" lon="7.28377">
        <ele>878.442104</ele>
        <time>2011-12-04T09:16:53Z</time>
      </trkpt>
      <trkpt lat="43.89205" lon="7.28384">
        <ele>879.442108</ele>
        <time>2011-12-04T09:16:58Z</time>
      </trkpt>
      <trkpt lat="43.89197" lon="7.28392">
        <ele>880.442116</ele>
        <time>2011-12-04T09:17:03Z</time>
      </trkpt>
      <trkpt lat="43.8919" lon="7.28402">
        <ele>880.442123</ele>
        <time>2011-12-04T09:17:08Z</time>
      </trkpt>
      <trkpt lat="43.89182" lon="7.28414">
        <ele>881.442139</ele>
        <time>2011-12-04T09:17:13Z</time>
      </trkpt>
      <trkpt lat="43.89177" lon="7.28424">
        <ele>881.442154</ele>
        <time>2011-12-04T09:17:17Z</time>
      </trkpt>
      <trkpt lat="43.89169" lon="7.28434">
        <ele>882.442162</ele>
        <time>2011-12-04T09:17:22Z</time>
      </trkpt>
      <trkpt lat="43.89159" lon="7.28437">
        <ele>884.442154</ele>
        <time>2011-12-04T09:17:27Z</time>
      </trkpt>
      <trkpt lat="43.89149" lon="7.2844">
        <ele>886.442146</ele>
        <time>2011-12-04T09:17:32Z</time>
      </trkpt>
      <trkpt lat="43.89139" lon="7.28443">
        <ele>887.442139</ele>
        <time>2011-12-04T09:17:37Z</time>
      </trkpt>
      <trkpt lat="43.8913" lon="7.28446">
        <ele>888.442135</ele>
        <time>2011-12-04T09:17:42Z</time>
      </trkpt>
      <trkpt lat="43.89121" lon="7.28452">
        <ele>890.442131</ele>
        <time>2011-12-04T09:17:47Z</time>
      </trkpt>
      <trkpt lat="43.89113" lon="7.28459">
        <ele>891.442135</ele>
        <time>2011-12-04T09:17:52Z</time>
      </trkpt>
      <trkpt lat="43.89103" lon="7.28468">
        <ele>891.442142</ele>
        <time>2011-12-04T09:17:58Z</time>
      </trkpt>
      <trkpt lat="43.89094" lon="7.28473">
        <ele>893.442139</ele>
        <time>2011-12-04T09:18:03Z</time>
      </trkpt>
      <trkpt lat="43.89083" lon="7.28475">
        <ele>895.442127</ele>
        <time>2011-12-04T09:18:08Z</time>
      </trkpt>
      <trkpt lat="43.89074" lon="7.28478">
        <ele>896.442123</ele>
        <time>2011-12-04T09:18:12Z</time>
      </trkpt>
      <trkpt lat="43.89057" lon="7.28479">
        <ele>896.442101</ele>
        <time>2011-12-04T09:18:22Z</time>
      </trkpt>
      <trkpt lat="43.89046" lon="7.28463">
        <ele>901.442055</ele>
        <time>2011-12-04T09:18:37Z</time>
      </trkpt>
      <trkpt lat="43.89037" lon="7.2845">
        <ele>905.442017</ele>
        <time>2011-12-04T09:18:50Z</time>
      </trkpt>
      <trkpt lat="43.89032" lon="7.28464">
        <ele>908.442039</ele>
        <time>2011-12-04T09:19:13Z</time>
      </trkpt>
      <trkpt lat="43.89031" lon="7.28478">
        <ele>911.442062</ele>
        <time>2011-12-04T09:19:27Z</time>
      </trkpt>
      <trkpt lat="43.89031" lon="7.28494">
        <ele>914.442097</ele>
        <time>2011-12-04T09:19:37Z</time>
      </trkpt>
      <trkpt lat="43.89038" lon="7.28504">
        <ele>915.442123</ele>
        <time>2011-12-04T09:19:49Z</time>
      </trkpt>
      <trkpt lat="43.89046" lon="7.28511">
        <ele>917.442154</ele>
        <time>2011-12-04T09:19:58Z</time>
      </trkpt>
      <trkpt lat="43.89049" lon="7.28514">
        <ele>918.442162</ele>
        <time>2011-12-04T09:20:01Z</time>
      </trkpt>
      <trkpt lat="43.89058" lon="7.28519">
        <ele>920.442184</ele>
        <time>2011-12-04T09:20:09Z</time>
      </trkpt>
      <trkpt lat="43.89054" lon="7.28531">
        <ele>935.442207</ele>
        <time>2011-12-04T09:20:30Z</time>
      </trkpt>
      <trkpt lat="43.89045" lon="7.28534">
        <ele>936.4422</ele>
        <time>2011-12-04T09:20:39Z</time>
      </trkpt>
      <trkpt lat="43.89035" lon="7.28537">
        <ele>935.442192</ele>
        <time>2011-12-04T09:20:48Z</time>
      </trkpt>
      <trkpt lat="43.89026" lon="7.2854">
        <ele>933.442188</ele>
        <time>2011-12-04T09:20:58Z</time>
      </trkpt>
      <trkpt lat="43.89017" lon="7.2854">
        <ele>934.442169</ele>
        <time>2011-12-04T09:21:07Z</time>
      </trkpt>
      <trkpt lat="43.89007" lon="7.2854">
        <ele>934.442158</ele>
        <time>2011-12-04T09:21:16Z</time>
      </trkpt>
      <trkpt lat="43.88997" lon="7.28539">
        <ele>937.442142</ele>
        <time>2011-12-04T09:21:25Z</time>
      </trkpt>
      <trkpt lat="43.88988" lon="7.28537">
        <ele>939.442123</ele>
        <time>2011-12-04T09:21:33Z</time>
      </trkpt>
      <trkpt lat="43.88978" lon="7.28534">
        <ele>939.442108</ele>
        <time>2011-12-04T09:21:42Z</time>
      </trkpt>
      <trkpt lat="43.88973" lon="7.28526">
        <ele>935.442085</ele>
        <time>2011-12-04T09:21:54Z</time>
      </trkpt>
      <trkpt lat="43.8898" lon="7.28515">
        <ele>940.44207</ele>
        <time>2011-12-04T09:22:14Z</time>
      </trkpt>
      <trkpt lat="43.88974" lon="7.28499">
        <ele>942.442028</ele>
        <time>2011-12-04T09:22:25Z</time>
      </trkpt>
      <trkpt lat="43.88965" lon="7.28494">
        <ele>942.442009</ele>
        <time>2011-12-04T09:22:32Z</time>
      </trkpt>
      <trkpt lat="43.88955" lon="7.28495">
        <ele>943.441994</ele>
        <time>2011-12-04T09:22:38Z</time>
      </trkpt>
      <trkpt lat="43.88942" lon="7.28496">
        <ele>946.441982</ele>
        <time>2011-12-04T09:22:48Z</time>
      </trkpt>
      <trkpt lat="43.88933" lon="7.28497">
        <ele>946.441971</ele>
        <time>2011-12-04T09:22:56Z</time>
      </trkpt>
      <trkpt lat="43.88919" lon="7.28509">
        <ele>947.441978</ele>
        <time>2011-12-04T09:23:08Z</time>
      </trkpt>
      <trkpt lat="43.88919" lon="7.28526">
        <ele>947.442009</ele>
        <time>2011-12-04T09:23:16Z</time>
      </trkpt>
      <trkpt lat="43.88924" lon="7.28537">
        <ele>948.442039</ele>
        <time>2011-12-04T09:23:21Z</time>
      </trkpt>
      <trkpt lat="43.88928" lon="7.28549">
        <ele>949.44207</ele>
        <time>2011-12-04T09:23:28Z</time>
      </trkpt>
      <trkpt lat="43.88937" lon="7.28574">
        <ele>952.442139</ele>
        <time>2011-12-04T09:23:45Z</time>
      </trkpt>
      <trkpt lat="43.88945" lon="7.28593">
        <ele>954.442184</ele>
        <time>2011-12-04T09:23:56Z</time>
      </trkpt>
      <trkpt lat="43.88953" lon="7.28606">
        <ele>957.442223</ele>
        <time>2011-12-04T09:24:04Z</time>
      </trkpt>
      <trkpt lat="43.88955" lon="7.28609">
        <ele>958.442234</ele>
        <time>2011-12-04T09:24:07Z</time>
      </trkpt>
      <trkpt lat="43.88963" lon="7.28618">
        <ele>961.442253</ele>
        <time>2011-12-04T09:24:17Z</time>
      </trkpt>
      <trkpt lat="43.88972" lon="7.28623">
        <ele>962.442284</ele>
        <time>2011-12-04T09:24:24Z</time>
      </trkpt>
      <trkpt lat="43.88977" lon="7.28626">
        <ele>961.442295</ele>
        <time>2011-12-04T09:24:27Z</time>
      </trkpt>
      <trkpt lat="43.88982" lon="7.28636">
        <ele>967.442322</ele>
        <time>2011-12-04T09:24:36Z</time>
      </trkpt>
      <trkpt lat="43.88974" lon="7.28642">
        <ele>973.442322</ele>
        <time>2011-12-04T09:24:51Z</time>
      </trkpt>
      <trkpt lat="43.8896" lon="7.28633">
        <ele>970.442287</ele>
        <time>2011-12-04T09:25:06Z</time>
      </trkpt>
      <trkpt lat="43.88953" lon="7.28623">
        <ele>973.442253</ele>
        <time>2011-12-04T09:25:15Z</time>
      </trkpt>
      <trkpt lat="43.88947" lon="7.28614">
        <ele>975.44223</ele>
        <time>2011-12-04T09:25:24Z</time>
      </trkpt>
      <trkpt lat="43.88942" lon="7.28624">
        <ele>975.442245</ele>
        <time>2011-12-04T09:25:44Z</time>
      </trkpt>
      <trkpt lat="43.88961" lon="7.28666">
        <ele>980.442356</ele>
        <time>2011-12-04T09:26:13Z</time>
      </trkpt>
      <trkpt lat="43.88968" lon="7.28675">
        <ele>981.442383</ele>
        <time>2011-12-04T09:26:19Z</time>
      </trkpt>
      <trkpt lat="43.88971" lon="7.28676">
        <ele>982.44239</ele>
        <time>2011-12-04T09:26:21Z</time>
      </trkpt>
      <trkpt lat="43.88985" lon="7.28682">
        <ele>983.442421</ele>
        <time>2011-12-04T09:26:30Z</time>
      </trkpt>
      <trkpt lat="43.88994" lon="7.28683">
        <ele>984.442436</ele>
        <time>2011-12-04T09:26:37Z</time>
      </trkpt>
      <trkpt lat="43.88996" lon="7.28681">
        <ele>983.442436</ele>
        <time>2011-12-04T09:26:43Z</time>
      </trkpt>
      <trkpt lat="43.89006" lon="7.28685">
        <ele>965.442455</ele>
        <time>2011-12-04T09:27:47Z</time>
      </trkpt>
      <trkpt lat="43.89004" lon="7.28692">
        <ele>959.442467</ele>
        <time>2011-12-04T09:28:34Z</time>
      </trkpt>
      <trkpt lat="43.89001" lon="7.2868">
        <ele>972.44244</ele>
        <time>2011-12-04T09:30:24Z</time>
      </trkpt>
      <trkpt lat="43.89011" lon="7.28681">
        <ele>969.442451</ele>
        <time>2011-12-04T09:30:47Z</time>
      </trkpt>
      <trkpt lat="43.89016" lon="7.28677">
        <ele>970.442451</ele>
        <time>2011-12-04T09:31:10Z</time>
      </trkpt>
      <trkpt lat="43.89007" lon="7.28669">
        <ele>976.442429</ele>
        <time>2011-12-04T09:32:32Z</time>
      </trkpt>
      <trkpt lat="43.89007" lon="7.28669">
        <ele>976.442425</ele>
        <time>2011-12-04T09:32:33Z</time>
      </trkpt>
      <trkpt lat="43.88998" lon="7.28676">
        <ele>979.442429</ele>
        <time>2011-12-04T09:32:48Z</time>
      </trkpt>
      <trkpt lat="43.88997" lon="7.28676">
        <ele>979.442425</ele>
        <time>2011-12-04T09:32:50Z</time>
      </trkpt>
      <trkpt lat="43.88988" lon="7.28682">
        <ele>981.442429</ele>
        <time>2011-12-04T09:33:01Z</time>
      </trkpt>
      <trkpt lat="43.88977" lon="7.2869">
        <ele>980.442429</ele>
        <time>2011-12-04T09:33:12Z</time>
      </trkpt>
      <trkpt lat="43.88975" lon="7.2869">
        <ele>979.442421</ele>
        <time>2011-12-04T09:33:14Z</time>
      </trkpt>
      <trkpt lat="43.88964" lon="7.28685">
        <ele>980.442398</ele>
        <time>2011-12-04T09:33:25Z</time>
      </trkpt>
      <trkpt lat="43.88962" lon="7.28683">
        <ele>981.44239</ele>
        <time>2011-12-04T09:33:34Z</time>
      </trkpt>
      <trkpt lat="43.88953" lon="7.28675">
        <ele>984.442368</ele>
        <time>2011-12-04T09:33:36Z</time>
      </trkpt>
      <trkpt lat="43.88946" lon="7.28666">
        <ele>986.442337</ele>
        <time>2011-12-04T09:33:43Z</time>
      </trkpt>
      <trkpt lat="43.88938" lon="7.28657">
        <ele>988.442307</ele>
        <time>2011-12-04T09:33:50Z</time>
      </trkpt>
      <trkpt lat="43.88926" lon="7.28647">
        <ele>988.442272</ele>
        <time>2011-12-04T09:34:00Z</time>
      </trkpt>
      <trkpt lat="43.88915" lon="7.28638">
        <ele>990.442238</ele>
        <time>2011-12-04T09:34:11Z</time>
      </trkpt>
      <trkpt lat="43.88907" lon="7.28625">
        <ele>992.4422</ele>
        <time>2011-12-04T09:34:22Z</time>
      </trkpt>
      <trkpt lat="43.88901" lon="7.28602">
        <ele>996.442139</ele>
        <time>2011-12-04T09:34:37Z</time>
      </trkpt>
      <trkpt lat="43.88897" lon="7.2859">
        <ele>997.442116</ele>
        <time>2011-12-04T09:34:45Z</time>
      </trkpt>
      <trkpt lat="43.88892" lon="7.28578">
        <ele>1000.442081</ele>
        <time>2011-12-04T09:34:54Z</time>
      </trkpt>
      <trkpt lat="43.88885" lon="7.28567">
        <ele>1004.442051</ele>
        <time>2011-12-04T09:35:06Z</time>
      </trkpt>
      <trkpt lat="43.88883" lon="7.28564">
        <ele>1005.442039</ele>
        <time>2011-12-04T09:35:08Z</time>
      </trkpt>
      <trkpt lat="43.88875" lon="7.28558">
        <ele>1010.442017</ele>
        <time>2011-12-04T09:35:14Z</time>
      </trkpt>
      <trkpt lat="43.88867" lon="7.28551">
        <ele>1012.441994</ele>
        <time>2011-12-04T09:35:21Z</time>
      </trkpt>
      <trkpt lat="43.8886" lon="7.28542">
        <ele>1012.441963</ele>
        <time>2011-12-04T09:35:28Z</time>
      </trkpt>
      <trkpt lat="43.88857" lon="7.28536">
        <ele>1013.441948</ele>
        <time>2011-12-04T09:35:31Z</time>
      </trkpt>
      <trkpt lat="43.8885" lon="7.28524">
        <ele>1015.44191</ele>
        <time>2011-12-04T09:35:37Z</time>
      </trkpt>
      <trkpt lat="43.88849" lon="7.28523">
        <ele>1016.44191</ele>
        <time>2011-12-04T09:35:38Z</time>
      </trkpt>
      <trkpt lat="43.88844" lon="7.28511">
        <ele>1016.441879</ele>
        <time>2011-12-04T09:35:45Z</time>
      </trkpt>
      <trkpt lat="43.88843" lon="7.2851">
        <ele>1016.441875</ele>
        <time>2011-12-04T09:35:46Z</time>
      </trkpt>
      <trkpt lat="43.88838" lon="7.28499">
        <ele>1017.441841</ele>
        <time>2011-12-04T09:35:53Z</time>
      </trkpt>
      <trkpt lat="43.88834" lon="7.28488">
        <ele>1017.441814</ele>
        <time>2011-12-04T09:35:59Z</time>
      </trkpt>
      <trkpt lat="43.88827" lon="7.28476">
        <ele>1020.44178</ele>
        <time>2011-12-04T09:36:07Z</time>
      </trkpt>
      <trkpt lat="43.8882" lon="7.28469">
        <ele>1023.441761</ele>
        <time>2011-12-04T09:36:12Z</time>
      </trkpt>
      <trkpt lat="43.88818" lon="7.28468">
        <ele>1023.441757</ele>
        <time>2011-12-04T09:36:13Z</time>
      </trkpt>
      <trkpt lat="43.88808" lon="7.28465">
        <ele>1025.441734</ele>
        <time>2011-12-04T09:36:17Z</time>
      </trkpt>
      <trkpt lat="43.88805" lon="7.28464">
        <ele>1026.44173</ele>
        <time>2011-12-04T09:36:18Z</time>
      </trkpt>
      <trkpt lat="43.88795" lon="7.28462">
        <ele>1026.441711</ele>
        <time>2011-12-04T09:36:22Z</time>
      </trkpt>
      <trkpt lat="43.88786" lon="7.2846">
        <ele>1026.441696</ele>
        <time>2011-12-04T09:36:28Z</time>
      </trkpt>
      <trkpt lat="43.88777" lon="7.28458">
        <ele>1021.441681</ele>
        <time>2011-12-04T09:36:59Z</time>
      </trkpt>
      <trkpt lat="43.88776" lon="7.28459">
        <ele>1019.441681</ele>
        <time>2011-12-04T09:37:02Z</time>
      </trkpt>
      <trkpt lat="43.88768" lon="7.28465">
        <ele>1007.441677</ele>
        <time>2011-12-04T09:37:55Z</time>
      </trkpt>
      <trkpt lat="43.88757" lon="7.2847">
        <ele>1007.441673</ele>
        <time>2011-12-04T09:37:58Z</time>
      </trkpt>
      <trkpt lat="43.88753" lon="7.28472">
        <ele>1007.441673</ele>
        <time>2011-12-04T09:37:59Z</time>
      </trkpt>
      <trkpt lat="43.88742" lon="7.28478">
        <ele>1007.441673</ele>
        <time>2011-12-04T09:38:02Z</time>
      </trkpt>
      <trkpt lat="43.88732" lon="7.28479">
        <ele>1007.441662</ele>
        <time>2011-12-04T09:38:05Z</time>
      </trkpt>
      <trkpt lat="43.88728" lon="7.28466">
        <ele>1008.441628</ele>
        <time>2011-12-04T09:38:12Z</time>
      </trkpt>
      <trkpt lat="43.88719" lon="7.28463">
        <ele>1008.441612</ele>
        <time>2011-12-04T09:38:17Z</time>
      </trkpt>
      <trkpt lat="43.8871" lon="7.28463">
        <ele>1008.441597</ele>
        <time>2011-12-04T09:38:20Z</time>
      </trkpt>
      <trkpt lat="43.887" lon="7.28464">
        <ele>1009.441586</ele>
        <time>2011-12-04T09:38:23Z</time>
      </trkpt>
      <trkpt lat="43.88692" lon="7.28474">
        <ele>1008.441597</ele>
        <time>2011-12-04T09:38:27Z</time>
      </trkpt>
      <trkpt lat="43.88691" lon="7.28488">
        <ele>1007.44162</ele>
        <time>2011-12-04T09:38:31Z</time>
      </trkpt>
      <trkpt lat="43.88692" lon="7.28501">
        <ele>1007.44165</ele>
        <time>2011-12-04T09:38:43Z</time>
      </trkpt>
      <trkpt lat="43.88686" lon="7.28489">
        <ele>997.441616</ele>
        <time>2011-12-04T09:39:29Z</time>
      </trkpt>
      <trkpt lat="43.88675" lon="7.28485">
        <ele>997.441593</ele>
        <time>2011-12-04T09:39:33Z</time>
      </trkpt>
      <trkpt lat="43.88666" lon="7.28482">
        <ele>994.441574</ele>
        <time>2011-12-04T09:39:37Z</time>
      </trkpt>
      <trkpt lat="43.88657" lon="7.28477">
        <ele>993.441559</ele>
        <time>2011-12-04T09:39:41Z</time>
      </trkpt>
      <trkpt lat="43.88655" lon="7.28477">
        <ele>993.441551</ele>
        <time>2011-12-04T09:39:42Z</time>
      </trkpt>
      <trkpt lat="43.88644" lon="7.28473">
        <ele>993.441532</ele>
        <time>2011-12-04T09:39:46Z</time>
      </trkpt>
      <trkpt lat="43.88635" lon="7.28474">
        <ele>993.441521</ele>
        <time>2011-12-04T09:39:49Z</time>
      </trkpt>
      <trkpt lat="43.88626" lon="7.28473">
        <ele>992.441505</ele>
        <time>2011-12-04T09:39:52Z</time>
      </trkpt>
      <trkpt lat="43.88616" lon="7.2847">
        <ele>992.441483</ele>
        <time>2011-12-04T09:39:55Z</time>
      </trkpt>
      <trkpt lat="43.88606" lon="7.28469">
        <ele>991.441467</ele>
        <time>2011-12-04T09:39:58Z</time>
      </trkpt>
      <trkpt lat="43.88602" lon="7.28469">
        <ele>990.441467</ele>
        <time>2011-12-04T09:39:59Z</time>
      </trkpt>
      <trkpt lat="43.88593" lon="7.28468">
        <ele>988.441448</ele>
        <time>2011-12-04T09:40:02Z</time>
      </trkpt>
      <trkpt lat="43.88583" lon="7.28464">
        <ele>986.441429</ele>
        <time>2011-12-04T09:40:05Z</time>
      </trkpt>
      <trkpt lat="43.88581" lon="7.28461">
        <ele>986.441418</ele>
        <time>2011-12-04T09:40:06Z</time>
      </trkpt>
      <trkpt lat="43.88573" lon="7.2845">
        <ele>987.441383</ele>
        <time>2011-12-04T09:40:10Z</time>
      </trkpt>
      <trkpt lat="43.88571" lon="7.28448">
        <ele>988.441376</ele>
        <time>2011-12-04T09:40:11Z</time>
      </trkpt>
      <trkpt lat="43.88564" lon="7.2844">
        <ele>988.441349</ele>
        <time>2011-12-04T09:40:14Z</time>
      </trkpt>
      <trkpt lat="43.88557" lon="7.28431">
        <ele>989.441322</ele>
        <time>2011-12-04T09:40:17Z</time>
      </trkpt>
      <trkpt lat="43.88546" lon="7.28423">
        <ele>990.441292</ele>
        <time>2011-12-04T09:40:20Z</time>
      </trkpt>
      <trkpt lat="43.88534" lon="7.28417">
        <ele>989.441261</ele>
        <time>2011-12-04T09:40:23Z</time>
      </trkpt>
      <trkpt lat="43.88523" lon="7.28412">
        <ele>989.441242</ele>
        <time>2011-12-04T09:40:26Z</time>
      </trkpt>
      <trkpt lat="43.88515" lon="7.28406">
        <ele>989.441216</ele>
        <time>2011-12-04T09:40:29Z</time>
      </trkpt>
      <trkpt lat="43.88506" lon="7.28399">
        <ele>989.441185</ele>
        <time>2011-12-04T09:40:32Z</time>
      </trkpt>
      <trkpt lat="43.88496" lon="7.28394">
        <ele>989.441162</ele>
        <time>2011-12-04T09:40:35Z</time>
      </trkpt>
      <trkpt lat="43.88486" lon="7.28388">
        <ele>987.441139</ele>
        <time>2011-12-04T09:40:39Z</time>
      </trkpt>
      <trkpt lat="43.88479" lon="7.28377">
        <ele>989.441109</ele>
        <time>2011-12-04T09:40:45Z</time>
      </trkpt>
      <trkpt lat="43.8847" lon="7.28367">
        <ele>989.441074</ele>
        <time>2011-12-04T09:40:49Z</time>
      </trkpt>
      <trkpt lat="43.88463" lon="7.28357">
        <ele>990.441044</ele>
        <time>2011-12-04T09:40:52Z</time>
      </trkpt>
      <trkpt lat="43.88454" lon="7.28345">
        <ele>991.441002</ele>
        <time>2011-12-04T09:40:55Z</time>
      </trkpt>
      <trkpt lat="43.88447" lon="7.28334">
        <ele>992.440979</ele>
        <time>2011-12-04T09:40:57Z</time>
      </trkpt>
      <trkpt lat="43.8844" lon="7.28326">
        <ele>993.440948</ele>
        <time>2011-12-04T09:40:59Z</time>
      </trkpt>
      <trkpt lat="43.88429" lon="7.2832">
        <ele>993.440918</ele>
        <time>2011-12-04T09:41:01Z</time>
      </trkpt>
      <trkpt lat="43.88416" lon="7.28315">
        <ele>991.440895</ele>
        <time>2011-12-04T09:41:03Z</time>
      </trkpt>
      <trkpt lat="43.88404" lon="7.28312">
        <ele>990.440872</ele>
        <time>2011-12-04T09:41:05Z</time>
      </trkpt>
      <trkpt lat="43.88392" lon="7.2831">
        <ele>988.440849</ele>
        <time>2011-12-04T09:41:07Z</time>
      </trkpt>
      <trkpt lat="43.88386" lon="7.28309">
        <ele>987.440842</ele>
        <time>2011-12-04T09:41:08Z</time>
      </trkpt>
      <trkpt lat="43.88374" lon="7.28307">
        <ele>984.440823</ele>
        <time>2011-12-04T09:41:11Z</time>
      </trkpt>
      <trkpt lat="43.88363" lon="7.28307">
        <ele>980.440804</ele>
        <time>2011-12-04T09:41:16Z</time>
      </trkpt>
      <trkpt lat="43.88362" lon="7.28306">
        <ele>980.440804</ele>
        <time>2011-12-04T09:41:17Z</time>
      </trkpt>
      <trkpt lat="43.88346" lon="7.28307">
        <ele>977.440784</ele>
        <time>2011-12-04T09:41:33Z</time>
      </trkpt>
      <trkpt lat="43.88337" lon="7.28308">
        <ele>975.440773</ele>
        <time>2011-12-04T09:41:38Z</time>
      </trkpt>
      <trkpt lat="43.88328" lon="7.2831">
        <ele>973.440765</ele>
        <time>2011-12-04T09:41:44Z</time>
      </trkpt>
      <trkpt lat="43.88327" lon="7.2831">
        <ele>973.440762</ele>
        <time>2011-12-04T09:41:45Z</time>
      </trkpt>
      <trkpt lat="43.8832" lon="7.28298">
        <ele>970.440727</ele>
        <time>2011-12-04T09:41:58Z</time>
      </trkpt>
      <trkpt lat="43.88321" lon="7.28285">
        <ele>969.440704</ele>
        <time>2011-12-04T09:42:03Z</time>
      </trkpt>
      <trkpt lat="43.88323" lon="7.28268">
        <ele>970.44067</ele>
        <time>2011-12-04T09:42:07Z</time>
      </trkpt>
      <trkpt lat="43.88323" lon="7.28247">
        <ele>970.440628</ele>
        <time>2011-12-04T09:42:10Z</time>
      </trkpt>
      <trkpt lat="43.88323" lon="7.28233">
        <ele>971.440598</ele>
        <time>2011-12-04T09:42:12Z</time>
      </trkpt>
      <trkpt lat="43.88323" lon="7.28216">
        <ele>972.440563</ele>
        <time>2011-12-04T09:42:17Z</time>
      </trkpt>
      <trkpt lat="43.88318" lon="7.28205">
        <ele>972.440533</ele>
        <time>2011-12-04T09:42:25Z</time>
      </trkpt>
      <trkpt lat="43.88317" lon="7.28204">
        <ele>972.440529</ele>
        <time>2011-12-04T09:42:27Z</time>
      </trkpt>
      <trkpt lat="43.88308" lon="7.282">
        <ele>974.44051</ele>
        <time>2011-12-04T09:42:56Z</time>
      </trkpt>
      <trkpt lat="43.88308" lon="7.282">
        <ele>974.44051</ele>
        <time>2011-12-04T09:42:59Z</time>
      </trkpt>
      <trkpt lat="43.8832" lon="7.2819">
        <ele>973.440506</ele>
        <time>2011-12-04T09:43:20Z</time>
      </trkpt>
      <trkpt lat="43.88325" lon="7.28174">
        <ele>973.440479</ele>
        <time>2011-12-04T09:43:22Z</time>
      </trkpt>
      <trkpt lat="43.88329" lon="7.28162">
        <ele>973.44046</ele>
        <time>2011-12-04T09:43:24Z</time>
      </trkpt>
      <trkpt lat="43.8833" lon="7.28149">
        <ele>972.440437</ele>
        <time>2011-12-04T09:43:25Z</time>
      </trkpt>
      <trkpt lat="43.88332" lon="7.28124">
        <ele>972.440388</ele>
        <time>2011-12-04T09:43:27Z</time>
      </trkpt>
      <trkpt lat="43.88329" lon="7.28111">
        <ele>971.440357</ele>
        <time>2011-12-04T09:43:28Z</time>
      </trkpt>
      <trkpt lat="43.88325" lon="7.28088">
        <ele>970.440308</ele>
        <time>2011-12-04T09:43:30Z</time>
      </trkpt>
      <trkpt lat="43.88317" lon="7.28069">
        <ele>969.440254</ele>
        <time>2011-12-04T09:43:32Z</time>
      </trkpt>
      <trkpt lat="43.88308" lon="7.28058">
        <ele>968.44022</ele>
        <time>2011-12-04T09:43:34Z</time>
      </trkpt>
      <trkpt lat="43.88303" lon="7.28053">
        <ele>967.440201</ele>
        <time>2011-12-04T09:43:35Z</time>
      </trkpt>
      <trkpt lat="43.88295" lon="7.28048">
        <ele>965.440178</ele>
        <time>2011-12-04T09:43:37Z</time>
      </trkpt>
      <trkpt lat="43.88284" lon="7.28041">
        <ele>962.440147</ele>
        <time>2011-12-04T09:43:40Z</time>
      </trkpt>
      <trkpt lat="43.8829" lon="7.28031">
        <ele>958.44014</ele>
        <time>2011-12-04T09:43:50Z</time>
      </trkpt>
      <trkpt lat="43.88283" lon="7.28022">
        <ele>956.440109</ele>
        <time>2011-12-04T09:43:54Z</time>
      </trkpt>
      <trkpt lat="43.88271" lon="7.2802">
        <ele>953.44009</ele>
        <time>2011-12-04T09:43:57Z</time>
      </trkpt>
      <trkpt lat="43.8826" lon="7.28018">
        <ele>950.440067</ele>
        <time>2011-12-04T09:44:00Z</time>
      </trkpt>
      <trkpt lat="43.88249" lon="7.28015">
        <ele>946.440052</ele>
        <time>2011-12-04T09:44:04Z</time>
      </trkpt>
      <trkpt lat="43.88249" lon="7.28014">
        <ele>946.440048</ele>
        <time>2011-12-04T09:44:09Z</time>
      </trkpt>
      <trkpt lat="43.88259" lon="7.27991">
        <ele>946.440014</ele>
        <time>2011-12-04T09:44:16Z</time>
      </trkpt>
      <trkpt lat="43.88261" lon="7.27989">
        <ele>946.44001</ele>
        <time>2011-12-04T09:44:17Z</time>
      </trkpt>
      <trkpt lat="43.88277" lon="7.27987">
        <ele>937.440033</ele>
        <time>2011-12-04T09:44:48Z</time>
      </trkpt>
      <trkpt lat="43.88287" lon="7.27991">
        <ele>929.440052</ele>
        <time>2011-12-04T09:45:12Z</time>
      </trkpt>
      <trkpt lat="43.88296" lon="7.27995">
        <ele>928.440071</ele>
        <time>2011-12-04T09:45:23Z</time>
      </trkpt>
      <trkpt lat="43.88305" lon="7.28001">
        <ele>922.440094</ele>
        <time>2011-12-04T09:45:39Z</time>
      </trkpt>
      <trkpt lat="43.88318" lon="7.2801">
        <ele>921.440132</ele>
        <time>2011-12-04T09:45:56Z</time>
      </trkpt>
      <trkpt lat="43.88325" lon="7.28017">
        <ele>919.440155</ele>
        <time>2011-12-04T09:46:07Z</time>
      </trkpt>
      <trkpt lat="43.8833" lon="7.28028">
        <ele>918.440186</ele>
        <time>2011-12-04T09:46:21Z</time>
      </trkpt>
      <trkpt lat="43.88339" lon="7.28056">
        <ele>916.440254</ele>
        <time>2011-12-04T09:46:42Z</time>
      </trkpt>
      <trkpt lat="43.88358" lon="7.2806">
        <ele>914.440289</ele>
        <time>2011-12-04T09:47:02Z</time>
      </trkpt>
      <trkpt lat="43.88363" lon="7.28066">
        <ele>911.440308</ele>
        <time>2011-12-04T09:47:17Z</time>
      </trkpt>
      <trkpt lat="43.88372" lon="7.28069">
        <ele>909.440331</ele>
        <time>2011-12-04T09:47:28Z</time>
      </trkpt>
      <trkpt lat="43.88382" lon="7.28075">
        <ele>907.440353</ele>
        <time>2011-12-04T09:47:34Z</time>
      </trkpt>
      <trkpt lat="43.8839" lon="7.28081">
        <ele>906.440376</ele>
        <time>2011-12-04T09:47:39Z</time>
      </trkpt>
      <trkpt lat="43.884" lon="7.28092">
        <ele>902.440414</ele>
        <time>2011-12-04T09:47:49Z</time>
      </trkpt>
      <trkpt lat="43.88408" lon="7.28101">
        <ele>899.440441</ele>
        <time>2011-12-04T09:47:57Z</time>
      </trkpt>
      <trkpt lat="43.88414" lon="7.2811">
        <ele>898.440472</ele>
        <time>2011-12-04T09:48:02Z</time>
      </trkpt>
      <trkpt lat="43.88417" lon="7.28122">
        <ele>897.440498</ele>
        <time>2011-12-04T09:48:07Z</time>
      </trkpt>
      <trkpt lat="43.88416" lon="7.28136">
        <ele>893.440525</ele>
        <time>2011-12-04T09:48:15Z</time>
      </trkpt>
      <trkpt lat="43.8842" lon="7.28149">
        <ele>889.440559</ele>
        <time>2011-12-04T09:48:27Z</time>
      </trkpt>
      <trkpt lat="43.88426" lon="7.28159">
        <ele>887.44059</ele>
        <time>2011-12-04T09:48:43Z</time>
      </trkpt>
      <trkpt lat="43.88432" lon="7.28169">
        <ele>884.440613</ele>
        <time>2011-12-04T09:49:03Z</time>
      </trkpt>
      <trkpt lat="43.88432" lon="7.28183">
        <ele>880.440647</ele>
        <time>2011-12-04T09:49:25Z</time>
      </trkpt>
      <trkpt lat="43.88442" lon="7.28183">
        <ele>884.440659</ele>
        <time>2011-12-04T09:49:47Z</time>
      </trkpt>
      <trkpt lat="43.88449" lon="7.28175">
        <ele>886.440651</ele>
        <time>2011-12-04T09:49:58Z</time>
      </trkpt>
      <trkpt lat="43.88457" lon="7.28168">
        <ele>888.440647</ele>
        <time>2011-12-04T09:50:09Z</time>
      </trkpt>
      <trkpt lat="43.88466" lon="7.28164">
        <ele>887.440651</ele>
        <time>2011-12-04T09:50:21Z</time>
      </trkpt>
      <trkpt lat="43.88476" lon="7.2817">
        <ele>887.440681</ele>
        <time>2011-12-04T09:50:34Z</time>
      </trkpt>
      <trkpt lat="43.88489" lon="7.28169">
        <ele>887.440689</ele>
        <time>2011-12-04T09:50:49Z</time>
      </trkpt>
      <trkpt lat="43.88497" lon="7.28165">
        <ele>885.440697</ele>
        <time>2011-12-04T09:51:06Z</time>
      </trkpt>
      <trkpt lat="43.88507" lon="7.28161">
        <ele>883.440704</ele>
        <time>2011-12-04T09:51:16Z</time>
      </trkpt>
      <trkpt lat="43.88515" lon="7.28162">
        <ele>880.440712</ele>
        <time>2011-12-04T09:51:25Z</time>
      </trkpt>
      <trkpt lat="43.88522" lon="7.28153">
        <ele>879.440704</ele>
        <time>2011-12-04T09:51:33Z</time>
      </trkpt>
      <trkpt lat="43.88523" lon="7.28146">
        <ele>879.440689</ele>
        <time>2011-12-04T09:51:35Z</time>
      </trkpt>
      <trkpt lat="43.88526" lon="7.28132">
        <ele>878.440666</ele>
        <time>2011-12-04T09:51:41Z</time>
      </trkpt>
      <trkpt lat="43.88529" lon="7.28119">
        <ele>878.440643</ele>
        <time>2011-12-04T09:51:47Z</time>
      </trkpt>
      <trkpt lat="43.88531" lon="7.28109">
        <ele>877.440628</ele>
        <time>2011-12-04T09:51:54Z</time>
      </trkpt>
      <trkpt lat="43.88538" lon="7.28098">
        <ele>873.440613</ele>
        <time>2011-12-04T09:52:15Z</time>
      </trkpt>
      <trkpt lat="43.88538" lon="7.28097">
        <ele>873.440613</ele>
        <time>2011-12-04T09:52:17Z</time>
      </trkpt>
      <trkpt lat="43.88546" lon="7.2809">
        <ele>870.440609</ele>
        <time>2011-12-04T09:52:38Z</time>
      </trkpt>
      <trkpt lat="43.88556" lon="7.2809">
        <ele>869.44062</ele>
        <time>2011-12-04T09:52:52Z</time>
      </trkpt>
      <trkpt lat="43.88564" lon="7.28095">
        <ele>871.440643</ele>
        <time>2011-12-04T09:53:09Z</time>
      </trkpt>
      <trkpt lat="43.88572" lon="7.28103">
        <ele>873.440674</ele>
        <time>2011-12-04T09:53:30Z</time>
      </trkpt>
      <trkpt lat="43.88584" lon="7.281">
        <ele>872.440681</ele>
        <time>2011-12-04T09:53:52Z</time>
      </trkpt>
      <trkpt lat="43.88591" lon="7.28092">
        <ele>874.440674</ele>
        <time>2011-12-04T09:54:08Z</time>
      </trkpt>
      <trkpt lat="43.8859" lon="7.28063">
        <ele>872.440613</ele>
        <time>2011-12-04T09:54:18Z</time>
      </trkpt>
      <trkpt lat="43.88595" lon="7.28063">
        <ele>865.44062</ele>
        <time>2011-12-04T09:54:34Z</time>
      </trkpt>
      <trkpt lat="43.88604" lon="7.28063">
        <ele>857.440632</ele>
        <time>2011-12-04T09:54:58Z</time>
      </trkpt>
      <trkpt lat="43.88612" lon="7.28068">
        <ele>855.440651</ele>
        <time>2011-12-04T09:55:08Z</time>
      </trkpt>
      <trkpt lat="43.8862" lon="7.28076">
        <ele>853.440678</ele>
        <time>2011-12-04T09:55:16Z</time>
      </trkpt>
      <trkpt lat="43.88628" lon="7.28082">
        <ele>851.440704</ele>
        <time>2011-12-04T09:55:29Z</time>
      </trkpt>
      <trkpt lat="43.88638" lon="7.28082">
        <ele>851.44072</ele>
        <time>2011-12-04T09:55:38Z</time>
      </trkpt>
      <trkpt lat="43.88646" lon="7.28076">
        <ele>850.440712</ele>
        <time>2011-12-04T09:55:49Z</time>
      </trkpt>
      <trkpt lat="43.88655" lon="7.28069">
        <ele>850.440712</ele>
        <time>2011-12-04T09:55:57Z</time>
      </trkpt>
      <trkpt lat="43.88665" lon="7.28068">
        <ele>851.44072</ele>
        <time>2011-12-04T09:56:00Z</time>
      </trkpt>
      <trkpt lat="43.88674" lon="7.28065">
        <ele>849.440731</ele>
        <time>2011-12-04T09:56:09Z</time>
      </trkpt>
      <trkpt lat="43.88681" lon="7.28073">
        <ele>846.440758</ele>
        <time>2011-12-04T09:56:19Z</time>
      </trkpt>
      <trkpt lat="43.88691" lon="7.28066">
        <ele>843.440754</ele>
        <time>2011-12-04T09:56:30Z</time>
      </trkpt>
      <trkpt lat="43.88701" lon="7.2806">
        <ele>841.440758</ele>
        <time>2011-12-04T09:56:36Z</time>
      </trkpt>
      <trkpt lat="43.88711" lon="7.28057">
        <ele>839.440765</ele>
        <time>2011-12-04T09:56:44Z</time>
      </trkpt>
      <trkpt lat="43.88721" lon="7.28056">
        <ele>837.440777</ele>
        <time>2011-12-04T09:56:47Z</time>
      </trkpt>
      <trkpt lat="43.88739" lon="7.28055">
        <ele>835.440804</ele>
        <time>2011-12-04T09:56:53Z</time>
      </trkpt>
      <trkpt lat="43.88749" lon="7.28048">
        <ele>835.440796</ele>
        <time>2011-12-04T09:56:57Z</time>
      </trkpt>
      <trkpt lat="43.88755" lon="7.28043">
        <ele>835.440796</ele>
        <time>2011-12-04T09:56:59Z</time>
      </trkpt>
      <trkpt lat="43.88763" lon="7.28034">
        <ele>835.440788</ele>
        <time>2011-12-04T09:57:02Z</time>
      </trkpt>
      <trkpt lat="43.88771" lon="7.28026">
        <ele>835.440781</ele>
        <time>2011-12-04T09:57:05Z</time>
      </trkpt>
      <trkpt lat="43.88773" lon="7.28022">
        <ele>836.440773</ele>
        <time>2011-12-04T09:57:06Z</time>
      </trkpt>
      <trkpt lat="43.88787" lon="7.28002">
        <ele>836.440758</ele>
        <time>2011-12-04T09:57:15Z</time>
      </trkpt>
      <trkpt lat="43.88795" lon="7.27992">
        <ele>836.440742</ele>
        <time>2011-12-04T09:57:18Z</time>
      </trkpt>
      <trkpt lat="43.88802" lon="7.27984">
        <ele>836.440735</ele>
        <time>2011-12-04T09:57:21Z</time>
      </trkpt>
      <trkpt lat="43.88809" lon="7.27973">
        <ele>835.440727</ele>
        <time>2011-12-04T09:57:24Z</time>
      </trkpt>
      <trkpt lat="43.88816" lon="7.27963">
        <ele>834.440712</ele>
        <time>2011-12-04T09:57:27Z</time>
      </trkpt>
      <trkpt lat="43.88822" lon="7.2795">
        <ele>833.440697</ele>
        <time>2011-12-04T09:57:30Z</time>
      </trkpt>
      <trkpt lat="43.88829" lon="7.27939">
        <ele>831.440685</ele>
        <time>2011-12-04T09:57:33Z</time>
      </trkpt>
      <trkpt lat="43.88831" lon="7.27937">
        <ele>831.440678</ele>
        <time>2011-12-04T09:57:34Z</time>
      </trkpt>
      <trkpt lat="43.8884" lon="7.27933">
        <ele>804.440689</ele>
        <time>2011-12-04T09:58:06Z</time>
      </trkpt>
      <trkpt lat="43.8884" lon="7.27934">
        <ele>804.440685</ele>
        <time>2011-12-04T09:58:08Z</time>
      </trkpt>
      <trkpt lat="43.88853" lon="7.27927">
        <ele>785.440689</ele>
        <time>2011-12-04T09:59:52Z</time>
      </trkpt>
      <trkpt lat="43.8886" lon="7.27937">
        <ele>787.44072</ele>
        <time>2011-12-04T09:59:57Z</time>
      </trkpt>
      <trkpt lat="43.88869" lon="7.27945">
        <ele>786.44075</ele>
        <time>2011-12-04T10:00:01Z</time>
      </trkpt>
      <trkpt lat="43.88871" lon="7.27947">
        <ele>786.440758</ele>
        <time>2011-12-04T10:00:02Z</time>
      </trkpt>
      <trkpt lat="43.8888" lon="7.27953">
        <ele>785.440781</ele>
        <time>2011-12-04T10:00:08Z</time>
      </trkpt>
      <trkpt lat="43.88892" lon="7.27949">
        <ele>782.440788</ele>
        <time>2011-12-04T10:00:19Z</time>
      </trkpt>
      <trkpt lat="43.88903" lon="7.27938">
        <ele>781.440781</ele>
        <time>2011-12-04T10:00:28Z</time>
      </trkpt>
      <trkpt lat="43.88904" lon="7.27936">
        <ele>780.440781</ele>
        <time>2011-12-04T10:00:30Z</time>
      </trkpt>
      <trkpt lat="43.88913" lon="7.27936">
        <ele>777.440788</ele>
        <time>2011-12-04T10:00:39Z</time>
      </trkpt>
      <trkpt lat="43.88921" lon="7.27943">
        <ele>776.440819</ele>
        <time>2011-12-04T10:00:45Z</time>
      </trkpt>
      <trkpt lat="43.88929" lon="7.27951">
        <ele>773.440842</ele>
        <time>2011-12-04T10:00:54Z</time>
      </trkpt>
      <trkpt lat="43.88931" lon="7.27952">
        <ele>771.440849</ele>
        <time>2011-12-04T10:00:59Z</time>
      </trkpt>
      <trkpt lat="43.88939" lon="7.27958">
        <ele>769.440872</ele>
        <time>2011-12-04T10:01:12Z</time>
      </trkpt>
      <trkpt lat="43.88959" lon="7.27995">
        <ele>769.440975</ele>
        <time>2011-12-04T10:01:37Z</time>
      </trkpt>
      <trkpt lat="43.88967" lon="7.28002">
        <ele>765.441002</ele>
        <time>2011-12-04T10:01:55Z</time>
      </trkpt>
      <trkpt lat="43.88993" lon="7.28021">
        <ele>758.441074</ele>
        <time>2011-12-04T10:02:31Z</time>
      </trkpt>
      <trkpt lat="43.89004" lon="7.2802">
        <ele>757.441086</ele>
        <time>2011-12-04T10:02:34Z</time>
      </trkpt>
      <trkpt lat="43.89017" lon="7.28015">
        <ele>754.441093</ele>
        <time>2011-12-04T10:02:37Z</time>
      </trkpt>
      <trkpt lat="43.89027" lon="7.28012">
        <ele>749.441101</ele>
        <time>2011-12-04T10:02:41Z</time>
      </trkpt>
      <trkpt lat="43.89027" lon="7.28012">
        <ele>748.441101</ele>
        <time>2011-12-04T10:02:42Z</time>
      </trkpt>
      <trkpt lat="43.89042" lon="7.28008">
        <ele>727.441113</ele>
        <time>2011-12-04T10:05:00Z</time>
      </trkpt>
      <trkpt lat="43.89052" lon="7.28005">
        <ele>728.441116</ele>
        <time>2011-12-04T10:05:04Z</time>
      </trkpt>
      <trkpt lat="43.89061" lon="7.27996">
        <ele>728.441116</ele>
        <time>2011-12-04T10:05:09Z</time>
      </trkpt>
      <trkpt lat="43.89061" lon="7.27996">
        <ele>728.441116</ele>
        <time>2011-12-04T10:05:11Z</time>
      </trkpt>
      <trkpt lat="43.89066" lon="7.27985">
        <ele>728.441101</ele>
        <time>2011-12-04T10:05:14Z</time>
      </trkpt>
      <trkpt lat="43.89073" lon="7.27973">
        <ele>728.441082</ele>
        <time>2011-12-04T10:05:20Z</time>
      </trkpt>
      <trkpt lat="43.89082" lon="7.27971">
        <ele>729.44109</ele>
        <time>2011-12-04T10:05:25Z</time>
      </trkpt>
      <trkpt lat="43.89092" lon="7.27974">
        <ele>730.441113</ele>
        <time>2011-12-04T10:05:30Z</time>
      </trkpt>
      <trkpt lat="43.89101" lon="7.2798">
        <ele>731.441132</ele>
        <time>2011-12-04T10:05:34Z</time>
      </trkpt>
      <trkpt lat="43.89109" lon="7.27989">
        <ele>732.44117</ele>
        <time>2011-12-04T10:05:38Z</time>
      </trkpt>
      <trkpt lat="43.89113" lon="7.27994">
        <ele>732.441185</ele>
        <time>2011-12-04T10:05:40Z</time>
      </trkpt>
      <trkpt lat="43.89121" lon="7.28006">
        <ele>732.441216</ele>
        <time>2011-12-04T10:05:46Z</time>
      </trkpt>
      <trkpt lat="43.89123" lon="7.28019">
        <ele>731.441246</ele>
        <time>2011-12-04T10:05:51Z</time>
      </trkpt>
      <trkpt lat="43.89129" lon="7.28053">
        <ele>733.441322</ele>
        <time>2011-12-04T10:06:10Z</time>
      </trkpt>
      <trkpt lat="43.89141" lon="7.28051">
        <ele>733.441341</ele>
        <time>2011-12-04T10:06:17Z</time>
      </trkpt>
      <trkpt lat="43.89151" lon="7.28051">
        <ele>733.441353</ele>
        <time>2011-12-04T10:06:24Z</time>
      </trkpt>
      <trkpt lat="43.89157" lon="7.28042">
        <ele>730.441338</ele>
        <time>2011-12-04T10:06:29Z</time>
      </trkpt>
      <trkpt lat="43.89161" lon="7.28037">
        <ele>729.441338</ele>
        <time>2011-12-04T10:06:35Z</time>
      </trkpt>
      <trkpt lat="43.89167" lon="7.28021">
        <ele>729.441311</ele>
        <time>2011-12-04T10:06:41Z</time>
      </trkpt>
      <trkpt lat="43.89173" lon="7.28006">
        <ele>729.441288</ele>
        <time>2011-12-04T10:06:44Z</time>
      </trkpt>
      <trkpt lat="43.89177" lon="7.27991">
        <ele>729.441261</ele>
        <time>2011-12-04T10:06:48Z</time>
      </trkpt>
      <trkpt lat="43.89179" lon="7.27982">
        <ele>729.441246</ele>
        <time>2011-12-04T10:06:53Z</time>
      </trkpt>
      <trkpt lat="43.89184" lon="7.27972">
        <ele>721.441235</ele>
        <time>2011-12-04T10:07:23Z</time>
      </trkpt>
      <trkpt lat="43.89189" lon="7.27958">
        <ele>721.441216</ele>
        <time>2011-12-04T10:07:37Z</time>
      </trkpt>
      <trkpt lat="43.89187" lon="7.27942">
        <ele>721.441174</ele>
        <time>2011-12-04T10:07:40Z</time>
      </trkpt>
      <trkpt lat="43.89186" lon="7.27931">
        <ele>721.441147</ele>
        <time>2011-12-04T10:07:42Z</time>
      </trkpt>
      <trkpt lat="43.89186" lon="7.27915">
        <ele>721.44112</ele>
        <time>2011-12-04T10:07:45Z</time>
      </trkpt>
      <trkpt lat="43.89185" lon="7.27899">
        <ele>721.441086</ele>
        <time>2011-12-04T10:07:48Z</time>
      </trkpt>
      <trkpt lat="43.89184" lon="7.27883">
        <ele>720.441048</ele>
        <time>2011-12-04T10:07:51Z</time>
      </trkpt>
      <trkpt lat="43.89182" lon="7.27869">
        <ele>719.441017</ele>
        <time>2011-12-04T10:07:54Z</time>
      </trkpt>
      <trkpt lat="43.89182" lon="7.27865">
        <ele>719.44101</ele>
        <time>2011-12-04T10:07:55Z</time>
      </trkpt>
      <trkpt lat="43.89181" lon="7.27851">
        <ele>719.440983</ele>
        <time>2011-12-04T10:07:59Z</time>
      </trkpt>
      <trkpt lat="43.89176" lon="7.27839">
        <ele>718.440948</ele>
        <time>2011-12-04T10:08:06Z</time>
      </trkpt>
      <trkpt lat="43.89175" lon="7.27837">
        <ele>717.440941</ele>
        <time>2011-12-04T10:08:07Z</time>
      </trkpt>
      <trkpt lat="43.8917" lon="7.27825">
        <ele>714.44091</ele>
        <time>2011-12-04T10:08:12Z</time>
      </trkpt>
      <trkpt lat="43.89165" lon="7.27814">
        <ele>712.440884</ele>
        <time>2011-12-04T10:08:17Z</time>
      </trkpt>
      <trkpt lat="43.89158" lon="7.27798">
        <ele>707.440842</ele>
        <time>2011-12-04T10:08:24Z</time>
      </trkpt>
      <trkpt lat="43.89155" lon="7.27786">
        <ele>705.440811</ele>
        <time>2011-12-04T10:08:30Z</time>
      </trkpt>
      <trkpt lat="43.89153" lon="7.27773">
        <ele>702.440781</ele>
        <time>2011-12-04T10:08:36Z</time>
      </trkpt>
      <trkpt lat="43.89153" lon="7.27769">
        <ele>701.440773</ele>
        <time>2011-12-04T10:08:37Z</time>
      </trkpt>
      <trkpt lat="43.89151" lon="7.27753">
        <ele>698.440735</ele>
        <time>2011-12-04T10:08:41Z</time>
      </trkpt>
      <trkpt lat="43.89149" lon="7.27749">
        <ele>697.440727</ele>
        <time>2011-12-04T10:08:42Z</time>
      </trkpt>
      <trkpt lat="43.89146" lon="7.27734">
        <ele>694.440689</ele>
        <time>2011-12-04T10:08:45Z</time>
      </trkpt>
      <trkpt lat="43.89143" lon="7.2772">
        <ele>692.440659</ele>
        <time>2011-12-04T10:08:47Z</time>
      </trkpt>
      <trkpt lat="43.8914" lon="7.27706">
        <ele>687.440628</ele>
        <time>2011-12-04T10:08:49Z</time>
      </trkpt>
      <trkpt lat="43.89135" lon="7.2769">
        <ele>681.440586</ele>
        <time>2011-12-04T10:08:52Z</time>
      </trkpt>
      <trkpt lat="43.8913" lon="7.27676">
        <ele>674.440552</ele>
        <time>2011-12-04T10:08:55Z</time>
      </trkpt>
      <trkpt lat="43.89125" lon="7.27664">
        <ele>668.440521</ele>
        <time>2011-12-04T10:08:58Z</time>
      </trkpt>
      <trkpt lat="43.89122" lon="7.27652">
        <ele>664.440491</ele>
        <time>2011-12-04T10:09:01Z</time>
      </trkpt>
      <trkpt lat="43.89118" lon="7.27638">
        <ele>659.440456</ele>
        <time>2011-12-04T10:09:05Z</time>
      </trkpt>
      <trkpt lat="43.89115" lon="7.27628">
        <ele>655.440434</ele>
        <time>2011-12-04T10:09:08Z</time>
      </trkpt>
      <trkpt lat="43.89109" lon="7.27614">
        <ele>650.440392</ele>
        <time>2011-12-04T10:09:12Z</time>
      </trkpt>
      <trkpt lat="43.89104" lon="7.27602">
        <ele>646.440361</ele>
        <time>2011-12-04T10:09:15Z</time>
      </trkpt>
      <trkpt lat="43.89101" lon="7.27592">
        <ele>644.440338</ele>
        <time>2011-12-04T10:09:17Z</time>
      </trkpt>
      <trkpt lat="43.89098" lon="7.2758">
        <ele>641.440308</ele>
        <time>2011-12-04T10:09:20Z</time>
      </trkpt>
      <trkpt lat="43.89099" lon="7.27576">
        <ele>640.4403</ele>
        <time>2011-12-04T10:09:21Z</time>
      </trkpt>
      <trkpt lat="43.89105" lon="7.27564">
        <ele>636.440285</ele>
        <time>2011-12-04T10:09:25Z</time>
      </trkpt>
      <trkpt lat="43.89114" lon="7.27558">
        <ele>635.440285</ele>
        <time>2011-12-04T10:09:28Z</time>
      </trkpt>
      <trkpt lat="43.89117" lon="7.27556">
        <ele>635.440285</ele>
        <time>2011-12-04T10:09:29Z</time>
      </trkpt>
      <trkpt lat="43.89122" lon="7.27546">
        <ele>634.440269</ele>
        <time>2011-12-04T10:09:35Z</time>
      </trkpt>
      <trkpt lat="43.89122" lon="7.27543">
        <ele>634.440266</ele>
        <time>2011-12-04T10:09:36Z</time>
      </trkpt>
      <trkpt lat="43.89117" lon="7.27529">
        <ele>624.440231</ele>
        <time>2011-12-04T10:11:48Z</time>
      </trkpt>
      <trkpt lat="43.89113" lon="7.27521">
        <ele>623.440208</ele>
        <time>2011-12-04T10:11:50Z</time>
      </trkpt>
      <trkpt lat="43.89108" lon="7.27505">
        <ele>622.44017</ele>
        <time>2011-12-04T10:11:53Z</time>
      </trkpt>
      <trkpt lat="43.89106" lon="7.27491">
        <ele>622.44014</ele>
        <time>2011-12-04T10:11:55Z</time>
      </trkpt>
      <trkpt lat="43.89103" lon="7.27478">
        <ele>621.440109</ele>
        <time>2011-12-04T10:11:57Z</time>
      </trkpt>
      <trkpt lat="43.89104" lon="7.27461">
        <ele>621.440071</ele>
        <time>2011-12-04T10:12:00Z</time>
      </trkpt>
      <trkpt lat="43.89107" lon="7.27454">
        <ele>621.440063</ele>
        <time>2011-12-04T10:12:01Z</time>
      </trkpt>
      <trkpt lat="43.89115" lon="7.27443">
        <ele>620.440048</ele>
        <time>2011-12-04T10:12:03Z</time>
      </trkpt>
      <trkpt lat="43.89123" lon="7.27435">
        <ele>620.440044</ele>
        <time>2011-12-04T10:12:05Z</time>
      </trkpt>
      <trkpt lat="43.89126" lon="7.27432">
        <ele>619.440044</ele>
        <time>2011-12-04T10:12:06Z</time>
      </trkpt>
      <trkpt lat="43.89136" lon="7.27424">
        <ele>618.440044</ele>
        <time>2011-12-04T10:12:09Z</time>
      </trkpt>
      <trkpt lat="43.89144" lon="7.27417">
        <ele>617.440041</ele>
        <time>2011-12-04T10:12:12Z</time>
      </trkpt>
      <trkpt lat="43.89154" lon="7.27411">
        <ele>615.440041</ele>
        <time>2011-12-04T10:12:17Z</time>
      </trkpt>
      <trkpt lat="43.89154" lon="7.2741">
        <ele>615.440033</ele>
        <time>2011-12-04T10:12:19Z</time>
      </trkpt>
      <trkpt lat="43.89152" lon="7.27397">
        <ele>615.44001</ele>
        <time>2011-12-04T10:12:30Z</time>
      </trkpt>
      <trkpt lat="43.89146" lon="7.27387">
        <ele>616.43998</ele>
        <time>2011-12-04T10:12:33Z</time>
      </trkpt>
      <trkpt lat="43.89136" lon="7.27377">
        <ele>617.439941</ele>
        <time>2011-12-04T10:12:38Z</time>
      </trkpt>
      <trkpt lat="43.89127" lon="7.27366">
        <ele>618.439911</ele>
        <time>2011-12-04T10:12:41Z</time>
      </trkpt>
      <trkpt lat="43.89118" lon="7.27355">
        <ele>618.439873</ele>
        <time>2011-12-04T10:12:44Z</time>
      </trkpt>
      <trkpt lat="43.89109" lon="7.27342">
        <ele>618.439838</ele>
        <time>2011-12-04T10:12:47Z</time>
      </trkpt>
      <trkpt lat="43.89103" lon="7.27333">
        <ele>617.439812</ele>
        <time>2011-12-04T10:12:49Z</time>
      </trkpt>
      <trkpt lat="43.89093" lon="7.27321">
        <ele>617.439774</ele>
        <time>2011-12-04T10:12:52Z</time>
      </trkpt>
      <trkpt lat="43.89086" lon="7.27312">
        <ele>616.439743</ele>
        <time>2011-12-04T10:12:55Z</time>
      </trkpt>
      <trkpt lat="43.89079" lon="7.273">
        <ele>615.439713</ele>
        <time>2011-12-04T10:12:59Z</time>
      </trkpt>
      <trkpt lat="43.89075" lon="7.27289">
        <ele>614.439682</ele>
        <time>2011-12-04T10:13:02Z</time>
      </trkpt>
      <trkpt lat="43.89069" lon="7.27275">
        <ele>614.439648</ele>
        <time>2011-12-04T10:13:06Z</time>
      </trkpt>
      <trkpt lat="43.89065" lon="7.27263">
        <ele>613.439613</ele>
        <time>2011-12-04T10:13:09Z</time>
      </trkpt>
      <trkpt lat="43.89063" lon="7.27255">
        <ele>613.439594</ele>
        <time>2011-12-04T10:13:11Z</time>
      </trkpt>
      <trkpt lat="43.89061" lon="7.27242">
        <ele>612.439564</ele>
        <time>2011-12-04T10:13:14Z</time>
      </trkpt>
      <trkpt lat="43.89058" lon="7.27229">
        <ele>611.439537</ele>
        <time>2011-12-04T10:13:17Z</time>
      </trkpt>
      <trkpt lat="43.89057" lon="7.27221">
        <ele>610.439514</ele>
        <time>2011-12-04T10:13:19Z</time>
      </trkpt>
      <trkpt lat="43.89057" lon="7.27207">
        <ele>608.439487</ele>
        <time>2011-12-04T10:13:22Z</time>
      </trkpt>
      <trkpt lat="43.89058" lon="7.27194">
        <ele>608.439465</ele>
        <time>2011-12-04T10:13:25Z</time>
      </trkpt>
      <trkpt lat="43.89058" lon="7.27189">
        <ele>608.439457</ele>
        <time>2011-12-04T10:13:26Z</time>
      </trkpt>
      <trkpt lat="43.8906" lon="7.27175">
        <ele>607.439426</ele>
        <time>2011-12-04T10:13:29Z</time>
      </trkpt>
      <trkpt lat="43.8906" lon="7.27162">
        <ele>607.4394</ele>
        <time>2011-12-04T10:13:32Z</time>
      </trkpt>
      <trkpt lat="43.89057" lon="7.27148">
        <ele>606.439369</ele>
        <time>2011-12-04T10:13:35Z</time>
      </trkpt>
      <trkpt lat="43.89054" lon="7.27132">
        <ele>606.439331</ele>
        <time>2011-12-04T10:13:38Z</time>
      </trkpt>
      <trkpt lat="43.89056" lon="7.27125">
        <ele>606.439316</ele>
        <time>2011-12-04T10:13:39Z</time>
      </trkpt>
      <trkpt lat="43.89057" lon="7.2711">
        <ele>606.439289</ele>
        <time>2011-12-04T10:13:42Z</time>
      </trkpt>
      <trkpt lat="43.89059" lon="7.27093">
        <ele>605.439255</ele>
        <time>2011-12-04T10:13:45Z</time>
      </trkpt>
      <trkpt lat="43.8906" lon="7.27076">
        <ele>601.439224</ele>
        <time>2011-12-04T10:13:48Z</time>
      </trkpt>
      <trkpt lat="43.89061" lon="7.27061">
        <ele>594.43919</ele>
        <time>2011-12-04T10:13:50Z</time>
      </trkpt>
      <trkpt lat="43.89062" lon="7.27045">
        <ele>586.439163</ele>
        <time>2011-12-04T10:13:52Z</time>
      </trkpt>
      <trkpt lat="43.89062" lon="7.27031">
        <ele>580.439133</ele>
        <time>2011-12-04T10:13:54Z</time>
      </trkpt>
      <trkpt lat="43.89065" lon="7.27013">
        <ele>573.439098</ele>
        <time>2011-12-04T10:13:57Z</time>
      </trkpt>
      <trkpt lat="43.8907" lon="7.27002">
        <ele>567.439079</ele>
        <time>2011-12-04T10:13:59Z</time>
      </trkpt>
      <trkpt lat="43.89077" lon="7.26986">
        <ele>560.43906</ele>
        <time>2011-12-04T10:14:02Z</time>
      </trkpt>
      <trkpt lat="43.89085" lon="7.26976">
        <ele>556.439053</ele>
        <time>2011-12-04T10:14:05Z</time>
      </trkpt>
      <trkpt lat="43.89088" lon="7.26964">
        <ele>553.439034</ele>
        <time>2011-12-04T10:14:08Z</time>
      </trkpt>
      <trkpt lat="43.89086" lon="7.26952">
        <ele>548.439003</ele>
        <time>2011-12-04T10:14:13Z</time>
      </trkpt>
      <trkpt lat="43.89083" lon="7.2694">
        <ele>543.438972</ele>
        <time>2011-12-04T10:14:17Z</time>
      </trkpt>
      <trkpt lat="43.89081" lon="7.26923">
        <ele>541.438934</ele>
        <time>2011-12-04T10:14:21Z</time>
      </trkpt>
      <trkpt lat="43.89084" lon="7.26908">
        <ele>541.438911</ele>
        <time>2011-12-04T10:14:24Z</time>
      </trkpt>
      <trkpt lat="43.89088" lon="7.26891">
        <ele>540.438881</ele>
        <time>2011-12-04T10:14:27Z</time>
      </trkpt>
      <trkpt lat="43.89093" lon="7.2688">
        <ele>540.438869</ele>
        <time>2011-12-04T10:14:30Z</time>
      </trkpt>
      <trkpt lat="43.89094" lon="7.26848">
        <ele>539.438801</ele>
        <time>2011-12-04T10:14:38Z</time>
      </trkpt>
      <trkpt lat="43.89093" lon="7.26832">
        <ele>538.438766</ele>
        <time>2011-12-04T10:14:41Z</time>
      </trkpt>
      <trkpt lat="43.89095" lon="7.26808">
        <ele>537.438721</ele>
        <time>2011-12-04T10:14:44Z</time>
      </trkpt>
      <trkpt lat="43.89096" lon="7.26792">
        <ele>536.438686</ele>
        <time>2011-12-04T10:14:46Z</time>
      </trkpt>
      <trkpt lat="43.89097" lon="7.26773">
        <ele>535.438652</ele>
        <time>2011-12-04T10:14:48Z</time>
      </trkpt>
      <trkpt lat="43.89098" lon="7.26753">
        <ele>533.43861</ele>
        <time>2011-12-04T10:14:50Z</time>
      </trkpt>
      <trkpt lat="43.891" lon="7.26733">
        <ele>532.438576</ele>
        <time>2011-12-04T10:14:52Z</time>
      </trkpt>
      <trkpt lat="43.89104" lon="7.26715">
        <ele>530.438541</ele>
        <time>2011-12-04T10:14:54Z</time>
      </trkpt>
      <trkpt lat="43.89109" lon="7.26702">
        <ele>528.438522</ele>
        <time>2011-12-04T10:14:56Z</time>
      </trkpt>
      <trkpt lat="43.89113" lon="7.26688">
        <ele>526.438499</ele>
        <time>2011-12-04T10:14:58Z</time>
      </trkpt>
      <trkpt lat="43.89121" lon="7.26676">
        <ele>524.43848</ele>
        <time>2011-12-04T10:15:01Z</time>
      </trkpt>
      <trkpt lat="43.89129" lon="7.26665">
        <ele>521.438477</ele>
        <time>2011-12-04T10:15:04Z</time>
      </trkpt>
      <trkpt lat="43.89137" lon="7.26657">
        <ele>518.438469</ele>
        <time>2011-12-04T10:15:07Z</time>
      </trkpt>
      <trkpt lat="43.89146" lon="7.2665">
        <ele>516.438465</ele>
        <time>2011-12-04T10:15:10Z</time>
      </trkpt>
      <trkpt lat="43.89154" lon="7.26641">
        <ele>513.438461</ele>
        <time>2011-12-04T10:15:14Z</time>
      </trkpt>
      <trkpt lat="43.89156" lon="7.26628">
        <ele>509.438431</ele>
        <time>2011-12-04T10:15:19Z</time>
      </trkpt>
      <trkpt lat="43.89153" lon="7.26615">
        <ele>504.438404</ele>
        <time>2011-12-04T10:15:23Z</time>
      </trkpt>
      <trkpt lat="43.8915" lon="7.266">
        <ele>497.43837</ele>
        <time>2011-12-04T10:15:27Z</time>
      </trkpt>
      <trkpt lat="43.89147" lon="7.26586">
        <ele>489.438335</ele>
        <time>2011-12-04T10:15:31Z</time>
      </trkpt>
      <trkpt lat="43.89153" lon="7.26574">
        <ele>481.43832</ele>
        <time>2011-12-04T10:15:36Z</time>
      </trkpt>
      <trkpt lat="43.89158" lon="7.2657">
        <ele>479.438316</ele>
        <time>2011-12-04T10:15:38Z</time>
      </trkpt>
      <trkpt lat="43.89178" lon="7.26577">
        <ele>445.438354</ele>
        <time>2011-12-04T10:16:33Z</time>
      </trkpt>
      <trkpt lat="43.89186" lon="7.26581">
        <ele>442.438381</ele>
        <time>2011-12-04T10:17:05Z</time>
      </trkpt>
      <trkpt lat="43.89195" lon="7.26583">
        <ele>439.4384</ele>
        <time>2011-12-04T10:17:19Z</time>
      </trkpt>
      <trkpt lat="43.89209" lon="7.2655">
        <ele>442.438347</ele>
        <time>2011-12-04T10:17:46Z</time>
      </trkpt>
      <trkpt lat="43.89209" lon="7.26535">
        <ele>443.438309</ele>
        <time>2011-12-04T10:17:50Z</time>
      </trkpt>
      <trkpt lat="43.89209" lon="7.26517">
        <ele>443.438278</ele>
        <time>2011-12-04T10:17:54Z</time>
      </trkpt>
      <trkpt lat="43.8921" lon="7.26503">
        <ele>444.438251</ele>
        <time>2011-12-04T10:17:56Z</time>
      </trkpt>
      <trkpt lat="43.89212" lon="7.26489">
        <ele>444.438225</ele>
        <time>2011-12-04T10:17:59Z</time>
      </trkpt>
      <trkpt lat="43.89217" lon="7.26474">
        <ele>444.438194</ele>
        <time>2011-12-04T10:18:03Z</time>
      </trkpt>
      <trkpt lat="43.89223" lon="7.26451">
        <ele>445.438164</ele>
        <time>2011-12-04T10:18:09Z</time>
      </trkpt>
      <trkpt lat="43.89227" lon="7.26432">
        <ele>445.438129</ele>
        <time>2011-12-04T10:18:11Z</time>
      </trkpt>
      <trkpt lat="43.89232" lon="7.26415">
        <ele>446.438099</ele>
        <time>2011-12-04T10:18:13Z</time>
      </trkpt>
      <trkpt lat="43.89239" lon="7.264">
        <ele>447.43808</ele>
        <time>2011-12-04T10:18:15Z</time>
      </trkpt>
      <trkpt lat="43.89249" lon="7.26392">
        <ele>447.43808</ele>
        <time>2011-12-04T10:18:17Z</time>
      </trkpt>
      <trkpt lat="43.89258" lon="7.26383">
        <ele>447.438072</ele>
        <time>2011-12-04T10:18:19Z</time>
      </trkpt>
      <trkpt lat="43.89279" lon="7.26343">
        <ele>449.438019</ele>
        <time>2011-12-04T10:18:32Z</time>
      </trkpt>
      <trkpt lat="43.89279" lon="7.26343">
        <ele>449.438019</ele>
        <time>2011-12-04T10:18:36Z</time>
      </trkpt>
      <trkpt lat="43.8928" lon="7.26313">
        <ele>450.437958</ele>
        <time>2011-12-04T10:18:44Z</time>
      </trkpt>
      <trkpt lat="43.89284" lon="7.26299">
        <ele>450.437935</ele>
        <time>2011-12-04T10:18:50Z</time>
      </trkpt>
      <trkpt lat="43.89289" lon="7.26277">
        <ele>452.437897</ele>
        <time>2011-12-04T10:19:01Z</time>
      </trkpt>
      <trkpt lat="43.89293" lon="7.26264">
        <ele>453.437874</ele>
        <time>2011-12-04T10:19:08Z</time>
      </trkpt>
      <trkpt lat="43.89302" lon="7.26272">
        <ele>453.437897</ele>
        <time>2011-12-04T10:19:12Z</time>
      </trkpt>
      <trkpt lat="43.89318" lon="7.26258">
        <ele>453.437893</ele>
        <time>2011-12-04T10:19:14Z</time>
      </trkpt>
      <trkpt lat="43.89312" lon="7.26214">
        <ele>447.437798</ele>
        <time>2011-12-04T10:19:27Z</time>
      </trkpt>
      <trkpt lat="43.89315" lon="7.26179">
        <ele>447.437729</ele>
        <time>2011-12-04T10:19:39Z</time>
      </trkpt>
      <trkpt lat="43.89336" lon="7.26163">
        <ele>446.437721</ele>
        <time>2011-12-04T10:19:58Z</time>
      </trkpt>
      <trkpt lat="43.89345" lon="7.26161">
        <ele>446.437737</ele>
        <time>2011-12-04T10:20:06Z</time>
      </trkpt>
      <trkpt lat="43.89354" lon="7.26156">
        <ele>447.437737</ele>
        <time>2011-12-04T10:20:14Z</time>
      </trkpt>
      <trkpt lat="43.89364" lon="7.2615">
        <ele>452.437737</ele>
        <time>2011-12-04T10:20:26Z</time>
      </trkpt>
      <trkpt lat="43.89372" lon="7.26136">
        <ele>454.437717</ele>
        <time>2011-12-04T10:20:30Z</time>
      </trkpt>
      <trkpt lat="43.89375" lon="7.26123">
        <ele>455.437695</ele>
        <time>2011-12-04T10:20:32Z</time>
      </trkpt>
      <trkpt lat="43.89378" lon="7.26108">
        <ele>456.437672</ele>
        <time>2011-12-04T10:20:34Z</time>
      </trkpt>
      <trkpt lat="43.89381" lon="7.26094">
        <ele>457.437649</ele>
        <time>2011-12-04T10:20:36Z</time>
      </trkpt>
      <trkpt lat="43.89387" lon="7.26075">
        <ele>457.437614</ele>
        <time>2011-12-04T10:20:38Z</time>
      </trkpt>
      <trkpt lat="43.89395" lon="7.26057">
        <ele>458.437592</ele>
        <time>2011-12-04T10:20:40Z</time>
      </trkpt>
      <trkpt lat="43.89399" lon="7.26044">
        <ele>458.437565</ele>
        <time>2011-12-04T10:20:41Z</time>
      </trkpt>
      <trkpt lat="43.89405" lon="7.26018">
        <ele>459.437523</ele>
        <time>2011-12-04T10:20:43Z</time>
      </trkpt>
      <trkpt lat="43.89411" lon="7.25998">
        <ele>460.437485</ele>
        <time>2011-12-04T10:20:45Z</time>
      </trkpt>
      <trkpt lat="43.89416" lon="7.25976">
        <ele>461.437454</ele>
        <time>2011-12-04T10:20:47Z</time>
      </trkpt>
      <trkpt lat="43.8942" lon="7.25958">
        <ele>461.43742</ele>
        <time>2011-12-04T10:20:49Z</time>
      </trkpt>
      <trkpt lat="43.89424" lon="7.25941">
        <ele>461.437389</ele>
        <time>2011-12-04T10:20:51Z</time>
      </trkpt>
      <trkpt lat="43.89426" lon="7.25935">
        <ele>461.437378</ele>
        <time>2011-12-04T10:20:52Z</time>
      </trkpt>
      <trkpt lat="43.89429" lon="7.25922">
        <ele>462.437359</ele>
        <time>2011-12-04T10:20:54Z</time>
      </trkpt>
      <trkpt lat="43.89432" lon="7.25906">
        <ele>462.437332</ele>
        <time>2011-12-04T10:20:57Z</time>
      </trkpt>
      <trkpt lat="43.89436" lon="7.25892">
        <ele>463.437302</ele>
        <time>2011-12-04T10:21:00Z</time>
      </trkpt>
      <trkpt lat="43.8944" lon="7.25875">
        <ele>463.437275</ele>
        <time>2011-12-04T10:21:02Z</time>
      </trkpt>
      <trkpt lat="43.89445" lon="7.25859">
        <ele>463.437248</ele>
        <time>2011-12-04T10:21:05Z</time>
      </trkpt>
      <trkpt lat="43.89445" lon="7.25857">
        <ele>463.437248</ele>
        <time>2011-12-04T10:21:07Z</time>
      </trkpt>
      <trkpt lat="43.89448" lon="7.25845">
        <ele>461.437225</ele>
        <time>2011-12-04T10:21:23Z</time>
      </trkpt>
    </trkseg>
  </trk>
</gpx>